<?xml version="1.0" encoding="UTF-8" standalone="no" ?>
<gpx xmlns="http://www.topografix.com/GPX/1/1" xmlns:xsi="http://www.w3.org/2001/XMLSchema-instance" xsi:schemaLocation="http://www.topografix.com/GPX/1/1 http://www.topografix.com/GPX/1/1/gpx.xsd" version="1.1" creator="VisuGPX - https://www.visugpx.com">
  <metadata>
    <name>2017-06-08-Cubservies</name>
    <desc><![CDATA[Randonnée de 14,5km pour 550m de dénivelé vers la cascade invisible de Cubserviès]]></desc>
  </metadata>
  <trk>
    <name><![CDATA[2017-06-08 17:10:07]]></name>
    <trkseg>
      <trkpt lat="43.37172" lon="2.37747">
        <ele>344.29</ele>
        <time>2017-06-08T08:01:07Z</time>
      </trkpt>
      <trkpt lat="43.37179" lon="2.37756">
        <ele>345.25</ele>
        <time>2017-06-08T08:01:25Z</time>
      </trkpt>
      <trkpt lat="43.37191" lon="2.37763">
        <ele>348.62</ele>
        <time>2017-06-08T08:01:41Z</time>
      </trkpt>
      <trkpt lat="43.372" lon="2.37767">
        <ele>351.5</ele>
        <time>2017-06-08T08:01:54Z</time>
      </trkpt>
      <trkpt lat="43.37211" lon="2.37769">
        <ele>349.58</ele>
        <time>2017-06-08T08:02:07Z</time>
      </trkpt>
      <trkpt lat="43.37215" lon="2.37778">
        <ele>346.21</ele>
        <time>2017-06-08T08:02:17Z</time>
      </trkpt>
      <trkpt lat="43.37217" lon="2.37781">
        <ele>345.73</ele>
        <time>2017-06-08T08:02:20Z</time>
      </trkpt>
      <trkpt lat="43.37225" lon="2.37786">
        <ele>341.89</ele>
        <time>2017-06-08T08:02:33Z</time>
      </trkpt>
      <trkpt lat="43.37234" lon="2.3779">
        <ele>346.21</ele>
        <time>2017-06-08T08:02:48Z</time>
      </trkpt>
      <trkpt lat="43.37233" lon="2.37783">
        <ele>345.25</ele>
        <time>2017-06-08T08:03:01Z</time>
      </trkpt>
      <trkpt lat="43.37246" lon="2.37771">
        <ele>342.37</ele>
        <time>2017-06-08T08:03:14Z</time>
      </trkpt>
      <trkpt lat="43.37245" lon="2.37759">
        <ele>341.89</ele>
        <time>2017-06-08T08:03:29Z</time>
      </trkpt>
      <trkpt lat="43.37241" lon="2.37747">
        <ele>341.89</ele>
        <time>2017-06-08T08:03:43Z</time>
      </trkpt>
      <trkpt lat="43.37238" lon="2.37738">
        <ele>340.92</ele>
        <time>2017-06-08T08:03:57Z</time>
      </trkpt>
      <trkpt lat="43.37233" lon="2.37731">
        <ele>343.33</ele>
        <time>2017-06-08T08:04:12Z</time>
      </trkpt>
      <trkpt lat="43.37228" lon="2.37723">
        <ele>344.29</ele>
        <time>2017-06-08T08:04:27Z</time>
      </trkpt>
      <trkpt lat="43.37225" lon="2.37718">
        <ele>347.17</ele>
        <time>2017-06-08T08:04:40Z</time>
      </trkpt>
      <trkpt lat="43.3722" lon="2.37714">
        <ele>349.58</ele>
        <time>2017-06-08T08:04:54Z</time>
      </trkpt>
      <trkpt lat="43.37217" lon="2.37707">
        <ele>351.5</ele>
        <time>2017-06-08T08:05:07Z</time>
      </trkpt>
      <trkpt lat="43.37214" lon="2.37701">
        <ele>352.94</ele>
        <time>2017-06-08T08:05:19Z</time>
      </trkpt>
      <trkpt lat="43.3721" lon="2.37695">
        <ele>355.83</ele>
        <time>2017-06-08T08:05:34Z</time>
      </trkpt>
      <trkpt lat="43.37206" lon="2.3769">
        <ele>355.83</ele>
        <time>2017-06-08T08:05:46Z</time>
      </trkpt>
      <trkpt lat="43.37204" lon="2.37681">
        <ele>356.79</ele>
        <time>2017-06-08T08:06:00Z</time>
      </trkpt>
      <trkpt lat="43.37205" lon="2.37677">
        <ele>357.75</ele>
        <time>2017-06-08T08:06:18Z</time>
      </trkpt>
      <trkpt lat="43.37205" lon="2.37669">
        <ele>359.67</ele>
        <time>2017-06-08T08:06:32Z</time>
      </trkpt>
      <trkpt lat="43.37204" lon="2.37668">
        <ele>358.71</ele>
        <time>2017-06-08T08:06:48Z</time>
      </trkpt>
      <trkpt lat="43.37204" lon="2.37671">
        <ele>359.19</ele>
        <time>2017-06-08T08:07:11Z</time>
      </trkpt>
      <trkpt lat="43.37205" lon="2.37672">
        <ele>364.96</ele>
        <time>2017-06-08T08:07:48Z</time>
      </trkpt>
      <trkpt lat="43.37206" lon="2.37671">
        <ele>364.48</ele>
        <time>2017-06-08T08:08:17Z</time>
      </trkpt>
      <trkpt lat="43.37205" lon="2.3767">
        <ele>364.96</ele>
        <time>2017-06-08T08:08:28Z</time>
      </trkpt>
      <trkpt lat="43.37205" lon="2.3767">
        <ele>365.92</ele>
        <time>2017-06-08T08:08:40Z</time>
      </trkpt>
      <trkpt lat="43.37203" lon="2.37668">
        <ele>371.21</ele>
        <time>2017-06-08T08:08:58Z</time>
      </trkpt>
      <trkpt lat="43.37203" lon="2.3766">
        <ele>371.21</ele>
        <time>2017-06-08T08:09:20Z</time>
      </trkpt>
      <trkpt lat="43.37209" lon="2.37658">
        <ele>372.65</ele>
        <time>2017-06-08T08:09:33Z</time>
      </trkpt>
      <trkpt lat="43.37212" lon="2.37649">
        <ele>373.13</ele>
        <time>2017-06-08T08:09:47Z</time>
      </trkpt>
      <trkpt lat="43.37214" lon="2.3764">
        <ele>373.13</ele>
        <time>2017-06-08T08:10:00Z</time>
      </trkpt>
      <trkpt lat="43.37218" lon="2.37631">
        <ele>374.57</ele>
        <time>2017-06-08T08:10:16Z</time>
      </trkpt>
      <trkpt lat="43.37222" lon="2.37623">
        <ele>375.05</ele>
        <time>2017-06-08T08:10:32Z</time>
      </trkpt>
      <trkpt lat="43.37225" lon="2.37613">
        <ele>377.45</ele>
        <time>2017-06-08T08:10:48Z</time>
      </trkpt>
      <trkpt lat="43.37229" lon="2.37606">
        <ele>379.38</ele>
        <time>2017-06-08T08:11:03Z</time>
      </trkpt>
      <trkpt lat="43.37227" lon="2.37606">
        <ele>378.9</ele>
        <time>2017-06-08T08:11:21Z</time>
      </trkpt>
      <trkpt lat="43.37227" lon="2.37607">
        <ele>376.97</ele>
        <time>2017-06-08T08:11:52Z</time>
      </trkpt>
      <trkpt lat="43.37223" lon="2.37606">
        <ele>380.82</ele>
        <time>2017-06-08T08:12:22Z</time>
      </trkpt>
      <trkpt lat="43.37226" lon="2.37607">
        <ele>382.74</ele>
        <time>2017-06-08T08:12:50Z</time>
      </trkpt>
      <trkpt lat="43.37226" lon="2.37608">
        <ele>383.7</ele>
        <time>2017-06-08T08:13:22Z</time>
      </trkpt>
      <trkpt lat="43.3723" lon="2.37603">
        <ele>384.18</ele>
        <time>2017-06-08T08:13:41Z</time>
      </trkpt>
      <trkpt lat="43.37237" lon="2.37589">
        <ele>385.15</ele>
        <time>2017-06-08T08:13:58Z</time>
      </trkpt>
      <trkpt lat="43.3724" lon="2.37578">
        <ele>386.59</ele>
        <time>2017-06-08T08:14:12Z</time>
      </trkpt>
      <trkpt lat="43.37243" lon="2.37562">
        <ele>387.55</ele>
        <time>2017-06-08T08:14:28Z</time>
      </trkpt>
      <trkpt lat="43.37244" lon="2.37546">
        <ele>388.51</ele>
        <time>2017-06-08T08:14:42Z</time>
      </trkpt>
      <trkpt lat="43.37244" lon="2.37527">
        <ele>389.47</ele>
        <time>2017-06-08T08:14:57Z</time>
      </trkpt>
      <trkpt lat="43.37255" lon="2.3752">
        <ele>391.87</ele>
        <time>2017-06-08T08:15:14Z</time>
      </trkpt>
      <trkpt lat="43.37265" lon="2.37514">
        <ele>392.36</ele>
        <time>2017-06-08T08:15:28Z</time>
      </trkpt>
      <trkpt lat="43.37275" lon="2.3751">
        <ele>390.91</ele>
        <time>2017-06-08T08:15:41Z</time>
      </trkpt>
      <trkpt lat="43.37289" lon="2.37503">
        <ele>388.03</ele>
        <time>2017-06-08T08:15:58Z</time>
      </trkpt>
      <trkpt lat="43.373" lon="2.37496">
        <ele>386.11</ele>
        <time>2017-06-08T08:16:11Z</time>
      </trkpt>
      <trkpt lat="43.37304" lon="2.37488">
        <ele>388.03</ele>
        <time>2017-06-08T08:16:30Z</time>
      </trkpt>
      <trkpt lat="43.37306" lon="2.37485">
        <ele>392.84</ele>
        <time>2017-06-08T08:16:52Z</time>
      </trkpt>
      <trkpt lat="43.37303" lon="2.37478">
        <ele>396.2</ele>
        <time>2017-06-08T08:17:13Z</time>
      </trkpt>
      <trkpt lat="43.37303" lon="2.37486">
        <ele>395.72</ele>
        <time>2017-06-08T08:17:40Z</time>
      </trkpt>
      <trkpt lat="43.373" lon="2.37482">
        <ele>397.16</ele>
        <time>2017-06-08T08:18:12Z</time>
      </trkpt>
      <trkpt lat="43.37304" lon="2.37481">
        <ele>397.16</ele>
        <time>2017-06-08T08:18:37Z</time>
      </trkpt>
      <trkpt lat="43.37307" lon="2.3748">
        <ele>395.72</ele>
        <time>2017-06-08T08:18:55Z</time>
      </trkpt>
      <trkpt lat="43.37315" lon="2.37477">
        <ele>393.8</ele>
        <time>2017-06-08T08:19:10Z</time>
      </trkpt>
      <trkpt lat="43.37326" lon="2.37465">
        <ele>391.39</ele>
        <time>2017-06-08T08:19:28Z</time>
      </trkpt>
      <trkpt lat="43.37337" lon="2.37459">
        <ele>389.95</ele>
        <time>2017-06-08T08:19:43Z</time>
      </trkpt>
      <trkpt lat="43.37348" lon="2.37453">
        <ele>387.55</ele>
        <time>2017-06-08T08:19:59Z</time>
      </trkpt>
      <trkpt lat="43.37358" lon="2.3744">
        <ele>388.03</ele>
        <time>2017-06-08T08:20:15Z</time>
      </trkpt>
      <trkpt lat="43.37366" lon="2.37429">
        <ele>388.99</ele>
        <time>2017-06-08T08:20:30Z</time>
      </trkpt>
      <trkpt lat="43.37374" lon="2.3742">
        <ele>391.39</ele>
        <time>2017-06-08T08:20:46Z</time>
      </trkpt>
      <trkpt lat="43.3738" lon="2.37414">
        <ele>394.76</ele>
        <time>2017-06-08T08:21:02Z</time>
      </trkpt>
      <trkpt lat="43.3739" lon="2.37406">
        <ele>395.72</ele>
        <time>2017-06-08T08:21:16Z</time>
      </trkpt>
      <trkpt lat="43.37397" lon="2.37398">
        <ele>398.12</ele>
        <time>2017-06-08T08:21:34Z</time>
      </trkpt>
      <trkpt lat="43.37403" lon="2.37389">
        <ele>398.6</ele>
        <time>2017-06-08T08:21:47Z</time>
      </trkpt>
      <trkpt lat="43.37409" lon="2.37381">
        <ele>398.12</ele>
        <time>2017-06-08T08:22:02Z</time>
      </trkpt>
      <trkpt lat="43.37414" lon="2.37375">
        <ele>401.49</ele>
        <time>2017-06-08T08:22:15Z</time>
      </trkpt>
      <trkpt lat="43.37417" lon="2.3737">
        <ele>401.49</ele>
        <time>2017-06-08T08:22:27Z</time>
      </trkpt>
      <trkpt lat="43.37425" lon="2.37364">
        <ele>402.93</ele>
        <time>2017-06-08T08:22:40Z</time>
      </trkpt>
      <trkpt lat="43.37433" lon="2.37357">
        <ele>403.41</ele>
        <time>2017-06-08T08:22:52Z</time>
      </trkpt>
      <trkpt lat="43.37443" lon="2.37342">
        <ele>403.41</ele>
        <time>2017-06-08T08:23:08Z</time>
      </trkpt>
      <trkpt lat="43.37453" lon="2.37325">
        <ele>405.81</ele>
        <time>2017-06-08T08:23:23Z</time>
      </trkpt>
      <trkpt lat="43.37466" lon="2.37309">
        <ele>406.29</ele>
        <time>2017-06-08T08:23:42Z</time>
      </trkpt>
      <trkpt lat="43.37472" lon="2.37298">
        <ele>406.29</ele>
        <time>2017-06-08T08:23:56Z</time>
      </trkpt>
      <trkpt lat="43.37476" lon="2.37288">
        <ele>405.81</ele>
        <time>2017-06-08T08:24:08Z</time>
      </trkpt>
      <trkpt lat="43.37479" lon="2.37278">
        <ele>406.77</ele>
        <time>2017-06-08T08:24:23Z</time>
      </trkpt>
      <trkpt lat="43.37483" lon="2.3727">
        <ele>408.22</ele>
        <time>2017-06-08T08:24:38Z</time>
      </trkpt>
      <trkpt lat="43.37487" lon="2.37264">
        <ele>407.74</ele>
        <time>2017-06-08T08:24:51Z</time>
      </trkpt>
      <trkpt lat="43.37493" lon="2.37254">
        <ele>408.22</ele>
        <time>2017-06-08T08:25:05Z</time>
      </trkpt>
      <trkpt lat="43.37499" lon="2.37246">
        <ele>410.14</ele>
        <time>2017-06-08T08:25:20Z</time>
      </trkpt>
      <trkpt lat="43.37502" lon="2.37241">
        <ele>411.1</ele>
        <time>2017-06-08T08:25:34Z</time>
      </trkpt>
      <trkpt lat="43.37508" lon="2.37235">
        <ele>411.58</ele>
        <time>2017-06-08T08:25:46Z</time>
      </trkpt>
      <trkpt lat="43.37512" lon="2.37227">
        <ele>412.06</ele>
        <time>2017-06-08T08:26:01Z</time>
      </trkpt>
      <trkpt lat="43.37517" lon="2.37215">
        <ele>413.5</ele>
        <time>2017-06-08T08:26:20Z</time>
      </trkpt>
      <trkpt lat="43.3752" lon="2.37206">
        <ele>414.95</ele>
        <time>2017-06-08T08:26:33Z</time>
      </trkpt>
      <trkpt lat="43.37524" lon="2.37201">
        <ele>418.31</ele>
        <time>2017-06-08T08:26:45Z</time>
      </trkpt>
      <trkpt lat="43.37529" lon="2.37192">
        <ele>421.19</ele>
        <time>2017-06-08T08:26:59Z</time>
      </trkpt>
      <trkpt lat="43.37534" lon="2.3718">
        <ele>422.16</ele>
        <time>2017-06-08T08:27:15Z</time>
      </trkpt>
      <trkpt lat="43.37539" lon="2.37171">
        <ele>422.16</ele>
        <time>2017-06-08T08:27:28Z</time>
      </trkpt>
      <trkpt lat="43.37545" lon="2.37163">
        <ele>422.64</ele>
        <time>2017-06-08T08:27:39Z</time>
      </trkpt>
      <trkpt lat="43.37552" lon="2.37157">
        <ele>421.68</ele>
        <time>2017-06-08T08:27:52Z</time>
      </trkpt>
      <trkpt lat="43.37558" lon="2.37154">
        <ele>422.64</ele>
        <time>2017-06-08T08:28:09Z</time>
      </trkpt>
      <trkpt lat="43.37563" lon="2.37156">
        <ele>424.08</ele>
        <time>2017-06-08T08:28:23Z</time>
      </trkpt>
      <trkpt lat="43.37569" lon="2.37146">
        <ele>428.4</ele>
        <time>2017-06-08T08:28:39Z</time>
      </trkpt>
      <trkpt lat="43.37574" lon="2.37139">
        <ele>429.85</ele>
        <time>2017-06-08T08:28:53Z</time>
      </trkpt>
      <trkpt lat="43.37578" lon="2.37133">
        <ele>432.73</ele>
        <time>2017-06-08T08:29:06Z</time>
      </trkpt>
      <trkpt lat="43.37584" lon="2.37124">
        <ele>435.13</ele>
        <time>2017-06-08T08:29:22Z</time>
      </trkpt>
      <trkpt lat="43.37584" lon="2.37118">
        <ele>439.46</ele>
        <time>2017-06-08T08:29:45Z</time>
      </trkpt>
      <trkpt lat="43.37587" lon="2.37114">
        <ele>441.86</ele>
        <time>2017-06-08T08:30:03Z</time>
      </trkpt>
      <trkpt lat="43.37587" lon="2.37113">
        <ele>443.31</ele>
        <time>2017-06-08T08:30:20Z</time>
      </trkpt>
      <trkpt lat="43.37584" lon="2.37116">
        <ele>449.07</ele>
        <time>2017-06-08T08:30:41Z</time>
      </trkpt>
      <trkpt lat="43.37584" lon="2.37112">
        <ele>449.07</ele>
        <time>2017-06-08T08:31:09Z</time>
      </trkpt>
      <trkpt lat="43.37582" lon="2.37117">
        <ele>451.48</ele>
        <time>2017-06-08T08:31:35Z</time>
      </trkpt>
      <trkpt lat="43.37584" lon="2.37117">
        <ele>452.92</ele>
        <time>2017-06-08T08:31:55Z</time>
      </trkpt>
      <trkpt lat="43.37587" lon="2.37118">
        <ele>455.8</ele>
        <time>2017-06-08T08:32:17Z</time>
      </trkpt>
      <trkpt lat="43.37589" lon="2.37115">
        <ele>455.8</ele>
        <time>2017-06-08T08:32:39Z</time>
      </trkpt>
      <trkpt lat="43.37587" lon="2.37112">
        <ele>456.28</ele>
        <time>2017-06-08T08:33:07Z</time>
      </trkpt>
      <trkpt lat="43.37592" lon="2.37116">
        <ele>455.32</ele>
        <time>2017-06-08T08:33:36Z</time>
      </trkpt>
      <trkpt lat="43.37591" lon="2.37118">
        <ele>455.8</ele>
        <time>2017-06-08T08:33:56Z</time>
      </trkpt>
      <trkpt lat="43.37592" lon="2.37118">
        <ele>455.32</ele>
        <time>2017-06-08T08:34:16Z</time>
      </trkpt>
      <trkpt lat="43.37591" lon="2.37114">
        <ele>454.36</ele>
        <time>2017-06-08T08:34:45Z</time>
      </trkpt>
      <trkpt lat="43.37588" lon="2.37117">
        <ele>459.17</ele>
        <time>2017-06-08T08:35:13Z</time>
      </trkpt>
      <trkpt lat="43.37585" lon="2.37116">
        <ele>465.9</ele>
        <time>2017-06-08T08:35:39Z</time>
      </trkpt>
      <trkpt lat="43.37585" lon="2.37117">
        <ele>464.93</ele>
        <time>2017-06-08T08:36:01Z</time>
      </trkpt>
      <trkpt lat="43.37587" lon="2.37116">
        <ele>463.97</ele>
        <time>2017-06-08T08:36:28Z</time>
      </trkpt>
      <trkpt lat="43.37597" lon="2.37102">
        <ele>462.05</ele>
        <time>2017-06-08T08:36:43Z</time>
      </trkpt>
      <trkpt lat="43.37603" lon="2.37097">
        <ele>461.57</ele>
        <time>2017-06-08T08:36:58Z</time>
      </trkpt>
      <trkpt lat="43.37611" lon="2.37088">
        <ele>464.45</ele>
        <time>2017-06-08T08:37:14Z</time>
      </trkpt>
      <trkpt lat="43.37618" lon="2.37084">
        <ele>464.93</ele>
        <time>2017-06-08T08:37:32Z</time>
      </trkpt>
      <trkpt lat="43.37621" lon="2.37077">
        <ele>465.42</ele>
        <time>2017-06-08T08:37:44Z</time>
      </trkpt>
      <trkpt lat="43.37628" lon="2.37073">
        <ele>467.82</ele>
        <time>2017-06-08T08:37:59Z</time>
      </trkpt>
      <trkpt lat="43.37635" lon="2.37068">
        <ele>469.26</ele>
        <time>2017-06-08T08:38:13Z</time>
      </trkpt>
      <trkpt lat="43.37647" lon="2.37066">
        <ele>466.38</ele>
        <time>2017-06-08T08:38:28Z</time>
      </trkpt>
      <trkpt lat="43.37655" lon="2.37067">
        <ele>463.49</ele>
        <time>2017-06-08T08:38:40Z</time>
      </trkpt>
      <trkpt lat="43.37667" lon="2.37061">
        <ele>463.97</ele>
        <time>2017-06-08T08:38:55Z</time>
      </trkpt>
      <trkpt lat="43.37679" lon="2.37051">
        <ele>461.57</ele>
        <time>2017-06-08T08:39:11Z</time>
      </trkpt>
      <trkpt lat="43.3768" lon="2.3705">
        <ele>461.09</ele>
        <time>2017-06-08T08:39:12Z</time>
      </trkpt>
      <trkpt lat="43.3769" lon="2.37049">
        <ele>456.28</ele>
        <time>2017-06-08T08:39:25Z</time>
      </trkpt>
      <trkpt lat="43.377" lon="2.37049">
        <ele>451</ele>
        <time>2017-06-08T08:39:38Z</time>
      </trkpt>
      <trkpt lat="43.37701" lon="2.3705">
        <ele>450.52</ele>
        <time>2017-06-08T08:39:39Z</time>
      </trkpt>
      <trkpt lat="43.37713" lon="2.3705">
        <ele>446.19</ele>
        <time>2017-06-08T08:39:52Z</time>
      </trkpt>
      <trkpt lat="43.3772" lon="2.37045">
        <ele>451</ele>
        <time>2017-06-08T08:40:07Z</time>
      </trkpt>
      <trkpt lat="43.37725" lon="2.37044">
        <ele>455.8</ele>
        <time>2017-06-08T08:40:21Z</time>
      </trkpt>
      <trkpt lat="43.37733" lon="2.37047">
        <ele>453.4</ele>
        <time>2017-06-08T08:40:34Z</time>
      </trkpt>
      <trkpt lat="43.37743" lon="2.3705">
        <ele>455.32</ele>
        <time>2017-06-08T08:40:46Z</time>
      </trkpt>
      <trkpt lat="43.3775" lon="2.37056">
        <ele>452.92</ele>
        <time>2017-06-08T08:41:00Z</time>
      </trkpt>
      <trkpt lat="43.37762" lon="2.3706">
        <ele>451.96</ele>
        <time>2017-06-08T08:41:15Z</time>
      </trkpt>
      <trkpt lat="43.37772" lon="2.37061">
        <ele>449.07</ele>
        <time>2017-06-08T08:41:28Z</time>
      </trkpt>
      <trkpt lat="43.37782" lon="2.37064">
        <ele>447.15</ele>
        <time>2017-06-08T08:41:52Z</time>
      </trkpt>
      <trkpt lat="43.37788" lon="2.37063">
        <ele>451</ele>
        <time>2017-06-08T08:42:07Z</time>
      </trkpt>
      <trkpt lat="43.37794" lon="2.37061">
        <ele>459.65</ele>
        <time>2017-06-08T08:42:23Z</time>
      </trkpt>
      <trkpt lat="43.37802" lon="2.37062">
        <ele>459.65</ele>
        <time>2017-06-08T08:42:39Z</time>
      </trkpt>
      <trkpt lat="43.37813" lon="2.37066">
        <ele>460.61</ele>
        <time>2017-06-08T08:42:56Z</time>
      </trkpt>
      <trkpt lat="43.3782" lon="2.37069">
        <ele>461.57</ele>
        <time>2017-06-08T08:43:10Z</time>
      </trkpt>
      <trkpt lat="43.37823" lon="2.3707">
        <ele>461.57</ele>
        <time>2017-06-08T08:43:22Z</time>
      </trkpt>
      <trkpt lat="43.37829" lon="2.37072">
        <ele>463.49</ele>
        <time>2017-06-08T08:43:36Z</time>
      </trkpt>
      <trkpt lat="43.37833" lon="2.37075">
        <ele>464.45</ele>
        <time>2017-06-08T08:43:51Z</time>
      </trkpt>
      <trkpt lat="43.37828" lon="2.37075">
        <ele>467.34</ele>
        <time>2017-06-08T08:44:18Z</time>
      </trkpt>
      <trkpt lat="43.37833" lon="2.37077">
        <ele>471.18</ele>
        <time>2017-06-08T08:44:33Z</time>
      </trkpt>
      <trkpt lat="43.37835" lon="2.3708">
        <ele>475.51</ele>
        <time>2017-06-08T08:44:49Z</time>
      </trkpt>
      <trkpt lat="43.37831" lon="2.37082">
        <ele>479.84</ele>
        <time>2017-06-08T08:45:11Z</time>
      </trkpt>
      <trkpt lat="43.37836" lon="2.37079">
        <ele>482.72</ele>
        <time>2017-06-08T08:45:40Z</time>
      </trkpt>
      <trkpt lat="43.37838" lon="2.37076">
        <ele>484.64</ele>
        <time>2017-06-08T08:46:12Z</time>
      </trkpt>
      <trkpt lat="43.37828" lon="2.37085">
        <ele>488.97</ele>
        <time>2017-06-08T08:46:26Z</time>
      </trkpt>
      <trkpt lat="43.37829" lon="2.3709">
        <ele>489.45</ele>
        <time>2017-06-08T08:46:42Z</time>
      </trkpt>
      <trkpt lat="43.37822" lon="2.37096">
        <ele>490.41</ele>
        <time>2017-06-08T08:46:59Z</time>
      </trkpt>
      <trkpt lat="43.37828" lon="2.37097">
        <ele>494.74</ele>
        <time>2017-06-08T08:47:15Z</time>
      </trkpt>
      <trkpt lat="43.37835" lon="2.37098">
        <ele>495.7</ele>
        <time>2017-06-08T08:47:33Z</time>
      </trkpt>
      <trkpt lat="43.37844" lon="2.37099">
        <ele>495.7</ele>
        <time>2017-06-08T08:47:49Z</time>
      </trkpt>
      <trkpt lat="43.37852" lon="2.37099">
        <ele>500.5</ele>
        <time>2017-06-08T08:48:07Z</time>
      </trkpt>
      <trkpt lat="43.37861" lon="2.371">
        <ele>505.31</ele>
        <time>2017-06-08T08:48:25Z</time>
      </trkpt>
      <trkpt lat="43.37867" lon="2.371">
        <ele>509.16</ele>
        <time>2017-06-08T08:48:40Z</time>
      </trkpt>
      <trkpt lat="43.37863" lon="2.37106">
        <ele>509.16</ele>
        <time>2017-06-08T08:49:15Z</time>
      </trkpt>
      <trkpt lat="43.3786" lon="2.3711">
        <ele>511.56</ele>
        <time>2017-06-08T08:49:32Z</time>
      </trkpt>
      <trkpt lat="43.37853" lon="2.37119">
        <ele>513.48</ele>
        <time>2017-06-08T08:49:48Z</time>
      </trkpt>
      <trkpt lat="43.37848" lon="2.37127">
        <ele>513</ele>
        <time>2017-06-08T08:50:01Z</time>
      </trkpt>
      <trkpt lat="43.37842" lon="2.37132">
        <ele>511.56</ele>
        <time>2017-06-08T08:50:18Z</time>
      </trkpt>
      <trkpt lat="43.37847" lon="2.37135">
        <ele>512.52</ele>
        <time>2017-06-08T08:50:34Z</time>
      </trkpt>
      <trkpt lat="43.37853" lon="2.37133">
        <ele>515.4</ele>
        <time>2017-06-08T08:50:47Z</time>
      </trkpt>
      <trkpt lat="43.37856" lon="2.37135">
        <ele>518.77</ele>
        <time>2017-06-08T08:51:05Z</time>
      </trkpt>
      <trkpt lat="43.37849" lon="2.37142">
        <ele>519.25</ele>
        <time>2017-06-08T08:51:22Z</time>
      </trkpt>
      <trkpt lat="43.37841" lon="2.37149">
        <ele>517.81</ele>
        <time>2017-06-08T08:51:37Z</time>
      </trkpt>
      <trkpt lat="43.37832" lon="2.37159">
        <ele>518.77</ele>
        <time>2017-06-08T08:51:54Z</time>
      </trkpt>
      <trkpt lat="43.37828" lon="2.37167">
        <ele>520.69</ele>
        <time>2017-06-08T08:52:10Z</time>
      </trkpt>
      <trkpt lat="43.37838" lon="2.37166">
        <ele>523.58</ele>
        <time>2017-06-08T08:52:26Z</time>
      </trkpt>
      <trkpt lat="43.37847" lon="2.37164">
        <ele>523.58</ele>
        <time>2017-06-08T08:52:39Z</time>
      </trkpt>
      <trkpt lat="43.37855" lon="2.37164">
        <ele>523.09</ele>
        <time>2017-06-08T08:52:54Z</time>
      </trkpt>
      <trkpt lat="43.37861" lon="2.37161">
        <ele>525.02</ele>
        <time>2017-06-08T08:53:09Z</time>
      </trkpt>
      <trkpt lat="43.3786" lon="2.37157">
        <ele>532.23</ele>
        <time>2017-06-08T08:53:43Z</time>
      </trkpt>
      <trkpt lat="43.37864" lon="2.37158">
        <ele>533.19</ele>
        <time>2017-06-08T08:54:06Z</time>
      </trkpt>
      <trkpt lat="43.37876" lon="2.37159">
        <ele>532.71</ele>
        <time>2017-06-08T08:54:23Z</time>
      </trkpt>
      <trkpt lat="43.37882" lon="2.37163">
        <ele>533.19</ele>
        <time>2017-06-08T08:54:43Z</time>
      </trkpt>
      <trkpt lat="43.37883" lon="2.3716">
        <ele>532.71</ele>
        <time>2017-06-08T08:55:06Z</time>
      </trkpt>
      <trkpt lat="43.37892" lon="2.37163">
        <ele>534.15</ele>
        <time>2017-06-08T08:55:22Z</time>
      </trkpt>
      <trkpt lat="43.379" lon="2.37163">
        <ele>534.63</ele>
        <time>2017-06-08T08:55:37Z</time>
      </trkpt>
      <trkpt lat="43.37906" lon="2.37165">
        <ele>536.07</ele>
        <time>2017-06-08T08:55:51Z</time>
      </trkpt>
      <trkpt lat="43.37915" lon="2.37168">
        <ele>537.51</ele>
        <time>2017-06-08T08:56:07Z</time>
      </trkpt>
      <trkpt lat="43.37919" lon="2.37172">
        <ele>537.99</ele>
        <time>2017-06-08T08:56:23Z</time>
      </trkpt>
      <trkpt lat="43.37913" lon="2.37177">
        <ele>536.55</ele>
        <time>2017-06-08T08:56:39Z</time>
      </trkpt>
      <trkpt lat="43.37908" lon="2.3718">
        <ele>542.8</ele>
        <time>2017-06-08T08:56:56Z</time>
      </trkpt>
      <trkpt lat="43.37907" lon="2.3718">
        <ele>546.17</ele>
        <time>2017-06-08T08:57:12Z</time>
      </trkpt>
      <trkpt lat="43.37906" lon="2.37176">
        <ele>552.41</ele>
        <time>2017-06-08T08:57:37Z</time>
      </trkpt>
      <trkpt lat="43.37903" lon="2.37172">
        <ele>551.45</ele>
        <time>2017-06-08T08:58:05Z</time>
      </trkpt>
      <trkpt lat="43.37904" lon="2.37171">
        <ele>552.9</ele>
        <time>2017-06-08T08:58:34Z</time>
      </trkpt>
      <trkpt lat="43.37902" lon="2.37172">
        <ele>559.14</ele>
        <time>2017-06-08T08:58:57Z</time>
      </trkpt>
      <trkpt lat="43.37896" lon="2.37178">
        <ele>555.78</ele>
        <time>2017-06-08T08:59:18Z</time>
      </trkpt>
      <trkpt lat="43.37886" lon="2.37188">
        <ele>553.38</ele>
        <time>2017-06-08T08:59:34Z</time>
      </trkpt>
      <trkpt lat="43.37877" lon="2.37194">
        <ele>552.9</ele>
        <time>2017-06-08T08:59:48Z</time>
      </trkpt>
      <trkpt lat="43.37867" lon="2.372">
        <ele>553.86</ele>
        <time>2017-06-08T09:00:03Z</time>
      </trkpt>
      <trkpt lat="43.37853" lon="2.37209">
        <ele>553.38</ele>
        <time>2017-06-08T09:00:21Z</time>
      </trkpt>
      <trkpt lat="43.3784" lon="2.37217">
        <ele>555.78</ele>
        <time>2017-06-08T09:00:40Z</time>
      </trkpt>
      <trkpt lat="43.37828" lon="2.37225">
        <ele>555.78</ele>
        <time>2017-06-08T09:00:56Z</time>
      </trkpt>
      <trkpt lat="43.37817" lon="2.37228">
        <ele>557.7</ele>
        <time>2017-06-08T09:01:11Z</time>
      </trkpt>
      <trkpt lat="43.37803" lon="2.37231">
        <ele>560.59</ele>
        <time>2017-06-08T09:01:28Z</time>
      </trkpt>
      <trkpt lat="43.37791" lon="2.37235">
        <ele>562.99</ele>
        <time>2017-06-08T09:01:45Z</time>
      </trkpt>
      <trkpt lat="43.37779" lon="2.37242">
        <ele>564.91</ele>
        <time>2017-06-08T09:02:04Z</time>
      </trkpt>
      <trkpt lat="43.37778" lon="2.37246">
        <ele>567.8</ele>
        <time>2017-06-08T09:02:19Z</time>
      </trkpt>
      <trkpt lat="43.37776" lon="2.37245">
        <ele>568.28</ele>
        <time>2017-06-08T09:02:42Z</time>
      </trkpt>
      <trkpt lat="43.37777" lon="2.37245">
        <ele>568.76</ele>
        <time>2017-06-08T09:03:14Z</time>
      </trkpt>
      <trkpt lat="43.37777" lon="2.37243">
        <ele>569.72</ele>
        <time>2017-06-08T09:03:50Z</time>
      </trkpt>
      <trkpt lat="43.37781" lon="2.37247">
        <ele>568.28</ele>
        <time>2017-06-08T09:04:03Z</time>
      </trkpt>
      <trkpt lat="43.3778" lon="2.37247">
        <ele>568.28</ele>
        <time>2017-06-08T09:04:20Z</time>
      </trkpt>
      <trkpt lat="43.3778" lon="2.37245">
        <ele>571.16</ele>
        <time>2017-06-08T09:04:52Z</time>
      </trkpt>
      <trkpt lat="43.37779" lon="2.37244">
        <ele>571.16</ele>
        <time>2017-06-08T09:05:29Z</time>
      </trkpt>
      <trkpt lat="43.3778" lon="2.37245">
        <ele>570.2</ele>
        <time>2017-06-08T09:06:04Z</time>
      </trkpt>
      <trkpt lat="43.3778" lon="2.37245">
        <ele>570.2</ele>
        <time>2017-06-08T09:06:26Z</time>
      </trkpt>
      <trkpt lat="43.37781" lon="2.37246">
        <ele>570.68</ele>
        <time>2017-06-08T09:07:00Z</time>
      </trkpt>
      <trkpt lat="43.3778" lon="2.37244">
        <ele>567.32</ele>
        <time>2017-06-08T09:07:23Z</time>
      </trkpt>
      <trkpt lat="43.37777" lon="2.37245">
        <ele>566.35</ele>
        <time>2017-06-08T09:07:40Z</time>
      </trkpt>
      <trkpt lat="43.37771" lon="2.37254">
        <ele>566.35</ele>
        <time>2017-06-08T09:07:55Z</time>
      </trkpt>
      <trkpt lat="43.37768" lon="2.37264">
        <ele>566.83</ele>
        <time>2017-06-08T09:08:12Z</time>
      </trkpt>
      <trkpt lat="43.37766" lon="2.37274">
        <ele>568.76</ele>
        <time>2017-06-08T09:08:30Z</time>
      </trkpt>
      <trkpt lat="43.37767" lon="2.37288">
        <ele>567.8</ele>
        <time>2017-06-08T09:08:47Z</time>
      </trkpt>
      <trkpt lat="43.37768" lon="2.37307">
        <ele>562.99</ele>
        <time>2017-06-08T09:09:03Z</time>
      </trkpt>
      <trkpt lat="43.3777" lon="2.37327">
        <ele>561.55</ele>
        <time>2017-06-08T09:09:18Z</time>
      </trkpt>
      <trkpt lat="43.3777" lon="2.37336">
        <ele>564.91</ele>
        <time>2017-06-08T09:09:34Z</time>
      </trkpt>
      <trkpt lat="43.37776" lon="2.37349">
        <ele>565.39</ele>
        <time>2017-06-08T09:09:50Z</time>
      </trkpt>
      <trkpt lat="43.37786" lon="2.37359">
        <ele>562.51</ele>
        <time>2017-06-08T09:10:07Z</time>
      </trkpt>
      <trkpt lat="43.37799" lon="2.37364">
        <ele>557.7</ele>
        <time>2017-06-08T09:10:26Z</time>
      </trkpt>
      <trkpt lat="43.3782" lon="2.3738">
        <ele>560.11</ele>
        <time>2017-06-08T09:10:47Z</time>
      </trkpt>
      <trkpt lat="43.37829" lon="2.3739">
        <ele>558.18</ele>
        <time>2017-06-08T09:11:00Z</time>
      </trkpt>
      <trkpt lat="43.37845" lon="2.37403">
        <ele>562.51</ele>
        <time>2017-06-08T09:11:16Z</time>
      </trkpt>
      <trkpt lat="43.37858" lon="2.37416">
        <ele>564.91</ele>
        <time>2017-06-08T09:11:33Z</time>
      </trkpt>
      <trkpt lat="43.37869" lon="2.37424">
        <ele>564.43</ele>
        <time>2017-06-08T09:11:48Z</time>
      </trkpt>
      <trkpt lat="43.37881" lon="2.37435">
        <ele>565.87</ele>
        <time>2017-06-08T09:12:03Z</time>
      </trkpt>
      <trkpt lat="43.37892" lon="2.37443">
        <ele>564.91</ele>
        <time>2017-06-08T09:12:19Z</time>
      </trkpt>
      <trkpt lat="43.3791" lon="2.37452">
        <ele>568.76</ele>
        <time>2017-06-08T09:12:36Z</time>
      </trkpt>
      <trkpt lat="43.37919" lon="2.37458">
        <ele>566.83</ele>
        <time>2017-06-08T09:12:51Z</time>
      </trkpt>
      <trkpt lat="43.37931" lon="2.37466">
        <ele>563.47</ele>
        <time>2017-06-08T09:13:07Z</time>
      </trkpt>
      <trkpt lat="43.37944" lon="2.3748">
        <ele>562.03</ele>
        <time>2017-06-08T09:13:24Z</time>
      </trkpt>
      <trkpt lat="43.37961" lon="2.37491">
        <ele>565.39</ele>
        <time>2017-06-08T09:13:42Z</time>
      </trkpt>
      <trkpt lat="43.37974" lon="2.37498">
        <ele>565.87</ele>
        <time>2017-06-08T09:13:59Z</time>
      </trkpt>
      <trkpt lat="43.37988" lon="2.37505">
        <ele>562.51</ele>
        <time>2017-06-08T09:14:18Z</time>
      </trkpt>
      <trkpt lat="43.38006" lon="2.37516">
        <ele>557.7</ele>
        <time>2017-06-08T09:14:39Z</time>
      </trkpt>
      <trkpt lat="43.38022" lon="2.3753">
        <ele>553.86</ele>
        <time>2017-06-08T09:15:01Z</time>
      </trkpt>
      <trkpt lat="43.38034" lon="2.37542">
        <ele>552.41</ele>
        <time>2017-06-08T09:15:19Z</time>
      </trkpt>
      <trkpt lat="43.38045" lon="2.37551">
        <ele>550.97</ele>
        <time>2017-06-08T09:15:36Z</time>
      </trkpt>
      <trkpt lat="43.38063" lon="2.37557">
        <ele>549.53</ele>
        <time>2017-06-08T09:15:54Z</time>
      </trkpt>
      <trkpt lat="43.3807" lon="2.37563">
        <ele>551.93</ele>
        <time>2017-06-08T09:16:12Z</time>
      </trkpt>
      <trkpt lat="43.38075" lon="2.37573">
        <ele>555.3</ele>
        <time>2017-06-08T09:16:31Z</time>
      </trkpt>
      <trkpt lat="43.38086" lon="2.37583">
        <ele>553.38</ele>
        <time>2017-06-08T09:16:50Z</time>
      </trkpt>
      <trkpt lat="43.38094" lon="2.37608">
        <ele>553.86</ele>
        <time>2017-06-08T09:17:06Z</time>
      </trkpt>
      <trkpt lat="43.38092" lon="2.37627">
        <ele>552.41</ele>
        <time>2017-06-08T09:17:20Z</time>
      </trkpt>
      <trkpt lat="43.3809" lon="2.37641">
        <ele>551.45</ele>
        <time>2017-06-08T09:17:35Z</time>
      </trkpt>
      <trkpt lat="43.38085" lon="2.37649">
        <ele>556.26</ele>
        <time>2017-06-08T09:17:55Z</time>
      </trkpt>
      <trkpt lat="43.38083" lon="2.37651">
        <ele>557.7</ele>
        <time>2017-06-08T09:18:15Z</time>
      </trkpt>
      <trkpt lat="43.38084" lon="2.37649">
        <ele>556.74</ele>
        <time>2017-06-08T09:18:36Z</time>
      </trkpt>
      <trkpt lat="43.38081" lon="2.37653">
        <ele>559.62</ele>
        <time>2017-06-08T09:19:09Z</time>
      </trkpt>
      <trkpt lat="43.38078" lon="2.37656">
        <ele>561.55</ele>
        <time>2017-06-08T09:19:33Z</time>
      </trkpt>
      <trkpt lat="43.38081" lon="2.37659">
        <ele>562.51</ele>
        <time>2017-06-08T09:20:12Z</time>
      </trkpt>
      <trkpt lat="43.38074" lon="2.37659">
        <ele>570.2</ele>
        <time>2017-06-08T09:20:34Z</time>
      </trkpt>
      <trkpt lat="43.38068" lon="2.37657">
        <ele>575.97</ele>
        <time>2017-06-08T09:21:06Z</time>
      </trkpt>
      <trkpt lat="43.38066" lon="2.37669">
        <ele>574.04</ele>
        <time>2017-06-08T09:21:22Z</time>
      </trkpt>
      <trkpt lat="43.38061" lon="2.37686">
        <ele>570.68</ele>
        <time>2017-06-08T09:21:40Z</time>
      </trkpt>
      <trkpt lat="43.38056" lon="2.37701">
        <ele>570.2</ele>
        <time>2017-06-08T09:21:54Z</time>
      </trkpt>
      <trkpt lat="43.38049" lon="2.37719">
        <ele>568.76</ele>
        <time>2017-06-08T09:22:10Z</time>
      </trkpt>
      <trkpt lat="43.3804" lon="2.37739">
        <ele>568.28</ele>
        <time>2017-06-08T09:22:28Z</time>
      </trkpt>
      <trkpt lat="43.38031" lon="2.37759">
        <ele>568.28</ele>
        <time>2017-06-08T09:22:47Z</time>
      </trkpt>
      <trkpt lat="43.38023" lon="2.37775">
        <ele>566.35</ele>
        <time>2017-06-08T09:23:06Z</time>
      </trkpt>
      <trkpt lat="43.38014" lon="2.37799">
        <ele>566.83</ele>
        <time>2017-06-08T09:23:26Z</time>
      </trkpt>
      <trkpt lat="43.38009" lon="2.37816">
        <ele>567.8</ele>
        <time>2017-06-08T09:23:41Z</time>
      </trkpt>
      <trkpt lat="43.38007" lon="2.37827">
        <ele>567.8</ele>
        <time>2017-06-08T09:23:56Z</time>
      </trkpt>
      <trkpt lat="43.3801" lon="2.3785">
        <ele>566.35</ele>
        <time>2017-06-08T09:24:13Z</time>
      </trkpt>
      <trkpt lat="43.38013" lon="2.37861">
        <ele>565.39</ele>
        <time>2017-06-08T09:24:28Z</time>
      </trkpt>
      <trkpt lat="43.38019" lon="2.37848">
        <ele>569.24</ele>
        <time>2017-06-08T09:24:46Z</time>
      </trkpt>
      <trkpt lat="43.38023" lon="2.37829">
        <ele>575.49</ele>
        <time>2017-06-08T09:25:01Z</time>
      </trkpt>
      <trkpt lat="43.38031" lon="2.37812">
        <ele>576.93</ele>
        <time>2017-06-08T09:25:17Z</time>
      </trkpt>
      <trkpt lat="43.38038" lon="2.37803">
        <ele>579.81</ele>
        <time>2017-06-08T09:25:31Z</time>
      </trkpt>
      <trkpt lat="43.38046" lon="2.37797">
        <ele>585.1</ele>
        <time>2017-06-08T09:25:49Z</time>
      </trkpt>
      <trkpt lat="43.38049" lon="2.37795">
        <ele>586.06</ele>
        <time>2017-06-08T09:26:04Z</time>
      </trkpt>
      <trkpt lat="43.38057" lon="2.3779">
        <ele>588.46</ele>
        <time>2017-06-08T09:26:20Z</time>
      </trkpt>
      <trkpt lat="43.38065" lon="2.37785">
        <ele>591.83</ele>
        <time>2017-06-08T09:26:39Z</time>
      </trkpt>
      <trkpt lat="43.38073" lon="2.37784">
        <ele>593.27</ele>
        <time>2017-06-08T09:26:55Z</time>
      </trkpt>
      <trkpt lat="43.38078" lon="2.37782">
        <ele>594.71</ele>
        <time>2017-06-08T09:27:07Z</time>
      </trkpt>
      <trkpt lat="43.38085" lon="2.37779">
        <ele>597.6</ele>
        <time>2017-06-08T09:27:25Z</time>
      </trkpt>
      <trkpt lat="43.38092" lon="2.37777">
        <ele>599.04</ele>
        <time>2017-06-08T09:27:42Z</time>
      </trkpt>
      <trkpt lat="43.38098" lon="2.3777">
        <ele>602.88</ele>
        <time>2017-06-08T09:27:56Z</time>
      </trkpt>
      <trkpt lat="43.38104" lon="2.37761">
        <ele>602.4</ele>
        <time>2017-06-08T09:28:11Z</time>
      </trkpt>
      <trkpt lat="43.38111" lon="2.37751">
        <ele>602.88</ele>
        <time>2017-06-08T09:28:27Z</time>
      </trkpt>
      <trkpt lat="43.38119" lon="2.37737">
        <ele>604.81</ele>
        <time>2017-06-08T09:28:44Z</time>
      </trkpt>
      <trkpt lat="43.38126" lon="2.37726">
        <ele>604.33</ele>
        <time>2017-06-08T09:29:00Z</time>
      </trkpt>
      <trkpt lat="43.38133" lon="2.37715">
        <ele>608.17</ele>
        <time>2017-06-08T09:29:18Z</time>
      </trkpt>
      <trkpt lat="43.38139" lon="2.37707">
        <ele>605.77</ele>
        <time>2017-06-08T09:29:33Z</time>
      </trkpt>
      <trkpt lat="43.38144" lon="2.37697">
        <ele>607.21</ele>
        <time>2017-06-08T09:29:47Z</time>
      </trkpt>
      <trkpt lat="43.38152" lon="2.37684">
        <ele>607.69</ele>
        <time>2017-06-08T09:30:04Z</time>
      </trkpt>
      <trkpt lat="43.38157" lon="2.37673">
        <ele>610.57</ele>
        <time>2017-06-08T09:30:19Z</time>
      </trkpt>
      <trkpt lat="43.38164" lon="2.37662">
        <ele>611.06</ele>
        <time>2017-06-08T09:30:35Z</time>
      </trkpt>
      <trkpt lat="43.38169" lon="2.37644">
        <ele>615.38</ele>
        <time>2017-06-08T09:30:51Z</time>
      </trkpt>
      <trkpt lat="43.3817" lon="2.37643">
        <ele>618.26</ele>
        <time>2017-06-08T09:31:12Z</time>
      </trkpt>
      <trkpt lat="43.38173" lon="2.37643">
        <ele>622.59</ele>
        <time>2017-06-08T09:31:43Z</time>
      </trkpt>
      <trkpt lat="43.38172" lon="2.37637">
        <ele>622.11</ele>
        <time>2017-06-08T09:32:10Z</time>
      </trkpt>
      <trkpt lat="43.38172" lon="2.37625">
        <ele>626.92</ele>
        <time>2017-06-08T09:32:24Z</time>
      </trkpt>
      <trkpt lat="43.38172" lon="2.3761">
        <ele>629.8</ele>
        <time>2017-06-08T09:32:39Z</time>
      </trkpt>
      <trkpt lat="43.38171" lon="2.37597">
        <ele>629.8</ele>
        <time>2017-06-08T09:32:57Z</time>
      </trkpt>
      <trkpt lat="43.38169" lon="2.3758">
        <ele>629.32</ele>
        <time>2017-06-08T09:33:11Z</time>
      </trkpt>
      <trkpt lat="43.38168" lon="2.37562">
        <ele>627.88</ele>
        <time>2017-06-08T09:33:28Z</time>
      </trkpt>
      <trkpt lat="43.38167" lon="2.37546">
        <ele>624.51</ele>
        <time>2017-06-08T09:33:46Z</time>
      </trkpt>
      <trkpt lat="43.38166" lon="2.37526">
        <ele>623.07</ele>
        <time>2017-06-08T09:34:04Z</time>
      </trkpt>
      <trkpt lat="43.38166" lon="2.37513">
        <ele>619.23</ele>
        <time>2017-06-08T09:34:19Z</time>
      </trkpt>
      <trkpt lat="43.38166" lon="2.37497">
        <ele>619.23</ele>
        <time>2017-06-08T09:34:35Z</time>
      </trkpt>
      <trkpt lat="43.38163" lon="2.37484">
        <ele>618.26</ele>
        <time>2017-06-08T09:34:54Z</time>
      </trkpt>
      <trkpt lat="43.38157" lon="2.37464">
        <ele>615.86</ele>
        <time>2017-06-08T09:35:15Z</time>
      </trkpt>
      <trkpt lat="43.38148" lon="2.37451">
        <ele>613.46</ele>
        <time>2017-06-08T09:35:32Z</time>
      </trkpt>
      <trkpt lat="43.3814" lon="2.3744">
        <ele>614.9</ele>
        <time>2017-06-08T09:35:46Z</time>
      </trkpt>
      <trkpt lat="43.38126" lon="2.37428">
        <ele>620.19</ele>
        <time>2017-06-08T09:36:02Z</time>
      </trkpt>
      <trkpt lat="43.38119" lon="2.37416">
        <ele>622.59</ele>
        <time>2017-06-08T09:36:18Z</time>
      </trkpt>
      <trkpt lat="43.38111" lon="2.37405">
        <ele>623.55</ele>
        <time>2017-06-08T09:36:32Z</time>
      </trkpt>
      <trkpt lat="43.38104" lon="2.37391">
        <ele>624.51</ele>
        <time>2017-06-08T09:36:47Z</time>
      </trkpt>
      <trkpt lat="43.38097" lon="2.37376">
        <ele>629.8</ele>
        <time>2017-06-08T09:37:05Z</time>
      </trkpt>
      <trkpt lat="43.38095" lon="2.37366">
        <ele>636.53</ele>
        <time>2017-06-08T09:37:20Z</time>
      </trkpt>
      <trkpt lat="43.38094" lon="2.37364">
        <ele>642.3</ele>
        <time>2017-06-08T09:37:34Z</time>
      </trkpt>
      <trkpt lat="43.38093" lon="2.37363">
        <ele>649.03</ele>
        <time>2017-06-08T09:38:01Z</time>
      </trkpt>
      <trkpt lat="43.38092" lon="2.37363">
        <ele>651.43</ele>
        <time>2017-06-08T09:38:27Z</time>
      </trkpt>
      <trkpt lat="43.38092" lon="2.37364">
        <ele>650.47</ele>
        <time>2017-06-08T09:39:04Z</time>
      </trkpt>
      <trkpt lat="43.38093" lon="2.37363">
        <ele>649.51</ele>
        <time>2017-06-08T09:39:37Z</time>
      </trkpt>
      <trkpt lat="43.38093" lon="2.37361">
        <ele>648.07</ele>
        <time>2017-06-08T09:40:08Z</time>
      </trkpt>
      <trkpt lat="43.38093" lon="2.37361">
        <ele>648.07</ele>
        <time>2017-06-08T09:40:39Z</time>
      </trkpt>
      <trkpt lat="43.38092" lon="2.37361">
        <ele>648.07</ele>
        <time>2017-06-08T09:40:58Z</time>
      </trkpt>
      <trkpt lat="43.3809" lon="2.37363">
        <ele>647.1</ele>
        <time>2017-06-08T09:41:17Z</time>
      </trkpt>
      <trkpt lat="43.38091" lon="2.37376">
        <ele>643.74</ele>
        <time>2017-06-08T09:41:34Z</time>
      </trkpt>
      <trkpt lat="43.38092" lon="2.37379">
        <ele>643.26</ele>
        <time>2017-06-08T09:41:54Z</time>
      </trkpt>
      <trkpt lat="43.3809" lon="2.37381">
        <ele>645.18</ele>
        <time>2017-06-08T09:42:27Z</time>
      </trkpt>
      <trkpt lat="43.38088" lon="2.37373">
        <ele>647.59</ele>
        <time>2017-06-08T09:42:52Z</time>
      </trkpt>
      <trkpt lat="43.3809" lon="2.37363">
        <ele>647.59</ele>
        <time>2017-06-08T09:43:08Z</time>
      </trkpt>
      <trkpt lat="43.38091" lon="2.37362">
        <ele>646.62</ele>
        <time>2017-06-08T09:43:36Z</time>
      </trkpt>
      <trkpt lat="43.3809" lon="2.37362">
        <ele>647.1</ele>
        <time>2017-06-08T09:43:55Z</time>
      </trkpt>
      <trkpt lat="43.3809" lon="2.37362">
        <ele>644.7</ele>
        <time>2017-06-08T09:44:32Z</time>
      </trkpt>
      <trkpt lat="43.3809" lon="2.37363">
        <ele>645.18</ele>
        <time>2017-06-08T09:45:12Z</time>
      </trkpt>
      <trkpt lat="43.38092" lon="2.37364">
        <ele>646.62</ele>
        <time>2017-06-08T09:45:28Z</time>
      </trkpt>
      <trkpt lat="43.38094" lon="2.37364">
        <ele>643.74</ele>
        <time>2017-06-08T09:46:03Z</time>
      </trkpt>
      <trkpt lat="43.38093" lon="2.37365">
        <ele>644.22</ele>
        <time>2017-06-08T09:46:31Z</time>
      </trkpt>
      <trkpt lat="43.38093" lon="2.37363">
        <ele>643.26</ele>
        <time>2017-06-08T09:47:14Z</time>
      </trkpt>
      <trkpt lat="43.38092" lon="2.37363">
        <ele>644.22</ele>
        <time>2017-06-08T09:47:37Z</time>
      </trkpt>
      <trkpt lat="43.38092" lon="2.37362">
        <ele>645.66</ele>
        <time>2017-06-08T09:47:59Z</time>
      </trkpt>
      <trkpt lat="43.38091" lon="2.3736">
        <ele>646.62</ele>
        <time>2017-06-08T09:48:24Z</time>
      </trkpt>
      <trkpt lat="43.38091" lon="2.37359">
        <ele>646.62</ele>
        <time>2017-06-08T09:49:07Z</time>
      </trkpt>
      <trkpt lat="43.38091" lon="2.37359">
        <ele>648.07</ele>
        <time>2017-06-08T09:49:19Z</time>
      </trkpt>
      <trkpt lat="43.38095" lon="2.37354">
        <ele>648.55</ele>
        <time>2017-06-08T09:49:44Z</time>
      </trkpt>
      <trkpt lat="43.38102" lon="2.37351">
        <ele>647.1</ele>
        <time>2017-06-08T09:49:51Z</time>
      </trkpt>
      <trkpt lat="43.38115" lon="2.3734">
        <ele>648.07</ele>
        <time>2017-06-08T09:50:10Z</time>
      </trkpt>
      <trkpt lat="43.3813" lon="2.3733">
        <ele>650.47</ele>
        <time>2017-06-08T09:50:27Z</time>
      </trkpt>
      <trkpt lat="43.38142" lon="2.37318">
        <ele>649.03</ele>
        <time>2017-06-08T09:50:44Z</time>
      </trkpt>
      <trkpt lat="43.38157" lon="2.37306">
        <ele>649.99</ele>
        <time>2017-06-08T09:51:02Z</time>
      </trkpt>
      <trkpt lat="43.3817" lon="2.37293">
        <ele>649.51</ele>
        <time>2017-06-08T09:51:19Z</time>
      </trkpt>
      <trkpt lat="43.3818" lon="2.37283">
        <ele>646.62</ele>
        <time>2017-06-08T09:51:34Z</time>
      </trkpt>
      <trkpt lat="43.38193" lon="2.37271">
        <ele>646.62</ele>
        <time>2017-06-08T09:51:50Z</time>
      </trkpt>
      <trkpt lat="43.38207" lon="2.37262">
        <ele>643.74</ele>
        <time>2017-06-08T09:52:07Z</time>
      </trkpt>
      <trkpt lat="43.3822" lon="2.37254">
        <ele>641.82</ele>
        <time>2017-06-08T09:52:23Z</time>
      </trkpt>
      <trkpt lat="43.38235" lon="2.37242">
        <ele>642.3</ele>
        <time>2017-06-08T09:52:40Z</time>
      </trkpt>
      <trkpt lat="43.38247" lon="2.37231">
        <ele>642.78</ele>
        <time>2017-06-08T09:52:55Z</time>
      </trkpt>
      <trkpt lat="43.38258" lon="2.37221">
        <ele>641.34</ele>
        <time>2017-06-08T09:53:11Z</time>
      </trkpt>
      <trkpt lat="43.38271" lon="2.37215">
        <ele>644.7</ele>
        <time>2017-06-08T09:53:25Z</time>
      </trkpt>
      <trkpt lat="43.38283" lon="2.37209">
        <ele>646.14</ele>
        <time>2017-06-08T09:53:40Z</time>
      </trkpt>
      <trkpt lat="43.38297" lon="2.37201">
        <ele>649.99</ele>
        <time>2017-06-08T09:53:58Z</time>
      </trkpt>
      <trkpt lat="43.38309" lon="2.37198">
        <ele>650.95</ele>
        <time>2017-06-08T09:54:14Z</time>
      </trkpt>
      <trkpt lat="43.38315" lon="2.37194">
        <ele>650.95</ele>
        <time>2017-06-08T09:54:24Z</time>
      </trkpt>
      <trkpt lat="43.38329" lon="2.3719">
        <ele>650.47</ele>
        <time>2017-06-08T09:54:40Z</time>
      </trkpt>
      <trkpt lat="43.38345" lon="2.37181">
        <ele>650.95</ele>
        <time>2017-06-08T09:54:58Z</time>
      </trkpt>
      <trkpt lat="43.38358" lon="2.3717">
        <ele>648.07</ele>
        <time>2017-06-08T09:55:16Z</time>
      </trkpt>
      <trkpt lat="43.38371" lon="2.37162">
        <ele>647.59</ele>
        <time>2017-06-08T09:55:32Z</time>
      </trkpt>
      <trkpt lat="43.38379" lon="2.37155">
        <ele>650.47</ele>
        <time>2017-06-08T09:55:39Z</time>
      </trkpt>
      <trkpt lat="43.38393" lon="2.37151">
        <ele>652.39</ele>
        <time>2017-06-08T09:55:56Z</time>
      </trkpt>
      <trkpt lat="43.38403" lon="2.37151">
        <ele>653.83</ele>
        <time>2017-06-08T09:56:14Z</time>
      </trkpt>
      <trkpt lat="43.38405" lon="2.37149">
        <ele>653.35</ele>
        <time>2017-06-08T09:56:31Z</time>
      </trkpt>
      <trkpt lat="43.38398" lon="2.37143">
        <ele>650.47</ele>
        <time>2017-06-08T09:56:46Z</time>
      </trkpt>
      <trkpt lat="43.38397" lon="2.37132">
        <ele>649.03</ele>
        <time>2017-06-08T09:57:06Z</time>
      </trkpt>
      <trkpt lat="43.38398" lon="2.37123">
        <ele>648.55</ele>
        <time>2017-06-08T09:57:23Z</time>
      </trkpt>
      <trkpt lat="43.38399" lon="2.37116">
        <ele>651.43</ele>
        <time>2017-06-08T09:57:36Z</time>
      </trkpt>
      <trkpt lat="43.38399" lon="2.37112">
        <ele>655.28</ele>
        <time>2017-06-08T09:57:58Z</time>
      </trkpt>
      <trkpt lat="43.38398" lon="2.3711">
        <ele>661.04</ele>
        <time>2017-06-08T09:58:30Z</time>
      </trkpt>
      <trkpt lat="43.38403" lon="2.37113">
        <ele>661.52</ele>
        <time>2017-06-08T09:58:46Z</time>
      </trkpt>
      <trkpt lat="43.38401" lon="2.37113">
        <ele>662.49</ele>
        <time>2017-06-08T09:59:14Z</time>
      </trkpt>
      <trkpt lat="43.38399" lon="2.37118">
        <ele>666.33</ele>
        <time>2017-06-08T09:59:47Z</time>
      </trkpt>
      <trkpt lat="43.38397" lon="2.37118">
        <ele>667.29</ele>
        <time>2017-06-08T10:00:14Z</time>
      </trkpt>
      <trkpt lat="43.38397" lon="2.37113">
        <ele>665.37</ele>
        <time>2017-06-08T10:00:43Z</time>
      </trkpt>
      <trkpt lat="43.38399" lon="2.37102">
        <ele>666.33</ele>
        <time>2017-06-08T10:01:01Z</time>
      </trkpt>
      <trkpt lat="43.38398" lon="2.37091">
        <ele>667.77</ele>
        <time>2017-06-08T10:01:17Z</time>
      </trkpt>
      <trkpt lat="43.38399" lon="2.37084">
        <ele>669.7</ele>
        <time>2017-06-08T10:01:31Z</time>
      </trkpt>
      <trkpt lat="43.38393" lon="2.37065">
        <ele>670.18</ele>
        <time>2017-06-08T10:02:05Z</time>
      </trkpt>
      <trkpt lat="43.38385" lon="2.37051">
        <ele>668.73</ele>
        <time>2017-06-08T10:02:25Z</time>
      </trkpt>
      <trkpt lat="43.38381" lon="2.37037">
        <ele>670.18</ele>
        <time>2017-06-08T10:02:40Z</time>
      </trkpt>
      <trkpt lat="43.38377" lon="2.37028">
        <ele>667.77</ele>
        <time>2017-06-08T10:02:54Z</time>
      </trkpt>
      <trkpt lat="43.38373" lon="2.37017">
        <ele>662.49</ele>
        <time>2017-06-08T10:03:09Z</time>
      </trkpt>
      <trkpt lat="43.38373" lon="2.37005">
        <ele>660.56</ele>
        <time>2017-06-08T10:03:24Z</time>
      </trkpt>
      <trkpt lat="43.38371" lon="2.36997">
        <ele>661.04</ele>
        <time>2017-06-08T10:03:38Z</time>
      </trkpt>
      <trkpt lat="43.3837" lon="2.36988">
        <ele>664.41</ele>
        <time>2017-06-08T10:03:52Z</time>
      </trkpt>
      <trkpt lat="43.38362" lon="2.36979">
        <ele>670.66</ele>
        <time>2017-06-08T10:04:05Z</time>
      </trkpt>
      <trkpt lat="43.38361" lon="2.36971">
        <ele>669.22</ele>
        <time>2017-06-08T10:04:19Z</time>
      </trkpt>
      <trkpt lat="43.3836" lon="2.36962">
        <ele>669.7</ele>
        <time>2017-06-08T10:04:33Z</time>
      </trkpt>
      <trkpt lat="43.38356" lon="2.36952">
        <ele>672.1</ele>
        <time>2017-06-08T10:04:48Z</time>
      </trkpt>
      <trkpt lat="43.38349" lon="2.36935">
        <ele>678.35</ele>
        <time>2017-06-08T10:05:04Z</time>
      </trkpt>
      <trkpt lat="43.38337" lon="2.36919">
        <ele>684.6</ele>
        <time>2017-06-08T10:05:22Z</time>
      </trkpt>
      <trkpt lat="43.38327" lon="2.36903">
        <ele>686.04</ele>
        <time>2017-06-08T10:05:40Z</time>
      </trkpt>
      <trkpt lat="43.38328" lon="2.36886">
        <ele>686.04</ele>
        <time>2017-06-08T10:05:58Z</time>
      </trkpt>
      <trkpt lat="43.38333" lon="2.36883">
        <ele>687</ele>
        <time>2017-06-08T10:06:13Z</time>
      </trkpt>
      <trkpt lat="43.38339" lon="2.36881">
        <ele>689.4</ele>
        <time>2017-06-08T10:06:26Z</time>
      </trkpt>
      <trkpt lat="43.38342" lon="2.36883">
        <ele>690.84</ele>
        <time>2017-06-08T10:06:41Z</time>
      </trkpt>
      <trkpt lat="43.38346" lon="2.3689">
        <ele>693.25</ele>
        <time>2017-06-08T10:07:00Z</time>
      </trkpt>
      <trkpt lat="43.38355" lon="2.36893">
        <ele>696.13</ele>
        <time>2017-06-08T10:07:16Z</time>
      </trkpt>
      <trkpt lat="43.38365" lon="2.36894">
        <ele>698.53</ele>
        <time>2017-06-08T10:07:31Z</time>
      </trkpt>
      <trkpt lat="43.38374" lon="2.36899">
        <ele>700.46</ele>
        <time>2017-06-08T10:07:49Z</time>
      </trkpt>
      <trkpt lat="43.38381" lon="2.36905">
        <ele>702.38</ele>
        <time>2017-06-08T10:08:03Z</time>
      </trkpt>
      <trkpt lat="43.38389" lon="2.36912">
        <ele>705.26</ele>
        <time>2017-06-08T10:08:21Z</time>
      </trkpt>
      <trkpt lat="43.38398" lon="2.36919">
        <ele>706.23</ele>
        <time>2017-06-08T10:08:37Z</time>
      </trkpt>
      <trkpt lat="43.38399" lon="2.3692">
        <ele>706.23</ele>
        <time>2017-06-08T10:08:50Z</time>
      </trkpt>
      <trkpt lat="43.38398" lon="2.36922">
        <ele>705.26</ele>
        <time>2017-06-08T10:09:11Z</time>
      </trkpt>
      <trkpt lat="43.38397" lon="2.36923">
        <ele>706.23</ele>
        <time>2017-06-08T10:09:37Z</time>
      </trkpt>
      <trkpt lat="43.38399" lon="2.36921">
        <ele>707.19</ele>
        <time>2017-06-08T10:10:14Z</time>
      </trkpt>
      <trkpt lat="43.38406" lon="2.36926">
        <ele>707.19</ele>
        <time>2017-06-08T10:10:28Z</time>
      </trkpt>
      <trkpt lat="43.38417" lon="2.36934">
        <ele>710.55</ele>
        <time>2017-06-08T10:10:44Z</time>
      </trkpt>
      <trkpt lat="43.38415" lon="2.36939">
        <ele>710.07</ele>
        <time>2017-06-08T10:11:01Z</time>
      </trkpt>
      <trkpt lat="43.38421" lon="2.36938">
        <ele>711.51</ele>
        <time>2017-06-08T10:11:22Z</time>
      </trkpt>
      <trkpt lat="43.38426" lon="2.36944">
        <ele>712.47</ele>
        <time>2017-06-08T10:11:37Z</time>
      </trkpt>
      <trkpt lat="43.38431" lon="2.36947">
        <ele>713.92</ele>
        <time>2017-06-08T10:11:50Z</time>
      </trkpt>
      <trkpt lat="43.38436" lon="2.36946">
        <ele>715.36</ele>
        <time>2017-06-08T10:12:08Z</time>
      </trkpt>
      <trkpt lat="43.38442" lon="2.36947">
        <ele>717.28</ele>
        <time>2017-06-08T10:12:22Z</time>
      </trkpt>
      <trkpt lat="43.38452" lon="2.3695">
        <ele>718.72</ele>
        <time>2017-06-08T10:12:38Z</time>
      </trkpt>
      <trkpt lat="43.38456" lon="2.36953">
        <ele>720.65</ele>
        <time>2017-06-08T10:12:54Z</time>
      </trkpt>
      <trkpt lat="43.38465" lon="2.36955">
        <ele>723.05</ele>
        <time>2017-06-08T10:13:10Z</time>
      </trkpt>
      <trkpt lat="43.38475" lon="2.36958">
        <ele>724.49</ele>
        <time>2017-06-08T10:13:26Z</time>
      </trkpt>
      <trkpt lat="43.38474" lon="2.36957">
        <ele>726.41</ele>
        <time>2017-06-08T10:13:41Z</time>
      </trkpt>
      <trkpt lat="43.38474" lon="2.36954">
        <ele>726.41</ele>
        <time>2017-06-08T10:14:05Z</time>
      </trkpt>
      <trkpt lat="43.38475" lon="2.36957">
        <ele>727.86</ele>
        <time>2017-06-08T10:14:29Z</time>
      </trkpt>
      <trkpt lat="43.38481" lon="2.36958">
        <ele>728.82</ele>
        <time>2017-06-08T10:14:37Z</time>
      </trkpt>
      <trkpt lat="43.3849" lon="2.36965">
        <ele>730.26</ele>
        <time>2017-06-08T10:14:51Z</time>
      </trkpt>
      <trkpt lat="43.38496" lon="2.36972">
        <ele>731.22</ele>
        <time>2017-06-08T10:15:05Z</time>
      </trkpt>
      <trkpt lat="43.38502" lon="2.36976">
        <ele>732.66</ele>
        <time>2017-06-08T10:15:20Z</time>
      </trkpt>
      <trkpt lat="43.38508" lon="2.36981">
        <ele>735.55</ele>
        <time>2017-06-08T10:15:35Z</time>
      </trkpt>
      <trkpt lat="43.38517" lon="2.36983">
        <ele>737.95</ele>
        <time>2017-06-08T10:15:50Z</time>
      </trkpt>
      <trkpt lat="43.38523" lon="2.36982">
        <ele>740.35</ele>
        <time>2017-06-08T10:16:09Z</time>
      </trkpt>
      <trkpt lat="43.3853" lon="2.36977">
        <ele>742.28</ele>
        <time>2017-06-08T10:16:22Z</time>
      </trkpt>
      <trkpt lat="43.38538" lon="2.36973">
        <ele>744.2</ele>
        <time>2017-06-08T10:16:35Z</time>
      </trkpt>
      <trkpt lat="43.38546" lon="2.36974">
        <ele>745.16</ele>
        <time>2017-06-08T10:16:49Z</time>
      </trkpt>
      <trkpt lat="43.38553" lon="2.36968">
        <ele>746.6</ele>
        <time>2017-06-08T10:17:05Z</time>
      </trkpt>
      <trkpt lat="43.38554" lon="2.36962">
        <ele>748.52</ele>
        <time>2017-06-08T10:17:25Z</time>
      </trkpt>
      <trkpt lat="43.38554" lon="2.36958">
        <ele>746.6</ele>
        <time>2017-06-08T10:17:38Z</time>
      </trkpt>
      <trkpt lat="43.38555" lon="2.3696">
        <ele>747.08</ele>
        <time>2017-06-08T10:18:00Z</time>
      </trkpt>
      <trkpt lat="43.38554" lon="2.36959">
        <ele>747.56</ele>
        <time>2017-06-08T10:18:32Z</time>
      </trkpt>
      <trkpt lat="43.38554" lon="2.36957">
        <ele>746.6</ele>
        <time>2017-06-08T10:19:01Z</time>
      </trkpt>
      <trkpt lat="43.38553" lon="2.3696">
        <ele>747.56</ele>
        <time>2017-06-08T10:19:39Z</time>
      </trkpt>
      <trkpt lat="43.38553" lon="2.36961">
        <ele>747.08</ele>
        <time>2017-06-08T10:20:16Z</time>
      </trkpt>
      <trkpt lat="43.38555" lon="2.36961">
        <ele>746.6</ele>
        <time>2017-06-08T10:20:47Z</time>
      </trkpt>
      <trkpt lat="43.38556" lon="2.3696">
        <ele>747.56</ele>
        <time>2017-06-08T10:21:11Z</time>
      </trkpt>
      <trkpt lat="43.38555" lon="2.36961">
        <ele>746.6</ele>
        <time>2017-06-08T10:21:36Z</time>
      </trkpt>
      <trkpt lat="43.38553" lon="2.36959">
        <ele>745.64</ele>
        <time>2017-06-08T10:22:13Z</time>
      </trkpt>
      <trkpt lat="43.38556" lon="2.36966">
        <ele>746.6</ele>
        <time>2017-06-08T10:22:32Z</time>
      </trkpt>
      <trkpt lat="43.38558" lon="2.36972">
        <ele>746.6</ele>
        <time>2017-06-08T10:22:38Z</time>
      </trkpt>
      <trkpt lat="43.38572" lon="2.36985">
        <ele>749</ele>
        <time>2017-06-08T10:22:57Z</time>
      </trkpt>
      <trkpt lat="43.38575" lon="2.36999">
        <ele>750.93</ele>
        <time>2017-06-08T10:23:12Z</time>
      </trkpt>
      <trkpt lat="43.38579" lon="2.3701">
        <ele>751.89</ele>
        <time>2017-06-08T10:23:26Z</time>
      </trkpt>
      <trkpt lat="43.38579" lon="2.37012">
        <ele>754.29</ele>
        <time>2017-06-08T10:23:36Z</time>
      </trkpt>
      <trkpt lat="43.38578" lon="2.3701">
        <ele>756.21</ele>
        <time>2017-06-08T10:24:06Z</time>
      </trkpt>
      <trkpt lat="43.38583" lon="2.37013">
        <ele>758.14</ele>
        <time>2017-06-08T10:24:38Z</time>
      </trkpt>
      <trkpt lat="43.38602" lon="2.3703">
        <ele>756.21</ele>
        <time>2017-06-08T10:24:55Z</time>
      </trkpt>
      <trkpt lat="43.38616" lon="2.37045">
        <ele>755.73</ele>
        <time>2017-06-08T10:25:11Z</time>
      </trkpt>
      <trkpt lat="43.38636" lon="2.37066">
        <ele>755.25</ele>
        <time>2017-06-08T10:25:31Z</time>
      </trkpt>
      <trkpt lat="43.38654" lon="2.37085">
        <ele>754.77</ele>
        <time>2017-06-08T10:25:50Z</time>
      </trkpt>
      <trkpt lat="43.38669" lon="2.37084">
        <ele>753.33</ele>
        <time>2017-06-08T10:26:06Z</time>
      </trkpt>
      <trkpt lat="43.38673" lon="2.37084">
        <ele>752.37</ele>
        <time>2017-06-08T10:26:10Z</time>
      </trkpt>
      <trkpt lat="43.38689" lon="2.37083">
        <ele>755.25</ele>
        <time>2017-06-08T10:26:26Z</time>
      </trkpt>
      <trkpt lat="43.38694" lon="2.37082">
        <ele>756.21</ele>
        <time>2017-06-08T10:26:39Z</time>
      </trkpt>
      <trkpt lat="43.387" lon="2.3709">
        <ele>758.14</ele>
        <time>2017-06-08T10:26:52Z</time>
      </trkpt>
      <trkpt lat="43.38707" lon="2.37104">
        <ele>759.58</ele>
        <time>2017-06-08T10:27:06Z</time>
      </trkpt>
      <trkpt lat="43.38711" lon="2.3711">
        <ele>761.98</ele>
        <time>2017-06-08T10:27:20Z</time>
      </trkpt>
      <trkpt lat="43.38716" lon="2.37117">
        <ele>763.9</ele>
        <time>2017-06-08T10:27:43Z</time>
      </trkpt>
      <trkpt lat="43.3872" lon="2.37127">
        <ele>764.39</ele>
        <time>2017-06-08T10:27:57Z</time>
      </trkpt>
      <trkpt lat="43.38727" lon="2.37137">
        <ele>765.83</ele>
        <time>2017-06-08T10:28:12Z</time>
      </trkpt>
      <trkpt lat="43.3873" lon="2.37136">
        <ele>766.79</ele>
        <time>2017-06-08T10:28:28Z</time>
      </trkpt>
      <trkpt lat="43.38736" lon="2.37146">
        <ele>766.79</ele>
        <time>2017-06-08T10:28:42Z</time>
      </trkpt>
      <trkpt lat="43.38743" lon="2.37154">
        <ele>767.75</ele>
        <time>2017-06-08T10:28:56Z</time>
      </trkpt>
      <trkpt lat="43.38752" lon="2.37153">
        <ele>769.19</ele>
        <time>2017-06-08T10:29:10Z</time>
      </trkpt>
      <trkpt lat="43.38761" lon="2.37159">
        <ele>770.15</ele>
        <time>2017-06-08T10:29:25Z</time>
      </trkpt>
      <trkpt lat="43.38765" lon="2.37167">
        <ele>770.15</ele>
        <time>2017-06-08T10:29:38Z</time>
      </trkpt>
      <trkpt lat="43.38769" lon="2.37173">
        <ele>771.6</ele>
        <time>2017-06-08T10:29:55Z</time>
      </trkpt>
      <trkpt lat="43.38776" lon="2.37186">
        <ele>773.04</ele>
        <time>2017-06-08T10:30:10Z</time>
      </trkpt>
      <trkpt lat="43.3878" lon="2.3719">
        <ele>774.96</ele>
        <time>2017-06-08T10:30:25Z</time>
      </trkpt>
      <trkpt lat="43.38781" lon="2.37197">
        <ele>775.44</ele>
        <time>2017-06-08T10:30:32Z</time>
      </trkpt>
      <trkpt lat="43.38781" lon="2.37214">
        <ele>771.6</ele>
        <time>2017-06-08T10:30:48Z</time>
      </trkpt>
      <trkpt lat="43.38789" lon="2.37229">
        <ele>768.23</ele>
        <time>2017-06-08T10:31:05Z</time>
      </trkpt>
      <trkpt lat="43.38788" lon="2.37246">
        <ele>762.94</ele>
        <time>2017-06-08T10:31:18Z</time>
      </trkpt>
      <trkpt lat="43.38783" lon="2.37254">
        <ele>760.54</ele>
        <time>2017-06-08T10:31:33Z</time>
      </trkpt>
      <trkpt lat="43.38779" lon="2.37263">
        <ele>761.98</ele>
        <time>2017-06-08T10:31:49Z</time>
      </trkpt>
      <trkpt lat="43.38775" lon="2.37271">
        <ele>762.94</ele>
        <time>2017-06-08T10:32:11Z</time>
      </trkpt>
      <trkpt lat="43.38768" lon="2.37274">
        <ele>766.79</ele>
        <time>2017-06-08T10:32:36Z</time>
      </trkpt>
      <trkpt lat="43.38758" lon="2.37286">
        <ele>770.63</ele>
        <time>2017-06-08T10:32:52Z</time>
      </trkpt>
      <trkpt lat="43.38753" lon="2.37303">
        <ele>773.52</ele>
        <time>2017-06-08T10:33:08Z</time>
      </trkpt>
      <trkpt lat="43.38746" lon="2.37317">
        <ele>770.63</ele>
        <time>2017-06-08T10:33:23Z</time>
      </trkpt>
      <trkpt lat="43.38746" lon="2.37318">
        <ele>770.15</ele>
        <time>2017-06-08T10:33:24Z</time>
      </trkpt>
      <trkpt lat="43.38735" lon="2.37335">
        <ele>767.27</ele>
        <time>2017-06-08T10:33:40Z</time>
      </trkpt>
      <trkpt lat="43.3872" lon="2.37355">
        <ele>771.6</ele>
        <time>2017-06-08T10:33:57Z</time>
      </trkpt>
      <trkpt lat="43.38719" lon="2.37356">
        <ele>771.6</ele>
        <time>2017-06-08T10:33:58Z</time>
      </trkpt>
      <trkpt lat="43.38714" lon="2.37363">
        <ele>771.11</ele>
        <time>2017-06-08T10:34:05Z</time>
      </trkpt>
      <trkpt lat="43.38701" lon="2.37382">
        <ele>771.11</ele>
        <time>2017-06-08T10:34:21Z</time>
      </trkpt>
      <trkpt lat="43.38697" lon="2.37393">
        <ele>770.63</ele>
        <time>2017-06-08T10:34:29Z</time>
      </trkpt>
      <trkpt lat="43.38701" lon="2.37418">
        <ele>770.63</ele>
        <time>2017-06-08T10:34:46Z</time>
      </trkpt>
      <trkpt lat="43.38706" lon="2.37438">
        <ele>771.11</ele>
        <time>2017-06-08T10:35:03Z</time>
      </trkpt>
      <trkpt lat="43.38711" lon="2.37458">
        <ele>770.15</ele>
        <time>2017-06-08T10:35:20Z</time>
      </trkpt>
      <trkpt lat="43.38715" lon="2.37479">
        <ele>770.63</ele>
        <time>2017-06-08T10:35:35Z</time>
      </trkpt>
      <trkpt lat="43.3872" lon="2.37506">
        <ele>771.11</ele>
        <time>2017-06-08T10:35:53Z</time>
      </trkpt>
      <trkpt lat="43.38725" lon="2.3753">
        <ele>771.6</ele>
        <time>2017-06-08T10:36:10Z</time>
      </trkpt>
      <trkpt lat="43.3873" lon="2.37551">
        <ele>772.08</ele>
        <time>2017-06-08T10:36:24Z</time>
      </trkpt>
      <trkpt lat="43.38735" lon="2.37582">
        <ele>773.52</ele>
        <time>2017-06-08T10:36:44Z</time>
      </trkpt>
      <trkpt lat="43.38738" lon="2.3759">
        <ele>772.56</ele>
        <time>2017-06-08T10:36:59Z</time>
      </trkpt>
      <trkpt lat="43.38744" lon="2.37598">
        <ele>772.56</ele>
        <time>2017-06-08T10:37:16Z</time>
      </trkpt>
      <trkpt lat="43.38753" lon="2.37594">
        <ele>772.56</ele>
        <time>2017-06-08T10:37:30Z</time>
      </trkpt>
      <trkpt lat="43.3876" lon="2.37579">
        <ele>772.56</ele>
        <time>2017-06-08T10:37:45Z</time>
      </trkpt>
      <trkpt lat="43.38765" lon="2.37557">
        <ele>773.52</ele>
        <time>2017-06-08T10:38:01Z</time>
      </trkpt>
      <trkpt lat="43.38765" lon="2.37555">
        <ele>773.52</ele>
        <time>2017-06-08T10:38:03Z</time>
      </trkpt>
      <trkpt lat="43.38771" lon="2.37534">
        <ele>774.48</ele>
        <time>2017-06-08T10:38:18Z</time>
      </trkpt>
      <trkpt lat="43.38777" lon="2.3751">
        <ele>775.44</ele>
        <time>2017-06-08T10:38:36Z</time>
      </trkpt>
      <trkpt lat="43.38782" lon="2.37491">
        <ele>774.96</ele>
        <time>2017-06-08T10:38:51Z</time>
      </trkpt>
      <trkpt lat="43.3879" lon="2.37469">
        <ele>776.4</ele>
        <time>2017-06-08T10:39:07Z</time>
      </trkpt>
      <trkpt lat="43.38796" lon="2.37455">
        <ele>776.88</ele>
        <time>2017-06-08T10:39:18Z</time>
      </trkpt>
      <trkpt lat="43.38801" lon="2.37442">
        <ele>776.4</ele>
        <time>2017-06-08T10:39:28Z</time>
      </trkpt>
      <trkpt lat="43.38803" lon="2.37436">
        <ele>776.4</ele>
        <time>2017-06-08T10:39:33Z</time>
      </trkpt>
      <trkpt lat="43.38813" lon="2.37413">
        <ele>779.29</ele>
        <time>2017-06-08T10:39:50Z</time>
      </trkpt>
      <trkpt lat="43.38822" lon="2.3739">
        <ele>780.25</ele>
        <time>2017-06-08T10:40:06Z</time>
      </trkpt>
      <trkpt lat="43.38827" lon="2.3738">
        <ele>780.25</ele>
        <time>2017-06-08T10:40:14Z</time>
      </trkpt>
      <trkpt lat="43.38833" lon="2.37373">
        <ele>780.25</ele>
        <time>2017-06-08T10:40:20Z</time>
      </trkpt>
      <trkpt lat="43.38843" lon="2.37361">
        <ele>777.84</ele>
        <time>2017-06-08T10:40:32Z</time>
      </trkpt>
      <trkpt lat="43.38857" lon="2.37339">
        <ele>777.36</ele>
        <time>2017-06-08T10:40:49Z</time>
      </trkpt>
      <trkpt lat="43.38872" lon="2.37316">
        <ele>779.77</ele>
        <time>2017-06-08T10:41:07Z</time>
      </trkpt>
      <trkpt lat="43.3889" lon="2.37293">
        <ele>780.73</ele>
        <time>2017-06-08T10:41:28Z</time>
      </trkpt>
      <trkpt lat="43.38904" lon="2.37278">
        <ele>782.17</ele>
        <time>2017-06-08T10:41:44Z</time>
      </trkpt>
      <trkpt lat="43.38909" lon="2.37278">
        <ele>782.65</ele>
        <time>2017-06-08T10:41:58Z</time>
      </trkpt>
      <trkpt lat="43.38912" lon="2.3728">
        <ele>783.13</ele>
        <time>2017-06-08T10:42:30Z</time>
      </trkpt>
      <trkpt lat="43.38911" lon="2.37282">
        <ele>782.17</ele>
        <time>2017-06-08T10:43:00Z</time>
      </trkpt>
      <trkpt lat="43.38911" lon="2.37281">
        <ele>783.61</ele>
        <time>2017-06-08T10:43:33Z</time>
      </trkpt>
      <trkpt lat="43.38912" lon="2.37279">
        <ele>782.17</ele>
        <time>2017-06-08T10:44:03Z</time>
      </trkpt>
      <trkpt lat="43.38913" lon="2.37278">
        <ele>781.69</ele>
        <time>2017-06-08T10:44:05Z</time>
      </trkpt>
      <trkpt lat="43.38915" lon="2.37269">
        <ele>780.25</ele>
        <time>2017-06-08T10:44:17Z</time>
      </trkpt>
      <trkpt lat="43.38926" lon="2.37257">
        <ele>778.32</ele>
        <time>2017-06-08T10:44:30Z</time>
      </trkpt>
      <trkpt lat="43.38933" lon="2.37255">
        <ele>781.21</ele>
        <time>2017-06-08T10:44:37Z</time>
      </trkpt>
      <trkpt lat="43.38947" lon="2.3724">
        <ele>784.09</ele>
        <time>2017-06-08T10:44:53Z</time>
      </trkpt>
      <trkpt lat="43.38964" lon="2.3722">
        <ele>784.57</ele>
        <time>2017-06-08T10:45:13Z</time>
      </trkpt>
      <trkpt lat="43.3898" lon="2.37202">
        <ele>785.05</ele>
        <time>2017-06-08T10:45:31Z</time>
      </trkpt>
      <trkpt lat="43.38991" lon="2.37191">
        <ele>785.05</ele>
        <time>2017-06-08T10:45:48Z</time>
      </trkpt>
      <trkpt lat="43.39004" lon="2.37176">
        <ele>784.57</ele>
        <time>2017-06-08T10:46:05Z</time>
      </trkpt>
      <trkpt lat="43.39016" lon="2.37164">
        <ele>783.61</ele>
        <time>2017-06-08T10:46:20Z</time>
      </trkpt>
      <trkpt lat="43.39033" lon="2.37152">
        <ele>781.69</ele>
        <time>2017-06-08T10:46:38Z</time>
      </trkpt>
      <trkpt lat="43.39046" lon="2.37142">
        <ele>779.77</ele>
        <time>2017-06-08T10:46:55Z</time>
      </trkpt>
      <trkpt lat="43.39058" lon="2.37132">
        <ele>778.32</ele>
        <time>2017-06-08T10:47:09Z</time>
      </trkpt>
      <trkpt lat="43.39074" lon="2.37116">
        <ele>777.84</ele>
        <time>2017-06-08T10:47:27Z</time>
      </trkpt>
      <trkpt lat="43.39089" lon="2.37105">
        <ele>777.36</ele>
        <time>2017-06-08T10:47:43Z</time>
      </trkpt>
      <trkpt lat="43.39103" lon="2.37095">
        <ele>777.84</ele>
        <time>2017-06-08T10:48:00Z</time>
      </trkpt>
      <trkpt lat="43.39118" lon="2.37087">
        <ele>775.92</ele>
        <time>2017-06-08T10:48:17Z</time>
      </trkpt>
      <trkpt lat="43.39136" lon="2.37076">
        <ele>774.96</ele>
        <time>2017-06-08T10:48:36Z</time>
      </trkpt>
      <trkpt lat="43.39155" lon="2.37067">
        <ele>775.44</ele>
        <time>2017-06-08T10:48:55Z</time>
      </trkpt>
      <trkpt lat="43.39174" lon="2.37056">
        <ele>775.92</ele>
        <time>2017-06-08T10:49:13Z</time>
      </trkpt>
      <trkpt lat="43.39195" lon="2.37043">
        <ele>776.88</ele>
        <time>2017-06-08T10:49:33Z</time>
      </trkpt>
      <trkpt lat="43.39217" lon="2.37032">
        <ele>777.36</ele>
        <time>2017-06-08T10:49:53Z</time>
      </trkpt>
      <trkpt lat="43.39237" lon="2.37021">
        <ele>776.4</ele>
        <time>2017-06-08T10:50:12Z</time>
      </trkpt>
      <trkpt lat="43.39259" lon="2.37009">
        <ele>777.36</ele>
        <time>2017-06-08T10:50:32Z</time>
      </trkpt>
      <trkpt lat="43.39279" lon="2.36999">
        <ele>776.88</ele>
        <time>2017-06-08T10:50:51Z</time>
      </trkpt>
      <trkpt lat="43.39296" lon="2.36989">
        <ele>777.36</ele>
        <time>2017-06-08T10:51:07Z</time>
      </trkpt>
      <trkpt lat="43.393" lon="2.36986">
        <ele>778.32</ele>
        <time>2017-06-08T10:51:23Z</time>
      </trkpt>
      <trkpt lat="43.39302" lon="2.36985">
        <ele>777.36</ele>
        <time>2017-06-08T10:51:40Z</time>
      </trkpt>
      <trkpt lat="43.39314" lon="2.36983">
        <ele>777.84</ele>
        <time>2017-06-08T10:51:56Z</time>
      </trkpt>
      <trkpt lat="43.39314" lon="2.36983">
        <ele>778.32</ele>
        <time>2017-06-08T10:51:59Z</time>
      </trkpt>
      <trkpt lat="43.39314" lon="2.36978">
        <ele>778.32</ele>
        <time>2017-06-08T10:52:09Z</time>
      </trkpt>
      <trkpt lat="43.39332" lon="2.36969">
        <ele>777.84</ele>
        <time>2017-06-08T10:52:28Z</time>
      </trkpt>
      <trkpt lat="43.39341" lon="2.36963">
        <ele>779.29</ele>
        <time>2017-06-08T10:52:40Z</time>
      </trkpt>
      <trkpt lat="43.3935" lon="2.36957">
        <ele>779.29</ele>
        <time>2017-06-08T10:52:53Z</time>
      </trkpt>
      <trkpt lat="43.39353" lon="2.36955">
        <ele>779.29</ele>
        <time>2017-06-08T10:53:01Z</time>
      </trkpt>
      <trkpt lat="43.39375" lon="2.36945">
        <ele>779.77</ele>
        <time>2017-06-08T10:53:23Z</time>
      </trkpt>
      <trkpt lat="43.39389" lon="2.36947">
        <ele>780.73</ele>
        <time>2017-06-08T10:53:39Z</time>
      </trkpt>
      <trkpt lat="43.39392" lon="2.36944">
        <ele>779.77</ele>
        <time>2017-06-08T10:53:55Z</time>
      </trkpt>
      <trkpt lat="43.39392" lon="2.36941">
        <ele>778.81</ele>
        <time>2017-06-08T10:54:24Z</time>
      </trkpt>
      <trkpt lat="43.39393" lon="2.36946">
        <ele>779.29</ele>
        <time>2017-06-08T10:55:00Z</time>
      </trkpt>
      <trkpt lat="43.39391" lon="2.36947">
        <ele>779.77</ele>
        <time>2017-06-08T10:55:29Z</time>
      </trkpt>
      <trkpt lat="43.39393" lon="2.36945">
        <ele>778.32</ele>
        <time>2017-06-08T10:55:41Z</time>
      </trkpt>
      <trkpt lat="43.39393" lon="2.36946">
        <ele>776.88</ele>
        <time>2017-06-08T10:55:54Z</time>
      </trkpt>
      <trkpt lat="43.39392" lon="2.36952">
        <ele>777.84</ele>
        <time>2017-06-08T10:55:59Z</time>
      </trkpt>
      <trkpt lat="43.39401" lon="2.36965">
        <ele>778.81</ele>
        <time>2017-06-08T10:56:14Z</time>
      </trkpt>
      <trkpt lat="43.39421" lon="2.36977">
        <ele>779.77</ele>
        <time>2017-06-08T10:56:35Z</time>
      </trkpt>
      <trkpt lat="43.39443" lon="2.3699">
        <ele>780.73</ele>
        <time>2017-06-08T10:56:56Z</time>
      </trkpt>
      <trkpt lat="43.39451" lon="2.36994">
        <ele>782.17</ele>
        <time>2017-06-08T10:57:13Z</time>
      </trkpt>
      <trkpt lat="43.39459" lon="2.36999">
        <ele>782.17</ele>
        <time>2017-06-08T10:57:21Z</time>
      </trkpt>
      <trkpt lat="43.39463" lon="2.36999">
        <ele>782.17</ele>
        <time>2017-06-08T10:57:25Z</time>
      </trkpt>
      <trkpt lat="43.39465" lon="2.37001">
        <ele>782.65</ele>
        <time>2017-06-08T10:57:40Z</time>
      </trkpt>
      <trkpt lat="43.39466" lon="2.37002">
        <ele>782.65</ele>
        <time>2017-06-08T10:57:41Z</time>
      </trkpt>
      <trkpt lat="43.39473" lon="2.37007">
        <ele>782.17</ele>
        <time>2017-06-08T10:57:57Z</time>
      </trkpt>
      <trkpt lat="43.39497" lon="2.37019">
        <ele>780.25</ele>
        <time>2017-06-08T10:58:17Z</time>
      </trkpt>
      <trkpt lat="43.39519" lon="2.37035">
        <ele>776.88</ele>
        <time>2017-06-08T10:58:38Z</time>
      </trkpt>
      <trkpt lat="43.39522" lon="2.37039">
        <ele>775.44</ele>
        <time>2017-06-08T10:58:42Z</time>
      </trkpt>
      <trkpt lat="43.39539" lon="2.37049">
        <ele>773.52</ele>
        <time>2017-06-08T10:58:57Z</time>
      </trkpt>
      <trkpt lat="43.3956" lon="2.37054">
        <ele>774</ele>
        <time>2017-06-08T10:59:10Z</time>
      </trkpt>
      <trkpt lat="43.3957" lon="2.37056">
        <ele>774</ele>
        <time>2017-06-08T10:59:17Z</time>
      </trkpt>
      <trkpt lat="43.39572" lon="2.37056">
        <ele>774</ele>
        <time>2017-06-08T10:59:18Z</time>
      </trkpt>
      <trkpt lat="43.39573" lon="2.37056">
        <ele>773.52</ele>
        <time>2017-06-08T10:59:19Z</time>
      </trkpt>
      <trkpt lat="43.39575" lon="2.37057">
        <ele>773.04</ele>
        <time>2017-06-08T10:59:20Z</time>
      </trkpt>
      <trkpt lat="43.39593" lon="2.37061">
        <ele>771.6</ele>
        <time>2017-06-08T10:59:33Z</time>
      </trkpt>
      <trkpt lat="43.39603" lon="2.37066">
        <ele>770.63</ele>
        <time>2017-06-08T10:59:45Z</time>
      </trkpt>
      <trkpt lat="43.39611" lon="2.37064">
        <ele>770.15</ele>
        <time>2017-06-08T10:59:53Z</time>
      </trkpt>
      <trkpt lat="43.39637" lon="2.37048">
        <ele>766.79</ele>
        <time>2017-06-08T11:00:17Z</time>
      </trkpt>
      <trkpt lat="43.39654" lon="2.37037">
        <ele>764.39</ele>
        <time>2017-06-08T11:00:35Z</time>
      </trkpt>
      <trkpt lat="43.39662" lon="2.37029">
        <ele>763.9</ele>
        <time>2017-06-08T11:00:50Z</time>
      </trkpt>
      <trkpt lat="43.39675" lon="2.37021">
        <ele>765.35</ele>
        <time>2017-06-08T11:01:06Z</time>
      </trkpt>
      <trkpt lat="43.39684" lon="2.37011">
        <ele>761.98</ele>
        <time>2017-06-08T11:01:19Z</time>
      </trkpt>
      <trkpt lat="43.39699" lon="2.36988">
        <ele>760.54</ele>
        <time>2017-06-08T11:01:35Z</time>
      </trkpt>
      <trkpt lat="43.39703" lon="2.36985">
        <ele>760.54</ele>
        <time>2017-06-08T11:01:38Z</time>
      </trkpt>
      <trkpt lat="43.39711" lon="2.36979">
        <ele>760.06</ele>
        <time>2017-06-08T11:01:50Z</time>
      </trkpt>
      <trkpt lat="43.39715" lon="2.36974">
        <ele>758.14</ele>
        <time>2017-06-08T11:01:56Z</time>
      </trkpt>
      <trkpt lat="43.39724" lon="2.36964">
        <ele>757.66</ele>
        <time>2017-06-08T11:02:08Z</time>
      </trkpt>
      <trkpt lat="43.39725" lon="2.36963">
        <ele>757.18</ele>
        <time>2017-06-08T11:02:09Z</time>
      </trkpt>
      <trkpt lat="43.39739" lon="2.36953">
        <ele>760.54</ele>
        <time>2017-06-08T11:02:23Z</time>
      </trkpt>
      <trkpt lat="43.39747" lon="2.36945">
        <ele>761.5</ele>
        <time>2017-06-08T11:02:34Z</time>
      </trkpt>
      <trkpt lat="43.39746" lon="2.3695">
        <ele>760.54</ele>
        <time>2017-06-08T11:02:44Z</time>
      </trkpt>
      <trkpt lat="43.39746" lon="2.36951">
        <ele>760.54</ele>
        <time>2017-06-08T11:02:45Z</time>
      </trkpt>
      <trkpt lat="43.39742" lon="2.36959">
        <ele>758.14</ele>
        <time>2017-06-08T11:02:57Z</time>
      </trkpt>
      <trkpt lat="43.39742" lon="2.36962">
        <ele>757.66</ele>
        <time>2017-06-08T11:03:04Z</time>
      </trkpt>
      <trkpt lat="43.39742" lon="2.36975">
        <ele>757.18</ele>
        <time>2017-06-08T11:03:11Z</time>
      </trkpt>
      <trkpt lat="43.39742" lon="2.36976">
        <ele>757.18</ele>
        <time>2017-06-08T11:03:12Z</time>
      </trkpt>
      <trkpt lat="43.39739" lon="2.36985">
        <ele>755.25</ele>
        <time>2017-06-08T11:03:23Z</time>
      </trkpt>
      <trkpt lat="43.39736" lon="2.36992">
        <ele>755.25</ele>
        <time>2017-06-08T11:03:38Z</time>
      </trkpt>
      <trkpt lat="43.39735" lon="2.36994">
        <ele>752.37</ele>
        <time>2017-06-08T11:04:07Z</time>
      </trkpt>
      <trkpt lat="43.39725" lon="2.37018">
        <ele>749</ele>
        <time>2017-06-08T11:04:25Z</time>
      </trkpt>
      <trkpt lat="43.39712" lon="2.37037">
        <ele>744.68</ele>
        <time>2017-06-08T11:04:41Z</time>
      </trkpt>
      <trkpt lat="43.39699" lon="2.37052">
        <ele>742.28</ele>
        <time>2017-06-08T11:04:58Z</time>
      </trkpt>
      <trkpt lat="43.39699" lon="2.3705">
        <ele>741.79</ele>
        <time>2017-06-08T11:05:24Z</time>
      </trkpt>
      <trkpt lat="43.39698" lon="2.37054">
        <ele>746.6</ele>
        <time>2017-06-08T11:05:39Z</time>
      </trkpt>
      <trkpt lat="43.39694" lon="2.37055">
        <ele>745.64</ele>
        <time>2017-06-08T11:05:52Z</time>
      </trkpt>
      <trkpt lat="43.39696" lon="2.37049">
        <ele>745.64</ele>
        <time>2017-06-08T11:06:10Z</time>
      </trkpt>
      <trkpt lat="43.397" lon="2.37048">
        <ele>744.2</ele>
        <time>2017-06-08T11:06:23Z</time>
      </trkpt>
      <trkpt lat="43.39697" lon="2.37049">
        <ele>744.2</ele>
        <time>2017-06-08T11:06:47Z</time>
      </trkpt>
      <trkpt lat="43.39697" lon="2.37052">
        <ele>747.56</ele>
        <time>2017-06-08T11:07:05Z</time>
      </trkpt>
      <trkpt lat="43.39698" lon="2.3705">
        <ele>749</ele>
        <time>2017-06-08T11:07:25Z</time>
      </trkpt>
      <trkpt lat="43.39698" lon="2.3705">
        <ele>748.52</ele>
        <time>2017-06-08T11:07:37Z</time>
      </trkpt>
      <trkpt lat="43.39697" lon="2.37051">
        <ele>745.64</ele>
        <time>2017-06-08T11:07:55Z</time>
      </trkpt>
      <trkpt lat="43.39702" lon="2.37052">
        <ele>742.76</ele>
        <time>2017-06-08T11:08:18Z</time>
      </trkpt>
      <trkpt lat="43.39703" lon="2.3705">
        <ele>740.83</ele>
        <time>2017-06-08T11:08:40Z</time>
      </trkpt>
      <trkpt lat="43.39701" lon="2.37049">
        <ele>747.08</ele>
        <time>2017-06-08T11:08:56Z</time>
      </trkpt>
      <trkpt lat="43.397" lon="2.37052">
        <ele>748.52</ele>
        <time>2017-06-08T11:09:12Z</time>
      </trkpt>
      <trkpt lat="43.39698" lon="2.37057">
        <ele>750.93</ele>
        <time>2017-06-08T11:09:30Z</time>
      </trkpt>
      <trkpt lat="43.39696" lon="2.3706">
        <ele>751.41</ele>
        <time>2017-06-08T11:09:45Z</time>
      </trkpt>
      <trkpt lat="43.39695" lon="2.37062">
        <ele>751.41</ele>
        <time>2017-06-08T11:10:04Z</time>
      </trkpt>
      <trkpt lat="43.39699" lon="2.37083">
        <ele>746.12</ele>
        <time>2017-06-08T11:10:21Z</time>
      </trkpt>
      <trkpt lat="43.39712" lon="2.37091">
        <ele>738.91</ele>
        <time>2017-06-08T11:10:37Z</time>
      </trkpt>
      <trkpt lat="43.39715" lon="2.37094">
        <ele>739.87</ele>
        <time>2017-06-08T11:10:55Z</time>
      </trkpt>
      <trkpt lat="43.39718" lon="2.37091">
        <ele>736.99</ele>
        <time>2017-06-08T11:11:13Z</time>
      </trkpt>
      <trkpt lat="43.3972" lon="2.3709">
        <ele>740.83</ele>
        <time>2017-06-08T11:11:42Z</time>
      </trkpt>
      <trkpt lat="43.39721" lon="2.37097">
        <ele>741.31</ele>
        <time>2017-06-08T11:11:59Z</time>
      </trkpt>
      <trkpt lat="43.39719" lon="2.37095">
        <ele>739.87</ele>
        <time>2017-06-08T11:12:22Z</time>
      </trkpt>
      <trkpt lat="43.39717" lon="2.37091">
        <ele>739.39</ele>
        <time>2017-06-08T11:12:48Z</time>
      </trkpt>
      <trkpt lat="43.3972" lon="2.37089">
        <ele>741.31</ele>
        <time>2017-06-08T11:13:15Z</time>
      </trkpt>
      <trkpt lat="43.39717" lon="2.37093">
        <ele>743.24</ele>
        <time>2017-06-08T11:13:37Z</time>
      </trkpt>
      <trkpt lat="43.39701" lon="2.37091">
        <ele>742.76</ele>
        <time>2017-06-08T11:13:55Z</time>
      </trkpt>
      <trkpt lat="43.39693" lon="2.37076">
        <ele>743.72</ele>
        <time>2017-06-08T11:14:10Z</time>
      </trkpt>
      <trkpt lat="43.39695" lon="2.37052">
        <ele>743.24</ele>
        <time>2017-06-08T11:14:27Z</time>
      </trkpt>
      <trkpt lat="43.397" lon="2.37046">
        <ele>743.24</ele>
        <time>2017-06-08T11:14:42Z</time>
      </trkpt>
      <trkpt lat="43.39699" lon="2.37043">
        <ele>743.72</ele>
        <time>2017-06-08T11:15:06Z</time>
      </trkpt>
      <trkpt lat="43.39702" lon="2.37038">
        <ele>746.12</ele>
        <time>2017-06-08T11:15:21Z</time>
      </trkpt>
      <trkpt lat="43.39718" lon="2.37022">
        <ele>746.6</ele>
        <time>2017-06-08T11:15:40Z</time>
      </trkpt>
      <trkpt lat="43.39718" lon="2.37021">
        <ele>746.6</ele>
        <time>2017-06-08T11:15:41Z</time>
      </trkpt>
      <trkpt lat="43.39719" lon="2.3702">
        <ele>746.12</ele>
        <time>2017-06-08T11:15:42Z</time>
      </trkpt>
      <trkpt lat="43.39729" lon="2.36995">
        <ele>743.72</ele>
        <time>2017-06-08T11:15:59Z</time>
      </trkpt>
      <trkpt lat="43.39742" lon="2.36972">
        <ele>740.35</ele>
        <time>2017-06-08T11:16:18Z</time>
      </trkpt>
      <trkpt lat="43.39752" lon="2.36957">
        <ele>735.07</ele>
        <time>2017-06-08T11:16:34Z</time>
      </trkpt>
      <trkpt lat="43.39766" lon="2.3694">
        <ele>731.7</ele>
        <time>2017-06-08T11:16:51Z</time>
      </trkpt>
      <trkpt lat="43.39778" lon="2.36922">
        <ele>728.34</ele>
        <time>2017-06-08T11:17:05Z</time>
      </trkpt>
      <trkpt lat="43.39793" lon="2.36903">
        <ele>724.49</ele>
        <time>2017-06-08T11:17:22Z</time>
      </trkpt>
      <trkpt lat="43.39804" lon="2.36891">
        <ele>721.13</ele>
        <time>2017-06-08T11:17:34Z</time>
      </trkpt>
      <trkpt lat="43.39804" lon="2.36889">
        <ele>721.13</ele>
        <time>2017-06-08T11:17:35Z</time>
      </trkpt>
      <trkpt lat="43.39805" lon="2.36888">
        <ele>720.65</ele>
        <time>2017-06-08T11:17:36Z</time>
      </trkpt>
      <trkpt lat="43.39818" lon="2.3686">
        <ele>722.09</ele>
        <time>2017-06-08T11:17:55Z</time>
      </trkpt>
      <trkpt lat="43.3982" lon="2.36854">
        <ele>723.53</ele>
        <time>2017-06-08T11:18:08Z</time>
      </trkpt>
      <trkpt lat="43.39829" lon="2.36841">
        <ele>721.13</ele>
        <time>2017-06-08T11:18:32Z</time>
      </trkpt>
      <trkpt lat="43.39836" lon="2.36827">
        <ele>718.72</ele>
        <time>2017-06-08T11:18:43Z</time>
      </trkpt>
      <trkpt lat="43.39848" lon="2.36817">
        <ele>718.24</ele>
        <time>2017-06-08T11:18:57Z</time>
      </trkpt>
      <trkpt lat="43.39856" lon="2.36818">
        <ele>720.65</ele>
        <time>2017-06-08T11:19:16Z</time>
      </trkpt>
      <trkpt lat="43.39859" lon="2.36816">
        <ele>724.01</ele>
        <time>2017-06-08T11:19:40Z</time>
      </trkpt>
      <trkpt lat="43.39864" lon="2.36826">
        <ele>724.01</ele>
        <time>2017-06-08T11:20:04Z</time>
      </trkpt>
      <trkpt lat="43.39865" lon="2.36844">
        <ele>725.45</ele>
        <time>2017-06-08T11:20:20Z</time>
      </trkpt>
      <trkpt lat="43.39861" lon="2.36858">
        <ele>727.86</ele>
        <time>2017-06-08T11:20:38Z</time>
      </trkpt>
      <trkpt lat="43.39861" lon="2.3687">
        <ele>727.86</ele>
        <time>2017-06-08T11:20:54Z</time>
      </trkpt>
      <trkpt lat="43.39859" lon="2.36879">
        <ele>728.34</ele>
        <time>2017-06-08T11:21:09Z</time>
      </trkpt>
      <trkpt lat="43.39858" lon="2.36894">
        <ele>730.26</ele>
        <time>2017-06-08T11:21:26Z</time>
      </trkpt>
      <trkpt lat="43.39857" lon="2.36907">
        <ele>734.58</ele>
        <time>2017-06-08T11:21:44Z</time>
      </trkpt>
      <trkpt lat="43.39855" lon="2.36922">
        <ele>736.51</ele>
        <time>2017-06-08T11:22:01Z</time>
      </trkpt>
      <trkpt lat="43.39854" lon="2.36938">
        <ele>738.43</ele>
        <time>2017-06-08T11:22:21Z</time>
      </trkpt>
      <trkpt lat="43.39854" lon="2.36951">
        <ele>737.95</ele>
        <time>2017-06-08T11:22:36Z</time>
      </trkpt>
      <trkpt lat="43.39854" lon="2.36965">
        <ele>738.91</ele>
        <time>2017-06-08T11:22:53Z</time>
      </trkpt>
      <trkpt lat="43.39853" lon="2.3698">
        <ele>738.43</ele>
        <time>2017-06-08T11:23:14Z</time>
      </trkpt>
      <trkpt lat="43.39851" lon="2.36994">
        <ele>740.35</ele>
        <time>2017-06-08T11:23:32Z</time>
      </trkpt>
      <trkpt lat="43.3985" lon="2.3701">
        <ele>742.28</ele>
        <time>2017-06-08T11:23:48Z</time>
      </trkpt>
      <trkpt lat="43.3985" lon="2.37015">
        <ele>742.28</ele>
        <time>2017-06-08T11:24:05Z</time>
      </trkpt>
      <trkpt lat="43.39853" lon="2.37027">
        <ele>745.64</ele>
        <time>2017-06-08T11:24:19Z</time>
      </trkpt>
      <trkpt lat="43.39857" lon="2.3704">
        <ele>748.52</ele>
        <time>2017-06-08T11:24:33Z</time>
      </trkpt>
      <trkpt lat="43.39862" lon="2.37055">
        <ele>751.89</ele>
        <time>2017-06-08T11:24:50Z</time>
      </trkpt>
      <trkpt lat="43.39868" lon="2.37066">
        <ele>754.77</ele>
        <time>2017-06-08T11:25:06Z</time>
      </trkpt>
      <trkpt lat="43.39875" lon="2.37065">
        <ele>755.25</ele>
        <time>2017-06-08T11:25:20Z</time>
      </trkpt>
      <trkpt lat="43.39879" lon="2.37062">
        <ele>756.21</ele>
        <time>2017-06-08T11:25:34Z</time>
      </trkpt>
      <trkpt lat="43.39884" lon="2.3706">
        <ele>758.14</ele>
        <time>2017-06-08T11:25:47Z</time>
      </trkpt>
      <trkpt lat="43.39888" lon="2.37053">
        <ele>758.62</ele>
        <time>2017-06-08T11:26:01Z</time>
      </trkpt>
      <trkpt lat="43.39889" lon="2.3705">
        <ele>758.62</ele>
        <time>2017-06-08T11:26:17Z</time>
      </trkpt>
      <trkpt lat="43.39895" lon="2.37046">
        <ele>758.62</ele>
        <time>2017-06-08T11:26:32Z</time>
      </trkpt>
      <trkpt lat="43.39903" lon="2.3704">
        <ele>759.1</ele>
        <time>2017-06-08T11:26:49Z</time>
      </trkpt>
      <trkpt lat="43.39906" lon="2.37041">
        <ele>760.54</ele>
        <time>2017-06-08T11:27:08Z</time>
      </trkpt>
      <trkpt lat="43.39906" lon="2.37042">
        <ele>759.1</ele>
        <time>2017-06-08T11:27:26Z</time>
      </trkpt>
      <trkpt lat="43.39906" lon="2.37037">
        <ele>762.94</ele>
        <time>2017-06-08T11:27:58Z</time>
      </trkpt>
      <trkpt lat="43.39904" lon="2.37037">
        <ele>769.19</ele>
        <time>2017-06-08T11:28:30Z</time>
      </trkpt>
      <trkpt lat="43.39902" lon="2.37038">
        <ele>771.11</ele>
        <time>2017-06-08T11:29:08Z</time>
      </trkpt>
      <trkpt lat="43.39901" lon="2.37042">
        <ele>770.15</ele>
        <time>2017-06-08T11:29:47Z</time>
      </trkpt>
      <trkpt lat="43.39901" lon="2.37042">
        <ele>770.15</ele>
        <time>2017-06-08T11:30:31Z</time>
      </trkpt>
      <trkpt lat="43.39899" lon="2.37042">
        <ele>769.67</ele>
        <time>2017-06-08T11:31:08Z</time>
      </trkpt>
      <trkpt lat="43.39902" lon="2.3704">
        <ele>768.71</ele>
        <time>2017-06-08T11:31:47Z</time>
      </trkpt>
      <trkpt lat="43.39901" lon="2.37037">
        <ele>769.67</ele>
        <time>2017-06-08T11:32:25Z</time>
      </trkpt>
      <trkpt lat="43.399" lon="2.37035">
        <ele>770.63</ele>
        <time>2017-06-08T11:33:08Z</time>
      </trkpt>
      <trkpt lat="43.39903" lon="2.37038">
        <ele>771.11</ele>
        <time>2017-06-08T11:33:49Z</time>
      </trkpt>
      <trkpt lat="43.39901" lon="2.37039">
        <ele>769.67</ele>
        <time>2017-06-08T11:34:22Z</time>
      </trkpt>
      <trkpt lat="43.39902" lon="2.37037">
        <ele>772.56</ele>
        <time>2017-06-08T11:34:59Z</time>
      </trkpt>
      <trkpt lat="43.39902" lon="2.37038">
        <ele>774.96</ele>
        <time>2017-06-08T11:35:36Z</time>
      </trkpt>
      <trkpt lat="43.39904" lon="2.37036">
        <ele>774</ele>
        <time>2017-06-08T11:36:12Z</time>
      </trkpt>
      <trkpt lat="43.39905" lon="2.37035">
        <ele>769.19</ele>
        <time>2017-06-08T11:36:47Z</time>
      </trkpt>
      <trkpt lat="43.39902" lon="2.37037">
        <ele>770.15</ele>
        <time>2017-06-08T11:37:25Z</time>
      </trkpt>
      <trkpt lat="43.39896" lon="2.37038">
        <ele>773.52</ele>
        <time>2017-06-08T11:38:02Z</time>
      </trkpt>
      <trkpt lat="43.39903" lon="2.37036">
        <ele>767.75</ele>
        <time>2017-06-08T11:38:43Z</time>
      </trkpt>
      <trkpt lat="43.39902" lon="2.37037">
        <ele>766.31</ele>
        <time>2017-06-08T11:39:18Z</time>
      </trkpt>
      <trkpt lat="43.39901" lon="2.37037">
        <ele>769.19</ele>
        <time>2017-06-08T11:39:58Z</time>
      </trkpt>
      <trkpt lat="43.39899" lon="2.3704">
        <ele>773.04</ele>
        <time>2017-06-08T11:40:37Z</time>
      </trkpt>
      <trkpt lat="43.39897" lon="2.37044">
        <ele>775.92</ele>
        <time>2017-06-08T11:41:18Z</time>
      </trkpt>
      <trkpt lat="43.39897" lon="2.37042">
        <ele>776.4</ele>
        <time>2017-06-08T11:41:49Z</time>
      </trkpt>
      <trkpt lat="43.39899" lon="2.37039">
        <ele>777.36</ele>
        <time>2017-06-08T11:42:29Z</time>
      </trkpt>
      <trkpt lat="43.39902" lon="2.37038">
        <ele>772.08</ele>
        <time>2017-06-08T11:43:05Z</time>
      </trkpt>
      <trkpt lat="43.39904" lon="2.37041">
        <ele>772.56</ele>
        <time>2017-06-08T11:43:43Z</time>
      </trkpt>
      <trkpt lat="43.39901" lon="2.3704">
        <ele>769.67</ele>
        <time>2017-06-08T11:44:25Z</time>
      </trkpt>
      <trkpt lat="43.39902" lon="2.37037">
        <ele>772.08</ele>
        <time>2017-06-08T11:45:09Z</time>
      </trkpt>
      <trkpt lat="43.39905" lon="2.37034">
        <ele>772.56</ele>
        <time>2017-06-08T11:45:46Z</time>
      </trkpt>
      <trkpt lat="43.39903" lon="2.37039">
        <ele>771.6</ele>
        <time>2017-06-08T11:46:28Z</time>
      </trkpt>
      <trkpt lat="43.39899" lon="2.37041">
        <ele>772.08</ele>
        <time>2017-06-08T11:47:07Z</time>
      </trkpt>
      <trkpt lat="43.39903" lon="2.37037">
        <ele>770.63</ele>
        <time>2017-06-08T11:47:47Z</time>
      </trkpt>
      <trkpt lat="43.39903" lon="2.37036">
        <ele>771.6</ele>
        <time>2017-06-08T11:48:20Z</time>
      </trkpt>
      <trkpt lat="43.39903" lon="2.37034">
        <ele>774.96</ele>
        <time>2017-06-08T11:49:03Z</time>
      </trkpt>
      <trkpt lat="43.39904" lon="2.37035">
        <ele>774.96</ele>
        <time>2017-06-08T11:49:38Z</time>
      </trkpt>
      <trkpt lat="43.39907" lon="2.37036">
        <ele>772.08</ele>
        <time>2017-06-08T11:50:10Z</time>
      </trkpt>
      <trkpt lat="43.39908" lon="2.37032">
        <ele>771.6</ele>
        <time>2017-06-08T11:50:43Z</time>
      </trkpt>
      <trkpt lat="43.39907" lon="2.37029">
        <ele>772.08</ele>
        <time>2017-06-08T11:51:24Z</time>
      </trkpt>
      <trkpt lat="43.39903" lon="2.37035">
        <ele>774</ele>
        <time>2017-06-08T11:52:10Z</time>
      </trkpt>
      <trkpt lat="43.39902" lon="2.37035">
        <ele>769.67</ele>
        <time>2017-06-08T11:52:56Z</time>
      </trkpt>
      <trkpt lat="43.39902" lon="2.37035">
        <ele>770.63</ele>
        <time>2017-06-08T11:53:26Z</time>
      </trkpt>
      <trkpt lat="43.39903" lon="2.37037">
        <ele>771.11</ele>
        <time>2017-06-08T11:54:04Z</time>
      </trkpt>
      <trkpt lat="43.39904" lon="2.37038">
        <ele>770.63</ele>
        <time>2017-06-08T11:54:43Z</time>
      </trkpt>
      <trkpt lat="43.39903" lon="2.37039">
        <ele>768.71</ele>
        <time>2017-06-08T11:55:21Z</time>
      </trkpt>
      <trkpt lat="43.39902" lon="2.37042">
        <ele>771.11</ele>
        <time>2017-06-08T11:55:57Z</time>
      </trkpt>
      <trkpt lat="43.39901" lon="2.37043">
        <ele>777.36</ele>
        <time>2017-06-08T11:56:36Z</time>
      </trkpt>
      <trkpt lat="43.39901" lon="2.37045">
        <ele>776.88</ele>
        <time>2017-06-08T11:57:06Z</time>
      </trkpt>
      <trkpt lat="43.39903" lon="2.37042">
        <ele>777.36</ele>
        <time>2017-06-08T11:57:45Z</time>
      </trkpt>
      <trkpt lat="43.39903" lon="2.37039">
        <ele>772.56</ele>
        <time>2017-06-08T11:58:27Z</time>
      </trkpt>
      <trkpt lat="43.39904" lon="2.37039">
        <ele>771.6</ele>
        <time>2017-06-08T11:59:00Z</time>
      </trkpt>
      <trkpt lat="43.39902" lon="2.37037">
        <ele>773.04</ele>
        <time>2017-06-08T11:59:42Z</time>
      </trkpt>
      <trkpt lat="43.39907" lon="2.37034">
        <ele>768.23</ele>
        <time>2017-06-08T12:00:22Z</time>
      </trkpt>
      <trkpt lat="43.39906" lon="2.37039">
        <ele>772.56</ele>
        <time>2017-06-08T12:00:54Z</time>
      </trkpt>
      <trkpt lat="43.39903" lon="2.37043">
        <ele>776.88</ele>
        <time>2017-06-08T12:01:27Z</time>
      </trkpt>
      <trkpt lat="43.39901" lon="2.3704">
        <ele>777.36</ele>
        <time>2017-06-08T12:02:04Z</time>
      </trkpt>
      <trkpt lat="43.399" lon="2.37037">
        <ele>777.84</ele>
        <time>2017-06-08T12:02:42Z</time>
      </trkpt>
      <trkpt lat="43.399" lon="2.3704">
        <ele>781.69</ele>
        <time>2017-06-08T12:03:18Z</time>
      </trkpt>
      <trkpt lat="43.39899" lon="2.37039">
        <ele>780.73</ele>
        <time>2017-06-08T12:03:50Z</time>
      </trkpt>
      <trkpt lat="43.39899" lon="2.37037">
        <ele>778.32</ele>
        <time>2017-06-08T12:04:25Z</time>
      </trkpt>
      <trkpt lat="43.39899" lon="2.37042">
        <ele>778.81</ele>
        <time>2017-06-08T12:05:06Z</time>
      </trkpt>
      <trkpt lat="43.39899" lon="2.37041">
        <ele>779.29</ele>
        <time>2017-06-08T12:05:46Z</time>
      </trkpt>
      <trkpt lat="43.399" lon="2.3704">
        <ele>777.84</ele>
        <time>2017-06-08T12:06:23Z</time>
      </trkpt>
      <trkpt lat="43.399" lon="2.37041">
        <ele>780.73</ele>
        <time>2017-06-08T12:06:55Z</time>
      </trkpt>
      <trkpt lat="43.39902" lon="2.37041">
        <ele>777.36</ele>
        <time>2017-06-08T12:07:27Z</time>
      </trkpt>
      <trkpt lat="43.39904" lon="2.37038">
        <ele>774.48</ele>
        <time>2017-06-08T12:08:01Z</time>
      </trkpt>
      <trkpt lat="43.39903" lon="2.37037">
        <ele>775.92</ele>
        <time>2017-06-08T12:08:36Z</time>
      </trkpt>
      <trkpt lat="43.39903" lon="2.3704">
        <ele>776.88</ele>
        <time>2017-06-08T12:09:05Z</time>
      </trkpt>
      <trkpt lat="43.39901" lon="2.37043">
        <ele>777.36</ele>
        <time>2017-06-08T12:09:48Z</time>
      </trkpt>
      <trkpt lat="43.39901" lon="2.3704">
        <ele>778.81</ele>
        <time>2017-06-08T12:10:26Z</time>
      </trkpt>
      <trkpt lat="43.39902" lon="2.37038">
        <ele>779.77</ele>
        <time>2017-06-08T12:10:57Z</time>
      </trkpt>
      <trkpt lat="43.39901" lon="2.37042">
        <ele>775.92</ele>
        <time>2017-06-08T12:11:26Z</time>
      </trkpt>
      <trkpt lat="43.39902" lon="2.37042">
        <ele>776.4</ele>
        <time>2017-06-08T12:12:01Z</time>
      </trkpt>
      <trkpt lat="43.39903" lon="2.37043">
        <ele>775.44</ele>
        <time>2017-06-08T12:12:39Z</time>
      </trkpt>
      <trkpt lat="43.399" lon="2.37042">
        <ele>776.88</ele>
        <time>2017-06-08T12:13:17Z</time>
      </trkpt>
      <trkpt lat="43.39899" lon="2.37043">
        <ele>774.96</ele>
        <time>2017-06-08T12:13:47Z</time>
      </trkpt>
      <trkpt lat="43.399" lon="2.37042">
        <ele>774.96</ele>
        <time>2017-06-08T12:14:29Z</time>
      </trkpt>
      <trkpt lat="43.39901" lon="2.37043">
        <ele>774</ele>
        <time>2017-06-08T12:14:51Z</time>
      </trkpt>
      <trkpt lat="43.39901" lon="2.37043">
        <ele>773.04</ele>
        <time>2017-06-08T12:15:16Z</time>
      </trkpt>
      <trkpt lat="43.39902" lon="2.37043">
        <ele>773.04</ele>
        <time>2017-06-08T12:15:39Z</time>
      </trkpt>
      <trkpt lat="43.39901" lon="2.37043">
        <ele>773.04</ele>
        <time>2017-06-08T12:16:06Z</time>
      </trkpt>
      <trkpt lat="43.39902" lon="2.37043">
        <ele>772.08</ele>
        <time>2017-06-08T12:16:37Z</time>
      </trkpt>
      <trkpt lat="43.39904" lon="2.37043">
        <ele>774.96</ele>
        <time>2017-06-08T12:17:19Z</time>
      </trkpt>
      <trkpt lat="43.39904" lon="2.37045">
        <ele>773.52</ele>
        <time>2017-06-08T12:17:54Z</time>
      </trkpt>
      <trkpt lat="43.399" lon="2.37047">
        <ele>773.04</ele>
        <time>2017-06-08T12:18:34Z</time>
      </trkpt>
      <trkpt lat="43.39899" lon="2.37044">
        <ele>775.44</ele>
        <time>2017-06-08T12:19:10Z</time>
      </trkpt>
      <trkpt lat="43.399" lon="2.37043">
        <ele>776.4</ele>
        <time>2017-06-08T12:19:40Z</time>
      </trkpt>
      <trkpt lat="43.399" lon="2.3704">
        <ele>776.88</ele>
        <time>2017-06-08T12:20:18Z</time>
      </trkpt>
      <trkpt lat="43.39902" lon="2.37042">
        <ele>776.4</ele>
        <time>2017-06-08T12:20:50Z</time>
      </trkpt>
      <trkpt lat="43.39901" lon="2.37043">
        <ele>776.88</ele>
        <time>2017-06-08T12:21:20Z</time>
      </trkpt>
      <trkpt lat="43.39901" lon="2.37044">
        <ele>775.92</ele>
        <time>2017-06-08T12:21:55Z</time>
      </trkpt>
      <trkpt lat="43.39906" lon="2.3704">
        <ele>775.92</ele>
        <time>2017-06-08T12:22:38Z</time>
      </trkpt>
      <trkpt lat="43.39907" lon="2.37044">
        <ele>774</ele>
        <time>2017-06-08T12:23:08Z</time>
      </trkpt>
      <trkpt lat="43.39905" lon="2.3705">
        <ele>773.04</ele>
        <time>2017-06-08T12:23:27Z</time>
      </trkpt>
      <trkpt lat="43.39902" lon="2.37049">
        <ele>774.96</ele>
        <time>2017-06-08T12:23:40Z</time>
      </trkpt>
      <trkpt lat="43.39899" lon="2.37045">
        <ele>774.96</ele>
        <time>2017-06-08T12:23:55Z</time>
      </trkpt>
      <trkpt lat="43.3989" lon="2.37048">
        <ele>774.96</ele>
        <time>2017-06-08T12:24:12Z</time>
      </trkpt>
      <trkpt lat="43.39888" lon="2.3705">
        <ele>772.56</ele>
        <time>2017-06-08T12:24:25Z</time>
      </trkpt>
      <trkpt lat="43.39888" lon="2.3705">
        <ele>770.15</ele>
        <time>2017-06-08T12:24:51Z</time>
      </trkpt>
      <trkpt lat="43.39889" lon="2.37049">
        <ele>766.79</ele>
        <time>2017-06-08T12:25:04Z</time>
      </trkpt>
      <trkpt lat="43.39887" lon="2.37048">
        <ele>768.71</ele>
        <time>2017-06-08T12:25:16Z</time>
      </trkpt>
      <trkpt lat="43.39884" lon="2.37058">
        <ele>767.27</ele>
        <time>2017-06-08T12:25:35Z</time>
      </trkpt>
      <trkpt lat="43.39878" lon="2.37066">
        <ele>763.9</ele>
        <time>2017-06-08T12:25:49Z</time>
      </trkpt>
      <trkpt lat="43.39873" lon="2.37068">
        <ele>760.54</ele>
        <time>2017-06-08T12:26:02Z</time>
      </trkpt>
      <trkpt lat="43.39873" lon="2.37071">
        <ele>758.62</ele>
        <time>2017-06-08T12:26:15Z</time>
      </trkpt>
      <trkpt lat="43.39872" lon="2.37076">
        <ele>757.66</ele>
        <time>2017-06-08T12:26:30Z</time>
      </trkpt>
      <trkpt lat="43.39872" lon="2.37073">
        <ele>759.58</ele>
        <time>2017-06-08T12:26:53Z</time>
      </trkpt>
      <trkpt lat="43.39871" lon="2.37078">
        <ele>758.62</ele>
        <time>2017-06-08T12:27:20Z</time>
      </trkpt>
      <trkpt lat="43.39872" lon="2.37077">
        <ele>759.58</ele>
        <time>2017-06-08T12:27:40Z</time>
      </trkpt>
      <trkpt lat="43.39872" lon="2.37078">
        <ele>760.54</ele>
        <time>2017-06-08T12:28:08Z</time>
      </trkpt>
      <trkpt lat="43.39873" lon="2.37076">
        <ele>761.5</ele>
        <time>2017-06-08T12:28:40Z</time>
      </trkpt>
      <trkpt lat="43.39874" lon="2.37079">
        <ele>761.02</ele>
        <time>2017-06-08T12:29:10Z</time>
      </trkpt>
      <trkpt lat="43.39877" lon="2.37082">
        <ele>760.06</ele>
        <time>2017-06-08T12:29:33Z</time>
      </trkpt>
      <trkpt lat="43.39876" lon="2.37083">
        <ele>761.02</ele>
        <time>2017-06-08T12:29:54Z</time>
      </trkpt>
      <trkpt lat="43.39899" lon="2.37092">
        <ele>759.58</ele>
        <time>2017-06-08T12:30:13Z</time>
      </trkpt>
      <trkpt lat="43.39918" lon="2.37111">
        <ele>757.66</ele>
        <time>2017-06-08T12:30:33Z</time>
      </trkpt>
      <trkpt lat="43.39931" lon="2.37138">
        <ele>754.29</ele>
        <time>2017-06-08T12:30:54Z</time>
      </trkpt>
      <trkpt lat="43.39949" lon="2.37162">
        <ele>754.77</ele>
        <time>2017-06-08T12:31:12Z</time>
      </trkpt>
      <trkpt lat="43.39959" lon="2.37168">
        <ele>754.77</ele>
        <time>2017-06-08T12:31:21Z</time>
      </trkpt>
      <trkpt lat="43.39977" lon="2.37168">
        <ele>751.41</ele>
        <time>2017-06-08T12:31:38Z</time>
      </trkpt>
      <trkpt lat="43.39996" lon="2.37171">
        <ele>747.56</ele>
        <time>2017-06-08T12:31:52Z</time>
      </trkpt>
      <trkpt lat="43.40011" lon="2.37182">
        <ele>745.16</ele>
        <time>2017-06-08T12:32:06Z</time>
      </trkpt>
      <trkpt lat="43.40025" lon="2.37187">
        <ele>739.39</ele>
        <time>2017-06-08T12:32:20Z</time>
      </trkpt>
      <trkpt lat="43.40042" lon="2.37198">
        <ele>738.91</ele>
        <time>2017-06-08T12:32:37Z</time>
      </trkpt>
      <trkpt lat="43.40051" lon="2.37214">
        <ele>737.95</ele>
        <time>2017-06-08T12:32:51Z</time>
      </trkpt>
      <trkpt lat="43.4006" lon="2.37234">
        <ele>739.39</ele>
        <time>2017-06-08T12:33:05Z</time>
      </trkpt>
      <trkpt lat="43.40066" lon="2.37247">
        <ele>736.99</ele>
        <time>2017-06-08T12:33:15Z</time>
      </trkpt>
      <trkpt lat="43.40083" lon="2.37264">
        <ele>735.07</ele>
        <time>2017-06-08T12:33:32Z</time>
      </trkpt>
      <trkpt lat="43.40093" lon="2.37275">
        <ele>732.18</ele>
        <time>2017-06-08T12:33:46Z</time>
      </trkpt>
      <trkpt lat="43.40095" lon="2.37283">
        <ele>732.66</ele>
        <time>2017-06-08T12:33:53Z</time>
      </trkpt>
      <trkpt lat="43.40093" lon="2.37291">
        <ele>735.55</ele>
        <time>2017-06-08T12:34:10Z</time>
      </trkpt>
      <trkpt lat="43.40088" lon="2.37294">
        <ele>736.51</ele>
        <time>2017-06-08T12:34:25Z</time>
      </trkpt>
      <trkpt lat="43.40081" lon="2.37302">
        <ele>739.39</ele>
        <time>2017-06-08T12:34:45Z</time>
      </trkpt>
      <trkpt lat="43.40077" lon="2.37307">
        <ele>738.91</ele>
        <time>2017-06-08T12:34:50Z</time>
      </trkpt>
      <trkpt lat="43.40066" lon="2.37323">
        <ele>735.07</ele>
        <time>2017-06-08T12:35:07Z</time>
      </trkpt>
      <trkpt lat="43.40058" lon="2.37335">
        <ele>729.3</ele>
        <time>2017-06-08T12:35:23Z</time>
      </trkpt>
      <trkpt lat="43.4005" lon="2.37351">
        <ele>722.09</ele>
        <time>2017-06-08T12:35:41Z</time>
      </trkpt>
      <trkpt lat="43.4004" lon="2.37366">
        <ele>719.2</ele>
        <time>2017-06-08T12:35:56Z</time>
      </trkpt>
      <trkpt lat="43.40036" lon="2.37373">
        <ele>717.28</ele>
        <time>2017-06-08T12:36:04Z</time>
      </trkpt>
      <trkpt lat="43.40025" lon="2.37392">
        <ele>717.28</ele>
        <time>2017-06-08T12:36:21Z</time>
      </trkpt>
      <trkpt lat="43.40018" lon="2.37408">
        <ele>711.51</ele>
        <time>2017-06-08T12:36:39Z</time>
      </trkpt>
      <trkpt lat="43.40008" lon="2.37425">
        <ele>710.07</ele>
        <time>2017-06-08T12:36:55Z</time>
      </trkpt>
      <trkpt lat="43.4" lon="2.37442">
        <ele>711.03</ele>
        <time>2017-06-08T12:37:10Z</time>
      </trkpt>
      <trkpt lat="43.39991" lon="2.37463">
        <ele>711.99</ele>
        <time>2017-06-08T12:37:28Z</time>
      </trkpt>
      <trkpt lat="43.39982" lon="2.37482">
        <ele>709.59</ele>
        <time>2017-06-08T12:37:45Z</time>
      </trkpt>
      <trkpt lat="43.39969" lon="2.37499">
        <ele>710.55</ele>
        <time>2017-06-08T12:37:59Z</time>
      </trkpt>
      <trkpt lat="43.39959" lon="2.37515">
        <ele>711.03</ele>
        <time>2017-06-08T12:38:14Z</time>
      </trkpt>
      <trkpt lat="43.39954" lon="2.3753">
        <ele>710.07</ele>
        <time>2017-06-08T12:38:27Z</time>
      </trkpt>
      <trkpt lat="43.39948" lon="2.37536">
        <ele>708.63</ele>
        <time>2017-06-08T12:38:40Z</time>
      </trkpt>
      <trkpt lat="43.39949" lon="2.37525">
        <ele>702.86</ele>
        <time>2017-06-08T12:38:54Z</time>
      </trkpt>
      <trkpt lat="43.3995" lon="2.37508">
        <ele>698.05</ele>
        <time>2017-06-08T12:39:09Z</time>
      </trkpt>
      <trkpt lat="43.39952" lon="2.37488">
        <ele>697.09</ele>
        <time>2017-06-08T12:39:24Z</time>
      </trkpt>
      <trkpt lat="43.39954" lon="2.3747">
        <ele>699.02</ele>
        <time>2017-06-08T12:39:40Z</time>
      </trkpt>
      <trkpt lat="43.39957" lon="2.37459">
        <ele>700.46</ele>
        <time>2017-06-08T12:39:56Z</time>
      </trkpt>
      <trkpt lat="43.39953" lon="2.37455">
        <ele>707.67</ele>
        <time>2017-06-08T12:40:16Z</time>
      </trkpt>
      <trkpt lat="43.39952" lon="2.37454">
        <ele>709.11</ele>
        <time>2017-06-08T12:40:40Z</time>
      </trkpt>
      <trkpt lat="43.39951" lon="2.3745">
        <ele>711.51</ele>
        <time>2017-06-08T12:40:57Z</time>
      </trkpt>
      <trkpt lat="43.39949" lon="2.37451">
        <ele>712.47</ele>
        <time>2017-06-08T12:41:31Z</time>
      </trkpt>
      <trkpt lat="43.39948" lon="2.37464">
        <ele>711.03</ele>
        <time>2017-06-08T12:41:55Z</time>
      </trkpt>
      <trkpt lat="43.3994" lon="2.37481">
        <ele>707.67</ele>
        <time>2017-06-08T12:42:08Z</time>
      </trkpt>
      <trkpt lat="43.39934" lon="2.37496">
        <ele>701.9</ele>
        <time>2017-06-08T12:42:22Z</time>
      </trkpt>
      <trkpt lat="43.39933" lon="2.37501">
        <ele>700.94</ele>
        <time>2017-06-08T12:42:26Z</time>
      </trkpt>
      <trkpt lat="43.39925" lon="2.3753">
        <ele>699.5</ele>
        <time>2017-06-08T12:42:44Z</time>
      </trkpt>
      <trkpt lat="43.39921" lon="2.37555">
        <ele>697.57</ele>
        <time>2017-06-08T12:42:59Z</time>
      </trkpt>
      <trkpt lat="43.39918" lon="2.37577">
        <ele>693.73</ele>
        <time>2017-06-08T12:43:14Z</time>
      </trkpt>
      <trkpt lat="43.39915" lon="2.37601">
        <ele>692.77</ele>
        <time>2017-06-08T12:43:28Z</time>
      </trkpt>
      <trkpt lat="43.39911" lon="2.37632">
        <ele>693.73</ele>
        <time>2017-06-08T12:43:47Z</time>
      </trkpt>
      <trkpt lat="43.3991" lon="2.3766">
        <ele>697.09</ele>
        <time>2017-06-08T12:44:03Z</time>
      </trkpt>
      <trkpt lat="43.39912" lon="2.37679">
        <ele>695.17</ele>
        <time>2017-06-08T12:44:18Z</time>
      </trkpt>
      <trkpt lat="43.39914" lon="2.37702">
        <ele>695.65</ele>
        <time>2017-06-08T12:44:33Z</time>
      </trkpt>
      <trkpt lat="43.3991" lon="2.37729">
        <ele>698.05</ele>
        <time>2017-06-08T12:44:50Z</time>
      </trkpt>
      <trkpt lat="43.39907" lon="2.37748">
        <ele>698.53</ele>
        <time>2017-06-08T12:45:03Z</time>
      </trkpt>
      <trkpt lat="43.39901" lon="2.37767">
        <ele>700.46</ele>
        <time>2017-06-08T12:45:18Z</time>
      </trkpt>
      <trkpt lat="43.39889" lon="2.37787">
        <ele>700.46</ele>
        <time>2017-06-08T12:45:34Z</time>
      </trkpt>
      <trkpt lat="43.3988" lon="2.37804">
        <ele>699.98</ele>
        <time>2017-06-08T12:45:49Z</time>
      </trkpt>
      <trkpt lat="43.3987" lon="2.3782">
        <ele>700.46</ele>
        <time>2017-06-08T12:46:04Z</time>
      </trkpt>
      <trkpt lat="43.39866" lon="2.37825">
        <ele>699.98</ele>
        <time>2017-06-08T12:46:10Z</time>
      </trkpt>
      <trkpt lat="43.3986" lon="2.37833">
        <ele>696.61</ele>
        <time>2017-06-08T12:46:25Z</time>
      </trkpt>
      <trkpt lat="43.39853" lon="2.37841">
        <ele>694.69</ele>
        <time>2017-06-08T12:46:38Z</time>
      </trkpt>
      <trkpt lat="43.39843" lon="2.37861">
        <ele>693.25</ele>
        <time>2017-06-08T12:46:53Z</time>
      </trkpt>
      <trkpt lat="43.39836" lon="2.37884">
        <ele>692.29</ele>
        <time>2017-06-08T12:47:08Z</time>
      </trkpt>
      <trkpt lat="43.39829" lon="2.37903">
        <ele>693.73</ele>
        <time>2017-06-08T12:47:23Z</time>
      </trkpt>
      <trkpt lat="43.39822" lon="2.37921">
        <ele>692.29</ele>
        <time>2017-06-08T12:47:40Z</time>
      </trkpt>
      <trkpt lat="43.39817" lon="2.37943">
        <ele>691.33</ele>
        <time>2017-06-08T12:47:57Z</time>
      </trkpt>
      <trkpt lat="43.39812" lon="2.37961">
        <ele>690.84</ele>
        <time>2017-06-08T12:48:12Z</time>
      </trkpt>
      <trkpt lat="43.39811" lon="2.37967">
        <ele>690.36</ele>
        <time>2017-06-08T12:48:17Z</time>
      </trkpt>
      <trkpt lat="43.39809" lon="2.37989">
        <ele>689.4</ele>
        <time>2017-06-08T12:48:35Z</time>
      </trkpt>
      <trkpt lat="43.39809" lon="2.38007">
        <ele>686.52</ele>
        <time>2017-06-08T12:48:53Z</time>
      </trkpt>
      <trkpt lat="43.39811" lon="2.38024">
        <ele>685.56</ele>
        <time>2017-06-08T12:49:09Z</time>
      </trkpt>
      <trkpt lat="43.39821" lon="2.38037">
        <ele>682.19</ele>
        <time>2017-06-08T12:49:26Z</time>
      </trkpt>
      <trkpt lat="43.39829" lon="2.38047">
        <ele>682.19</ele>
        <time>2017-06-08T12:49:41Z</time>
      </trkpt>
      <trkpt lat="43.39836" lon="2.38058">
        <ele>680.27</ele>
        <time>2017-06-08T12:49:56Z</time>
      </trkpt>
      <trkpt lat="43.3984" lon="2.38066">
        <ele>678.83</ele>
        <time>2017-06-08T12:50:08Z</time>
      </trkpt>
      <trkpt lat="43.39843" lon="2.38079">
        <ele>676.91</ele>
        <time>2017-06-08T12:50:23Z</time>
      </trkpt>
      <trkpt lat="43.39846" lon="2.3809">
        <ele>676.42</ele>
        <time>2017-06-08T12:50:37Z</time>
      </trkpt>
      <trkpt lat="43.3985" lon="2.381">
        <ele>674.5</ele>
        <time>2017-06-08T12:50:53Z</time>
      </trkpt>
      <trkpt lat="43.39855" lon="2.38104">
        <ele>673.06</ele>
        <time>2017-06-08T12:51:07Z</time>
      </trkpt>
      <trkpt lat="43.39859" lon="2.38107">
        <ele>672.58</ele>
        <time>2017-06-08T12:51:23Z</time>
      </trkpt>
      <trkpt lat="43.39856" lon="2.38104">
        <ele>672.58</ele>
        <time>2017-06-08T12:51:35Z</time>
      </trkpt>
      <trkpt lat="43.39853" lon="2.38105">
        <ele>677.87</ele>
        <time>2017-06-08T12:52:00Z</time>
      </trkpt>
      <trkpt lat="43.39857" lon="2.3811">
        <ele>679.31</ele>
        <time>2017-06-08T12:52:14Z</time>
      </trkpt>
      <trkpt lat="43.39854" lon="2.38112">
        <ele>681.71</ele>
        <time>2017-06-08T12:52:29Z</time>
      </trkpt>
      <trkpt lat="43.39845" lon="2.38117">
        <ele>685.08</ele>
        <time>2017-06-08T12:52:38Z</time>
      </trkpt>
      <trkpt lat="43.3983" lon="2.38131">
        <ele>688.44</ele>
        <time>2017-06-08T12:52:54Z</time>
      </trkpt>
      <trkpt lat="43.39821" lon="2.38142">
        <ele>690.84</ele>
        <time>2017-06-08T12:53:10Z</time>
      </trkpt>
      <trkpt lat="43.39812" lon="2.38156">
        <ele>690.36</ele>
        <time>2017-06-08T12:53:24Z</time>
      </trkpt>
      <trkpt lat="43.398" lon="2.38172">
        <ele>687.48</ele>
        <time>2017-06-08T12:53:39Z</time>
      </trkpt>
      <trkpt lat="43.39792" lon="2.38183">
        <ele>682.19</ele>
        <time>2017-06-08T12:53:53Z</time>
      </trkpt>
      <trkpt lat="43.39784" lon="2.3819">
        <ele>677.87</ele>
        <time>2017-06-08T12:54:08Z</time>
      </trkpt>
      <trkpt lat="43.39774" lon="2.38201">
        <ele>680.27</ele>
        <time>2017-06-08T12:54:24Z</time>
      </trkpt>
      <trkpt lat="43.39767" lon="2.38208">
        <ele>678.35</ele>
        <time>2017-06-08T12:54:41Z</time>
      </trkpt>
      <trkpt lat="43.3976" lon="2.38211">
        <ele>676.91</ele>
        <time>2017-06-08T12:54:59Z</time>
      </trkpt>
      <trkpt lat="43.39753" lon="2.38223">
        <ele>674.02</ele>
        <time>2017-06-08T12:55:15Z</time>
      </trkpt>
      <trkpt lat="43.39744" lon="2.38226">
        <ele>670.66</ele>
        <time>2017-06-08T12:55:31Z</time>
      </trkpt>
      <trkpt lat="43.3973" lon="2.38233">
        <ele>671.14</ele>
        <time>2017-06-08T12:55:46Z</time>
      </trkpt>
      <trkpt lat="43.39725" lon="2.3824">
        <ele>672.1</ele>
        <time>2017-06-08T12:56:04Z</time>
      </trkpt>
      <trkpt lat="43.39727" lon="2.38239">
        <ele>671.14</ele>
        <time>2017-06-08T12:56:25Z</time>
      </trkpt>
      <trkpt lat="43.39729" lon="2.38237">
        <ele>672.1</ele>
        <time>2017-06-08T12:56:51Z</time>
      </trkpt>
      <trkpt lat="43.39728" lon="2.38238">
        <ele>673.06</ele>
        <time>2017-06-08T12:57:13Z</time>
      </trkpt>
      <trkpt lat="43.39729" lon="2.3824">
        <ele>672.1</ele>
        <time>2017-06-08T12:57:39Z</time>
      </trkpt>
      <trkpt lat="43.39731" lon="2.38239">
        <ele>673.06</ele>
        <time>2017-06-08T12:57:59Z</time>
      </trkpt>
      <trkpt lat="43.39728" lon="2.3823">
        <ele>676.42</ele>
        <time>2017-06-08T12:58:24Z</time>
      </trkpt>
      <trkpt lat="43.39725" lon="2.38234">
        <ele>670.66</ele>
        <time>2017-06-08T12:58:43Z</time>
      </trkpt>
      <trkpt lat="43.39723" lon="2.38237">
        <ele>670.66</ele>
        <time>2017-06-08T12:59:08Z</time>
      </trkpt>
      <trkpt lat="43.39727" lon="2.38242">
        <ele>677.87</ele>
        <time>2017-06-08T12:59:38Z</time>
      </trkpt>
      <trkpt lat="43.39724" lon="2.38239">
        <ele>679.79</ele>
        <time>2017-06-08T13:00:11Z</time>
      </trkpt>
      <trkpt lat="43.39722" lon="2.38238">
        <ele>682.19</ele>
        <time>2017-06-08T13:00:43Z</time>
      </trkpt>
      <trkpt lat="43.39724" lon="2.38237">
        <ele>684.12</ele>
        <time>2017-06-08T13:01:19Z</time>
      </trkpt>
      <trkpt lat="43.39726" lon="2.38236">
        <ele>682.67</ele>
        <time>2017-06-08T13:01:47Z</time>
      </trkpt>
      <trkpt lat="43.39726" lon="2.38238">
        <ele>676.42</ele>
        <time>2017-06-08T13:02:15Z</time>
      </trkpt>
      <trkpt lat="43.39718" lon="2.3824">
        <ele>675.94</ele>
        <time>2017-06-08T13:02:45Z</time>
      </trkpt>
      <trkpt lat="43.39717" lon="2.38244">
        <ele>674.5</ele>
        <time>2017-06-08T13:03:10Z</time>
      </trkpt>
      <trkpt lat="43.39722" lon="2.38242">
        <ele>676.42</ele>
        <time>2017-06-08T13:03:38Z</time>
      </trkpt>
      <trkpt lat="43.39719" lon="2.38237">
        <ele>685.08</ele>
        <time>2017-06-08T13:03:55Z</time>
      </trkpt>
      <trkpt lat="43.39712" lon="2.38235">
        <ele>684.6</ele>
        <time>2017-06-08T13:04:17Z</time>
      </trkpt>
      <trkpt lat="43.39703" lon="2.3824">
        <ele>683.63</ele>
        <time>2017-06-08T13:04:32Z</time>
      </trkpt>
      <trkpt lat="43.39693" lon="2.38247">
        <ele>682.19</ele>
        <time>2017-06-08T13:04:44Z</time>
      </trkpt>
      <trkpt lat="43.39678" lon="2.38258">
        <ele>679.31</ele>
        <time>2017-06-08T13:04:59Z</time>
      </trkpt>
      <trkpt lat="43.39666" lon="2.38264">
        <ele>679.79</ele>
        <time>2017-06-08T13:05:08Z</time>
      </trkpt>
      <trkpt lat="43.39658" lon="2.38265">
        <ele>675.94</ele>
        <time>2017-06-08T13:05:20Z</time>
      </trkpt>
      <trkpt lat="43.39635" lon="2.38274">
        <ele>672.1</ele>
        <time>2017-06-08T13:05:35Z</time>
      </trkpt>
      <trkpt lat="43.39629" lon="2.38277">
        <ele>671.62</ele>
        <time>2017-06-08T13:05:43Z</time>
      </trkpt>
      <trkpt lat="43.39628" lon="2.38279">
        <ele>671.62</ele>
        <time>2017-06-08T13:05:44Z</time>
      </trkpt>
      <trkpt lat="43.39622" lon="2.38293">
        <ele>669.22</ele>
        <time>2017-06-08T13:05:52Z</time>
      </trkpt>
      <trkpt lat="43.39619" lon="2.38301">
        <ele>664.41</ele>
        <time>2017-06-08T13:06:03Z</time>
      </trkpt>
      <trkpt lat="43.39619" lon="2.38306">
        <ele>662.01</ele>
        <time>2017-06-08T13:06:19Z</time>
      </trkpt>
      <trkpt lat="43.3962" lon="2.38302">
        <ele>661.52</ele>
        <time>2017-06-08T13:06:44Z</time>
      </trkpt>
      <trkpt lat="43.39621" lon="2.38301">
        <ele>661.52</ele>
        <time>2017-06-08T13:07:01Z</time>
      </trkpt>
      <trkpt lat="43.39617" lon="2.38306">
        <ele>662.49</ele>
        <time>2017-06-08T13:07:24Z</time>
      </trkpt>
      <trkpt lat="43.39615" lon="2.38326">
        <ele>660.56</ele>
        <time>2017-06-08T13:07:40Z</time>
      </trkpt>
      <trkpt lat="43.39612" lon="2.38341">
        <ele>659.6</ele>
        <time>2017-06-08T13:07:55Z</time>
      </trkpt>
      <trkpt lat="43.39608" lon="2.38337">
        <ele>664.41</ele>
        <time>2017-06-08T13:08:22Z</time>
      </trkpt>
      <trkpt lat="43.3961" lon="2.38341">
        <ele>668.25</ele>
        <time>2017-06-08T13:08:42Z</time>
      </trkpt>
      <trkpt lat="43.39613" lon="2.38337">
        <ele>670.66</ele>
        <time>2017-06-08T13:09:03Z</time>
      </trkpt>
      <trkpt lat="43.39609" lon="2.38333">
        <ele>671.14</ele>
        <time>2017-06-08T13:09:39Z</time>
      </trkpt>
      <trkpt lat="43.39608" lon="2.38343">
        <ele>669.7</ele>
        <time>2017-06-08T13:09:49Z</time>
      </trkpt>
      <trkpt lat="43.396" lon="2.38365">
        <ele>672.58</ele>
        <time>2017-06-08T13:10:06Z</time>
      </trkpt>
      <trkpt lat="43.39591" lon="2.38386">
        <ele>672.58</ele>
        <time>2017-06-08T13:10:22Z</time>
      </trkpt>
      <trkpt lat="43.39587" lon="2.38384">
        <ele>667.77</ele>
        <time>2017-06-08T13:10:42Z</time>
      </trkpt>
      <trkpt lat="43.39594" lon="2.38382">
        <ele>664.41</ele>
        <time>2017-06-08T13:10:58Z</time>
      </trkpt>
      <trkpt lat="43.39601" lon="2.38362">
        <ele>663.93</ele>
        <time>2017-06-08T13:11:12Z</time>
      </trkpt>
      <trkpt lat="43.39601" lon="2.3836">
        <ele>664.41</ele>
        <time>2017-06-08T13:11:13Z</time>
      </trkpt>
      <trkpt lat="43.39608" lon="2.38343">
        <ele>664.41</ele>
        <time>2017-06-08T13:11:29Z</time>
      </trkpt>
      <trkpt lat="43.39611" lon="2.38344">
        <ele>662.49</ele>
        <time>2017-06-08T13:11:41Z</time>
      </trkpt>
      <trkpt lat="43.3961" lon="2.38346">
        <ele>662.49</ele>
        <time>2017-06-08T13:11:42Z</time>
      </trkpt>
      <trkpt lat="43.39602" lon="2.3837">
        <ele>659.6</ele>
        <time>2017-06-08T13:11:56Z</time>
      </trkpt>
      <trkpt lat="43.39592" lon="2.38388">
        <ele>661.04</ele>
        <time>2017-06-08T13:12:10Z</time>
      </trkpt>
      <trkpt lat="43.39592" lon="2.38383">
        <ele>656.24</ele>
        <time>2017-06-08T13:12:26Z</time>
      </trkpt>
      <trkpt lat="43.39591" lon="2.3838">
        <ele>657.68</ele>
        <time>2017-06-08T13:12:44Z</time>
      </trkpt>
      <trkpt lat="43.39593" lon="2.38376">
        <ele>661.04</ele>
        <time>2017-06-08T13:13:15Z</time>
      </trkpt>
      <trkpt lat="43.39594" lon="2.38377">
        <ele>662.49</ele>
        <time>2017-06-08T13:13:40Z</time>
      </trkpt>
      <trkpt lat="43.39592" lon="2.38373">
        <ele>663.93</ele>
        <time>2017-06-08T13:14:12Z</time>
      </trkpt>
      <trkpt lat="43.39592" lon="2.38374">
        <ele>661.52</ele>
        <time>2017-06-08T13:14:45Z</time>
      </trkpt>
      <trkpt lat="43.39591" lon="2.38373">
        <ele>662.49</ele>
        <time>2017-06-08T13:15:13Z</time>
      </trkpt>
      <trkpt lat="43.39589" lon="2.38373">
        <ele>663.45</ele>
        <time>2017-06-08T13:15:42Z</time>
      </trkpt>
      <trkpt lat="43.39591" lon="2.38369">
        <ele>664.41</ele>
        <time>2017-06-08T13:16:08Z</time>
      </trkpt>
      <trkpt lat="43.3959" lon="2.38374">
        <ele>662.49</ele>
        <time>2017-06-08T13:16:36Z</time>
      </trkpt>
      <trkpt lat="43.39589" lon="2.38373">
        <ele>661.04</ele>
        <time>2017-06-08T13:17:03Z</time>
      </trkpt>
      <trkpt lat="43.3959" lon="2.38371">
        <ele>661.04</ele>
        <time>2017-06-08T13:17:21Z</time>
      </trkpt>
      <trkpt lat="43.39594" lon="2.38359">
        <ele>658.16</ele>
        <time>2017-06-08T13:17:39Z</time>
      </trkpt>
      <trkpt lat="43.39594" lon="2.38358">
        <ele>657.68</ele>
        <time>2017-06-08T13:17:40Z</time>
      </trkpt>
      <trkpt lat="43.39595" lon="2.38357">
        <ele>657.68</ele>
        <time>2017-06-08T13:17:41Z</time>
      </trkpt>
      <trkpt lat="43.39589" lon="2.38349">
        <ele>655.28</ele>
        <time>2017-06-08T13:17:56Z</time>
      </trkpt>
      <trkpt lat="43.39579" lon="2.38366">
        <ele>653.35</ele>
        <time>2017-06-08T13:18:13Z</time>
      </trkpt>
      <trkpt lat="43.3957" lon="2.38379">
        <ele>651.91</ele>
        <time>2017-06-08T13:18:29Z</time>
      </trkpt>
      <trkpt lat="43.39559" lon="2.38384">
        <ele>651.91</ele>
        <time>2017-06-08T13:18:49Z</time>
      </trkpt>
      <trkpt lat="43.3955" lon="2.38391">
        <ele>651.91</ele>
        <time>2017-06-08T13:18:59Z</time>
      </trkpt>
      <trkpt lat="43.39539" lon="2.38401">
        <ele>650.47</ele>
        <time>2017-06-08T13:19:11Z</time>
      </trkpt>
      <trkpt lat="43.39529" lon="2.38415">
        <ele>650.95</ele>
        <time>2017-06-08T13:19:25Z</time>
      </trkpt>
      <trkpt lat="43.3952" lon="2.38427">
        <ele>648.07</ele>
        <time>2017-06-08T13:19:37Z</time>
      </trkpt>
      <trkpt lat="43.39509" lon="2.38443">
        <ele>644.7</ele>
        <time>2017-06-08T13:19:52Z</time>
      </trkpt>
      <trkpt lat="43.39501" lon="2.38455">
        <ele>643.26</ele>
        <time>2017-06-08T13:20:05Z</time>
      </trkpt>
      <trkpt lat="43.3949" lon="2.3847">
        <ele>640.38</ele>
        <time>2017-06-08T13:20:21Z</time>
      </trkpt>
      <trkpt lat="43.39485" lon="2.38482">
        <ele>640.86</ele>
        <time>2017-06-08T13:20:38Z</time>
      </trkpt>
      <trkpt lat="43.39477" lon="2.38493">
        <ele>638.93</ele>
        <time>2017-06-08T13:20:52Z</time>
      </trkpt>
      <trkpt lat="43.3947" lon="2.38512">
        <ele>635.57</ele>
        <time>2017-06-08T13:21:08Z</time>
      </trkpt>
      <trkpt lat="43.39464" lon="2.38529">
        <ele>634.13</ele>
        <time>2017-06-08T13:21:22Z</time>
      </trkpt>
      <trkpt lat="43.39459" lon="2.38538">
        <ele>629.8</ele>
        <time>2017-06-08T13:21:38Z</time>
      </trkpt>
      <trkpt lat="43.39453" lon="2.38551">
        <ele>625.47</ele>
        <time>2017-06-08T13:21:55Z</time>
      </trkpt>
      <trkpt lat="43.39449" lon="2.38562">
        <ele>625.47</ele>
        <time>2017-06-08T13:22:13Z</time>
      </trkpt>
      <trkpt lat="43.39445" lon="2.38567">
        <ele>624.51</ele>
        <time>2017-06-08T13:22:39Z</time>
      </trkpt>
      <trkpt lat="43.39444" lon="2.38571">
        <ele>630.76</ele>
        <time>2017-06-08T13:23:05Z</time>
      </trkpt>
      <trkpt lat="43.39444" lon="2.38572">
        <ele>633.17</ele>
        <time>2017-06-08T13:23:35Z</time>
      </trkpt>
      <trkpt lat="43.39445" lon="2.38571">
        <ele>637.01</ele>
        <time>2017-06-08T13:23:59Z</time>
      </trkpt>
      <trkpt lat="43.39443" lon="2.38571">
        <ele>638.45</ele>
        <time>2017-06-08T13:24:19Z</time>
      </trkpt>
      <trkpt lat="43.39441" lon="2.38576">
        <ele>637.01</ele>
        <time>2017-06-08T13:24:38Z</time>
      </trkpt>
      <trkpt lat="43.39431" lon="2.38588">
        <ele>636.05</ele>
        <time>2017-06-08T13:24:54Z</time>
      </trkpt>
      <trkpt lat="43.39423" lon="2.38595">
        <ele>629.8</ele>
        <time>2017-06-08T13:25:10Z</time>
      </trkpt>
      <trkpt lat="43.39411" lon="2.38602">
        <ele>623.07</ele>
        <time>2017-06-08T13:25:27Z</time>
      </trkpt>
      <trkpt lat="43.39402" lon="2.38611">
        <ele>620.67</ele>
        <time>2017-06-08T13:25:42Z</time>
      </trkpt>
      <trkpt lat="43.3939" lon="2.38625">
        <ele>616.34</ele>
        <time>2017-06-08T13:25:58Z</time>
      </trkpt>
      <trkpt lat="43.3938" lon="2.38637">
        <ele>613.46</ele>
        <time>2017-06-08T13:26:14Z</time>
      </trkpt>
      <trkpt lat="43.39366" lon="2.38649">
        <ele>610.09</ele>
        <time>2017-06-08T13:26:28Z</time>
      </trkpt>
      <trkpt lat="43.39355" lon="2.38665">
        <ele>607.69</ele>
        <time>2017-06-08T13:26:45Z</time>
      </trkpt>
      <trkpt lat="43.39342" lon="2.38675">
        <ele>601.44</ele>
        <time>2017-06-08T13:27:02Z</time>
      </trkpt>
      <trkpt lat="43.3933" lon="2.3868">
        <ele>598.08</ele>
        <time>2017-06-08T13:27:16Z</time>
      </trkpt>
      <trkpt lat="43.39328" lon="2.38681">
        <ele>597.6</ele>
        <time>2017-06-08T13:27:18Z</time>
      </trkpt>
      <trkpt lat="43.39314" lon="2.38683">
        <ele>596.15</ele>
        <time>2017-06-08T13:27:32Z</time>
      </trkpt>
      <trkpt lat="43.39301" lon="2.38684">
        <ele>595.67</ele>
        <time>2017-06-08T13:27:49Z</time>
      </trkpt>
      <trkpt lat="43.39288" lon="2.38684">
        <ele>595.19</ele>
        <time>2017-06-08T13:28:05Z</time>
      </trkpt>
      <trkpt lat="43.39279" lon="2.38685">
        <ele>592.79</ele>
        <time>2017-06-08T13:28:20Z</time>
      </trkpt>
      <trkpt lat="43.3927" lon="2.38687">
        <ele>590.39</ele>
        <time>2017-06-08T13:28:37Z</time>
      </trkpt>
      <trkpt lat="43.39262" lon="2.38691">
        <ele>587.02</ele>
        <time>2017-06-08T13:28:49Z</time>
      </trkpt>
      <trkpt lat="43.39255" lon="2.38699">
        <ele>584.14</ele>
        <time>2017-06-08T13:29:03Z</time>
      </trkpt>
      <trkpt lat="43.39256" lon="2.38684">
        <ele>578.85</ele>
        <time>2017-06-08T13:29:13Z</time>
      </trkpt>
      <trkpt lat="43.39258" lon="2.38668">
        <ele>577.41</ele>
        <time>2017-06-08T13:29:26Z</time>
      </trkpt>
      <trkpt lat="43.39259" lon="2.38652">
        <ele>575.01</ele>
        <time>2017-06-08T13:29:39Z</time>
      </trkpt>
      <trkpt lat="43.39249" lon="2.38649">
        <ele>569.24</ele>
        <time>2017-06-08T13:29:54Z</time>
      </trkpt>
      <trkpt lat="43.3924" lon="2.38663">
        <ele>562.51</ele>
        <time>2017-06-08T13:30:09Z</time>
      </trkpt>
      <trkpt lat="43.39234" lon="2.38675">
        <ele>559.62</ele>
        <time>2017-06-08T13:30:21Z</time>
      </trkpt>
      <trkpt lat="43.39225" lon="2.38692">
        <ele>558.18</ele>
        <time>2017-06-08T13:30:37Z</time>
      </trkpt>
      <trkpt lat="43.39217" lon="2.38706">
        <ele>551.45</ele>
        <time>2017-06-08T13:30:53Z</time>
      </trkpt>
      <trkpt lat="43.39207" lon="2.38716">
        <ele>546.17</ele>
        <time>2017-06-08T13:31:06Z</time>
      </trkpt>
      <trkpt lat="43.39203" lon="2.38729">
        <ele>551.93</ele>
        <time>2017-06-08T13:31:20Z</time>
      </trkpt>
      <trkpt lat="43.392" lon="2.38746">
        <ele>551.93</ele>
        <time>2017-06-08T13:31:36Z</time>
      </trkpt>
      <trkpt lat="43.39195" lon="2.3876">
        <ele>551.93</ele>
        <time>2017-06-08T13:31:52Z</time>
      </trkpt>
      <trkpt lat="43.39188" lon="2.38783">
        <ele>550.01</ele>
        <time>2017-06-08T13:32:11Z</time>
      </trkpt>
      <trkpt lat="43.39179" lon="2.38794">
        <ele>549.05</ele>
        <time>2017-06-08T13:32:25Z</time>
      </trkpt>
      <trkpt lat="43.39164" lon="2.38802">
        <ele>550.49</ele>
        <time>2017-06-08T13:32:40Z</time>
      </trkpt>
      <trkpt lat="43.39157" lon="2.38804">
        <ele>550.01</ele>
        <time>2017-06-08T13:32:52Z</time>
      </trkpt>
      <trkpt lat="43.39148" lon="2.38802">
        <ele>549.05</ele>
        <time>2017-06-08T13:33:05Z</time>
      </trkpt>
      <trkpt lat="43.39136" lon="2.388">
        <ele>547.13</ele>
        <time>2017-06-08T13:33:18Z</time>
      </trkpt>
      <trkpt lat="43.39122" lon="2.38797">
        <ele>546.17</ele>
        <time>2017-06-08T13:33:31Z</time>
      </trkpt>
      <trkpt lat="43.39114" lon="2.38796">
        <ele>544.24</ele>
        <time>2017-06-08T13:33:41Z</time>
      </trkpt>
      <trkpt lat="43.391" lon="2.38793">
        <ele>539.44</ele>
        <time>2017-06-08T13:33:57Z</time>
      </trkpt>
      <trkpt lat="43.3909" lon="2.38793">
        <ele>538.48</ele>
        <time>2017-06-08T13:34:11Z</time>
      </trkpt>
      <trkpt lat="43.39072" lon="2.38793">
        <ele>534.63</ele>
        <time>2017-06-08T13:34:27Z</time>
      </trkpt>
      <trkpt lat="43.3906" lon="2.3879">
        <ele>532.71</ele>
        <time>2017-06-08T13:34:39Z</time>
      </trkpt>
      <trkpt lat="43.39047" lon="2.38791">
        <ele>531.75</ele>
        <time>2017-06-08T13:34:53Z</time>
      </trkpt>
      <trkpt lat="43.39033" lon="2.38794">
        <ele>530.3</ele>
        <time>2017-06-08T13:35:08Z</time>
      </trkpt>
      <trkpt lat="43.39021" lon="2.38801">
        <ele>527.9</ele>
        <time>2017-06-08T13:35:23Z</time>
      </trkpt>
      <trkpt lat="43.39009" lon="2.38815">
        <ele>522.61</ele>
        <time>2017-06-08T13:35:40Z</time>
      </trkpt>
      <trkpt lat="43.39004" lon="2.38833">
        <ele>518.77</ele>
        <time>2017-06-08T13:35:56Z</time>
      </trkpt>
      <trkpt lat="43.39005" lon="2.38853">
        <ele>516.85</ele>
        <time>2017-06-08T13:36:11Z</time>
      </trkpt>
      <trkpt lat="43.39005" lon="2.38877">
        <ele>516.85</ele>
        <time>2017-06-08T13:36:28Z</time>
      </trkpt>
      <trkpt lat="43.39005" lon="2.38897">
        <ele>520.21</ele>
        <time>2017-06-08T13:36:42Z</time>
      </trkpt>
      <trkpt lat="43.39004" lon="2.38923">
        <ele>520.69</ele>
        <time>2017-06-08T13:36:57Z</time>
      </trkpt>
      <trkpt lat="43.38998" lon="2.38947">
        <ele>520.21</ele>
        <time>2017-06-08T13:37:15Z</time>
      </trkpt>
      <trkpt lat="43.38992" lon="2.38961">
        <ele>519.73</ele>
        <time>2017-06-08T13:37:29Z</time>
      </trkpt>
      <trkpt lat="43.38987" lon="2.38974">
        <ele>519.25</ele>
        <time>2017-06-08T13:37:42Z</time>
      </trkpt>
      <trkpt lat="43.3898" lon="2.38997">
        <ele>515.4</ele>
        <time>2017-06-08T13:37:59Z</time>
      </trkpt>
      <trkpt lat="43.3897" lon="2.39016">
        <ele>515.4</ele>
        <time>2017-06-08T13:38:14Z</time>
      </trkpt>
      <trkpt lat="43.3897" lon="2.39017">
        <ele>515.4</ele>
        <time>2017-06-08T13:38:15Z</time>
      </trkpt>
      <trkpt lat="43.38963" lon="2.39034">
        <ele>512.52</ele>
        <time>2017-06-08T13:38:30Z</time>
      </trkpt>
      <trkpt lat="43.38954" lon="2.39052">
        <ele>510.6</ele>
        <time>2017-06-08T13:38:44Z</time>
      </trkpt>
      <trkpt lat="43.38946" lon="2.39067">
        <ele>510.6</ele>
        <time>2017-06-08T13:38:58Z</time>
      </trkpt>
      <trkpt lat="43.38939" lon="2.39082">
        <ele>509.64</ele>
        <time>2017-06-08T13:39:12Z</time>
      </trkpt>
      <trkpt lat="43.38925" lon="2.39092">
        <ele>506.27</ele>
        <time>2017-06-08T13:39:27Z</time>
      </trkpt>
      <trkpt lat="43.38917" lon="2.39106">
        <ele>501.46</ele>
        <time>2017-06-08T13:39:43Z</time>
      </trkpt>
      <trkpt lat="43.38908" lon="2.39124">
        <ele>498.1</ele>
        <time>2017-06-08T13:39:58Z</time>
      </trkpt>
      <trkpt lat="43.38903" lon="2.39143">
        <ele>497.62</ele>
        <time>2017-06-08T13:40:14Z</time>
      </trkpt>
      <trkpt lat="43.38903" lon="2.3916">
        <ele>494.74</ele>
        <time>2017-06-08T13:40:30Z</time>
      </trkpt>
      <trkpt lat="43.38904" lon="2.39179">
        <ele>496.18</ele>
        <time>2017-06-08T13:40:45Z</time>
      </trkpt>
      <trkpt lat="43.38908" lon="2.39198">
        <ele>494.26</ele>
        <time>2017-06-08T13:41:02Z</time>
      </trkpt>
      <trkpt lat="43.38907" lon="2.39221">
        <ele>489.45</ele>
        <time>2017-06-08T13:41:19Z</time>
      </trkpt>
      <trkpt lat="43.3891" lon="2.39225">
        <ele>485.12</ele>
        <time>2017-06-08T13:41:35Z</time>
      </trkpt>
      <trkpt lat="43.38909" lon="2.39223">
        <ele>483.68</ele>
        <time>2017-06-08T13:41:55Z</time>
      </trkpt>
      <trkpt lat="43.3891" lon="2.39224">
        <ele>487.53</ele>
        <time>2017-06-08T13:42:23Z</time>
      </trkpt>
      <trkpt lat="43.38912" lon="2.39225">
        <ele>488.01</ele>
        <time>2017-06-08T13:42:51Z</time>
      </trkpt>
      <trkpt lat="43.38909" lon="2.39225">
        <ele>487.53</ele>
        <time>2017-06-08T13:43:16Z</time>
      </trkpt>
      <trkpt lat="43.38908" lon="2.39231">
        <ele>487.53</ele>
        <time>2017-06-08T13:43:21Z</time>
      </trkpt>
      <trkpt lat="43.38904" lon="2.39254">
        <ele>486.08</ele>
        <time>2017-06-08T13:43:37Z</time>
      </trkpt>
      <trkpt lat="43.38901" lon="2.39268">
        <ele>481.28</ele>
        <time>2017-06-08T13:43:51Z</time>
      </trkpt>
      <trkpt lat="43.389" lon="2.39282">
        <ele>477.91</ele>
        <time>2017-06-08T13:44:07Z</time>
      </trkpt>
      <trkpt lat="43.389" lon="2.39282">
        <ele>476.47</ele>
        <time>2017-06-08T13:44:28Z</time>
      </trkpt>
      <trkpt lat="43.38899" lon="2.39285">
        <ele>474.55</ele>
        <time>2017-06-08T13:44:55Z</time>
      </trkpt>
      <trkpt lat="43.38902" lon="2.39289">
        <ele>480.8</ele>
        <time>2017-06-08T13:45:26Z</time>
      </trkpt>
      <trkpt lat="43.38902" lon="2.39288">
        <ele>479.84</ele>
        <time>2017-06-08T13:45:49Z</time>
      </trkpt>
      <trkpt lat="43.38898" lon="2.39297">
        <ele>480.32</ele>
        <time>2017-06-08T13:46:05Z</time>
      </trkpt>
      <trkpt lat="43.38894" lon="2.39312">
        <ele>480.32</ele>
        <time>2017-06-08T13:46:23Z</time>
      </trkpt>
      <trkpt lat="43.38891" lon="2.3932">
        <ele>478.87</ele>
        <time>2017-06-08T13:46:35Z</time>
      </trkpt>
      <trkpt lat="43.38879" lon="2.39337">
        <ele>479.35</ele>
        <time>2017-06-08T13:46:51Z</time>
      </trkpt>
      <trkpt lat="43.38869" lon="2.39348">
        <ele>474.07</ele>
        <time>2017-06-08T13:47:09Z</time>
      </trkpt>
      <trkpt lat="43.38863" lon="2.39362">
        <ele>467.82</ele>
        <time>2017-06-08T13:47:27Z</time>
      </trkpt>
      <trkpt lat="43.3886" lon="2.39373">
        <ele>464.45</ele>
        <time>2017-06-08T13:47:43Z</time>
      </trkpt>
      <trkpt lat="43.38856" lon="2.39382">
        <ele>460.61</ele>
        <time>2017-06-08T13:47:58Z</time>
      </trkpt>
      <trkpt lat="43.3885" lon="2.3939">
        <ele>461.09</ele>
        <time>2017-06-08T13:48:10Z</time>
      </trkpt>
      <trkpt lat="43.3884" lon="2.39402">
        <ele>460.61</ele>
        <time>2017-06-08T13:48:26Z</time>
      </trkpt>
      <trkpt lat="43.38824" lon="2.39411">
        <ele>461.57</ele>
        <time>2017-06-08T13:48:43Z</time>
      </trkpt>
      <trkpt lat="43.38815" lon="2.39421">
        <ele>461.09</ele>
        <time>2017-06-08T13:48:59Z</time>
      </trkpt>
      <trkpt lat="43.38812" lon="2.39428">
        <ele>456.76</ele>
        <time>2017-06-08T13:49:13Z</time>
      </trkpt>
      <trkpt lat="43.38809" lon="2.39442">
        <ele>451.96</ele>
        <time>2017-06-08T13:49:28Z</time>
      </trkpt>
      <trkpt lat="43.38805" lon="2.39457">
        <ele>447.63</ele>
        <time>2017-06-08T13:49:45Z</time>
      </trkpt>
      <trkpt lat="43.38798" lon="2.39471">
        <ele>442.34</ele>
        <time>2017-06-08T13:50:01Z</time>
      </trkpt>
      <trkpt lat="43.38784" lon="2.39489">
        <ele>438.5</ele>
        <time>2017-06-08T13:50:17Z</time>
      </trkpt>
      <trkpt lat="43.38769" lon="2.39505">
        <ele>438.98</ele>
        <time>2017-06-08T13:50:33Z</time>
      </trkpt>
      <trkpt lat="43.38759" lon="2.39515">
        <ele>432.73</ele>
        <time>2017-06-08T13:50:48Z</time>
      </trkpt>
      <trkpt lat="43.38753" lon="2.39527">
        <ele>425.52</ele>
        <time>2017-06-08T13:51:04Z</time>
      </trkpt>
      <trkpt lat="43.38754" lon="2.39548">
        <ele>424.08</ele>
        <time>2017-06-08T13:51:21Z</time>
      </trkpt>
      <trkpt lat="43.38749" lon="2.39568">
        <ele>423.12</ele>
        <time>2017-06-08T13:51:35Z</time>
      </trkpt>
      <trkpt lat="43.38742" lon="2.39583">
        <ele>419.75</ele>
        <time>2017-06-08T13:51:51Z</time>
      </trkpt>
      <trkpt lat="43.3874" lon="2.39594">
        <ele>423.6</ele>
        <time>2017-06-08T13:52:05Z</time>
      </trkpt>
      <trkpt lat="43.38733" lon="2.39609">
        <ele>421.68</ele>
        <time>2017-06-08T13:52:20Z</time>
      </trkpt>
      <trkpt lat="43.38722" lon="2.39626">
        <ele>419.27</ele>
        <time>2017-06-08T13:52:36Z</time>
      </trkpt>
      <trkpt lat="43.38712" lon="2.39637">
        <ele>416.87</ele>
        <time>2017-06-08T13:52:53Z</time>
      </trkpt>
      <trkpt lat="43.38695" lon="2.39637">
        <ele>415.91</ele>
        <time>2017-06-08T13:53:12Z</time>
      </trkpt>
      <trkpt lat="43.38692" lon="2.39634">
        <ele>417.83</ele>
        <time>2017-06-08T13:53:27Z</time>
      </trkpt>
      <trkpt lat="43.38695" lon="2.39623">
        <ele>421.68</ele>
        <time>2017-06-08T13:53:50Z</time>
      </trkpt>
      <trkpt lat="43.38697" lon="2.39611">
        <ele>418.31</ele>
        <time>2017-06-08T13:54:04Z</time>
      </trkpt>
      <trkpt lat="43.38695" lon="2.39592">
        <ele>416.87</ele>
        <time>2017-06-08T13:54:18Z</time>
      </trkpt>
      <trkpt lat="43.38694" lon="2.39588">
        <ele>416.39</ele>
        <time>2017-06-08T13:54:21Z</time>
      </trkpt>
      <trkpt lat="43.38686" lon="2.39555">
        <ele>418.79</ele>
        <time>2017-06-08T13:54:41Z</time>
      </trkpt>
      <trkpt lat="43.3868" lon="2.39541">
        <ele>416.87</ele>
        <time>2017-06-08T13:54:54Z</time>
      </trkpt>
      <trkpt lat="43.3867" lon="2.39531">
        <ele>416.39</ele>
        <time>2017-06-08T13:55:07Z</time>
      </trkpt>
      <trkpt lat="43.3866" lon="2.39532">
        <ele>412.06</ele>
        <time>2017-06-08T13:55:18Z</time>
      </trkpt>
      <trkpt lat="43.38647" lon="2.39546">
        <ele>410.62</ele>
        <time>2017-06-08T13:55:34Z</time>
      </trkpt>
      <trkpt lat="43.38637" lon="2.39559">
        <ele>408.22</ele>
        <time>2017-06-08T13:55:48Z</time>
      </trkpt>
      <trkpt lat="43.38632" lon="2.39566">
        <ele>407.26</ele>
        <time>2017-06-08T13:55:55Z</time>
      </trkpt>
      <trkpt lat="43.38625" lon="2.39576">
        <ele>406.29</ele>
        <time>2017-06-08T13:56:05Z</time>
      </trkpt>
      <trkpt lat="43.3861" lon="2.39586">
        <ele>404.37</ele>
        <time>2017-06-08T13:56:21Z</time>
      </trkpt>
      <trkpt lat="43.38596" lon="2.39587">
        <ele>403.41</ele>
        <time>2017-06-08T13:56:35Z</time>
      </trkpt>
      <trkpt lat="43.38579" lon="2.39587">
        <ele>404.85</ele>
        <time>2017-06-08T13:56:49Z</time>
      </trkpt>
      <trkpt lat="43.38562" lon="2.39588">
        <ele>405.81</ele>
        <time>2017-06-08T13:57:03Z</time>
      </trkpt>
      <trkpt lat="43.38541" lon="2.39584">
        <ele>408.7</ele>
        <time>2017-06-08T13:57:18Z</time>
      </trkpt>
      <trkpt lat="43.38526" lon="2.39578">
        <ele>411.1</ele>
        <time>2017-06-08T13:57:31Z</time>
      </trkpt>
      <trkpt lat="43.3851" lon="2.39569">
        <ele>412.54</ele>
        <time>2017-06-08T13:57:45Z</time>
      </trkpt>
      <trkpt lat="43.38492" lon="2.39575">
        <ele>408.7</ele>
        <time>2017-06-08T13:58:02Z</time>
      </trkpt>
      <trkpt lat="43.38489" lon="2.39576">
        <ele>407.74</ele>
        <time>2017-06-08T13:58:05Z</time>
      </trkpt>
      <trkpt lat="43.38471" lon="2.39589">
        <ele>403.41</ele>
        <time>2017-06-08T13:58:23Z</time>
      </trkpt>
      <trkpt lat="43.38461" lon="2.39599">
        <ele>397.64</ele>
        <time>2017-06-08T13:58:36Z</time>
      </trkpt>
      <trkpt lat="43.38446" lon="2.39611">
        <ele>392.84</ele>
        <time>2017-06-08T13:58:51Z</time>
      </trkpt>
      <trkpt lat="43.38441" lon="2.39618">
        <ele>387.07</ele>
        <time>2017-06-08T13:59:05Z</time>
      </trkpt>
      <trkpt lat="43.38438" lon="2.39622">
        <ele>386.59</ele>
        <time>2017-06-08T13:59:17Z</time>
      </trkpt>
      <trkpt lat="43.38432" lon="2.39624">
        <ele>388.99</ele>
        <time>2017-06-08T13:59:30Z</time>
      </trkpt>
      <trkpt lat="43.38429" lon="2.39626">
        <ele>390.43</ele>
        <time>2017-06-08T13:59:51Z</time>
      </trkpt>
      <trkpt lat="43.38419" lon="2.39638">
        <ele>393.8</ele>
        <time>2017-06-08T14:00:05Z</time>
      </trkpt>
      <trkpt lat="43.38413" lon="2.39649">
        <ele>394.76</ele>
        <time>2017-06-08T14:00:17Z</time>
      </trkpt>
      <trkpt lat="43.38408" lon="2.39658">
        <ele>395.24</ele>
        <time>2017-06-08T14:00:31Z</time>
      </trkpt>
      <trkpt lat="43.38404" lon="2.39661">
        <ele>396.2</ele>
        <time>2017-06-08T14:00:49Z</time>
      </trkpt>
      <trkpt lat="43.38401" lon="2.39661">
        <ele>396.2</ele>
        <time>2017-06-08T14:01:06Z</time>
      </trkpt>
      <trkpt lat="43.38396" lon="2.39663">
        <ele>397.16</ele>
        <time>2017-06-08T14:01:26Z</time>
      </trkpt>
      <trkpt lat="43.3839" lon="2.39669">
        <ele>400.05</ele>
        <time>2017-06-08T14:01:52Z</time>
      </trkpt>
      <trkpt lat="43.38394" lon="2.39666">
        <ele>401.49</ele>
        <time>2017-06-08T14:02:15Z</time>
      </trkpt>
      <trkpt lat="43.38399" lon="2.39671">
        <ele>409.18</ele>
        <time>2017-06-08T14:02:38Z</time>
      </trkpt>
      <trkpt lat="43.38397" lon="2.39662">
        <ele>412.06</ele>
        <time>2017-06-08T14:03:00Z</time>
      </trkpt>
      <trkpt lat="43.38398" lon="2.3966">
        <ele>417.35</ele>
        <time>2017-06-08T14:03:19Z</time>
      </trkpt>
      <trkpt lat="43.38406" lon="2.39663">
        <ele>421.68</ele>
        <time>2017-06-08T14:03:42Z</time>
      </trkpt>
      <trkpt lat="43.38404" lon="2.39663">
        <ele>417.83</ele>
        <time>2017-06-08T14:04:00Z</time>
      </trkpt>
      <trkpt lat="43.3839" lon="2.39667">
        <ele>425.52</ele>
        <time>2017-06-08T14:04:14Z</time>
      </trkpt>
      <trkpt lat="43.38387" lon="2.39666">
        <ele>426.48</ele>
        <time>2017-06-08T14:04:17Z</time>
      </trkpt>
      <trkpt lat="43.38374" lon="2.39655">
        <ele>424.56</ele>
        <time>2017-06-08T14:04:31Z</time>
      </trkpt>
      <trkpt lat="43.38361" lon="2.39639">
        <ele>423.12</ele>
        <time>2017-06-08T14:04:49Z</time>
      </trkpt>
      <trkpt lat="43.3836" lon="2.39638">
        <ele>423.12</ele>
        <time>2017-06-08T14:04:50Z</time>
      </trkpt>
      <trkpt lat="43.38344" lon="2.39633">
        <ele>423.12</ele>
        <time>2017-06-08T14:05:07Z</time>
      </trkpt>
      <trkpt lat="43.38324" lon="2.39622">
        <ele>423.12</ele>
        <time>2017-06-08T14:05:26Z</time>
      </trkpt>
      <trkpt lat="43.38308" lon="2.39604">
        <ele>422.64</ele>
        <time>2017-06-08T14:05:45Z</time>
      </trkpt>
      <trkpt lat="43.38304" lon="2.39599">
        <ele>423.12</ele>
        <time>2017-06-08T14:05:50Z</time>
      </trkpt>
      <trkpt lat="43.38292" lon="2.39587">
        <ele>425.04</ele>
        <time>2017-06-08T14:06:05Z</time>
      </trkpt>
      <trkpt lat="43.38281" lon="2.39582">
        <ele>427.92</ele>
        <time>2017-06-08T14:06:20Z</time>
      </trkpt>
      <trkpt lat="43.38269" lon="2.39591">
        <ele>431.77</ele>
        <time>2017-06-08T14:06:36Z</time>
      </trkpt>
      <trkpt lat="43.38259" lon="2.39598">
        <ele>432.73</ele>
        <time>2017-06-08T14:06:50Z</time>
      </trkpt>
      <trkpt lat="43.3825" lon="2.3961">
        <ele>431.77</ele>
        <time>2017-06-08T14:07:06Z</time>
      </trkpt>
      <trkpt lat="43.38245" lon="2.39623">
        <ele>431.77</ele>
        <time>2017-06-08T14:07:21Z</time>
      </trkpt>
      <trkpt lat="43.38243" lon="2.39634">
        <ele>434.17</ele>
        <time>2017-06-08T14:07:34Z</time>
      </trkpt>
      <trkpt lat="43.38243" lon="2.39635">
        <ele>434.17</ele>
        <time>2017-06-08T14:07:35Z</time>
      </trkpt>
      <trkpt lat="43.38236" lon="2.39649">
        <ele>434.17</ele>
        <time>2017-06-08T14:07:48Z</time>
      </trkpt>
      <trkpt lat="43.3823" lon="2.3966">
        <ele>433.69</ele>
        <time>2017-06-08T14:08:05Z</time>
      </trkpt>
      <trkpt lat="43.38218" lon="2.39659">
        <ele>436.58</ele>
        <time>2017-06-08T14:08:18Z</time>
      </trkpt>
      <trkpt lat="43.38217" lon="2.39659">
        <ele>436.58</ele>
        <time>2017-06-08T14:08:19Z</time>
      </trkpt>
      <trkpt lat="43.38213" lon="2.39655">
        <ele>436.58</ele>
        <time>2017-06-08T14:08:24Z</time>
      </trkpt>
      <trkpt lat="43.38207" lon="2.39639">
        <ele>435.61</ele>
        <time>2017-06-08T14:08:38Z</time>
      </trkpt>
      <trkpt lat="43.38209" lon="2.39624">
        <ele>437.06</ele>
        <time>2017-06-08T14:08:54Z</time>
      </trkpt>
      <trkpt lat="43.38209" lon="2.39613">
        <ele>437.06</ele>
        <time>2017-06-08T14:09:14Z</time>
      </trkpt>
      <trkpt lat="43.38208" lon="2.39603">
        <ele>437.06</ele>
        <time>2017-06-08T14:09:23Z</time>
      </trkpt>
      <trkpt lat="43.38207" lon="2.39579">
        <ele>437.54</ele>
        <time>2017-06-08T14:09:40Z</time>
      </trkpt>
      <trkpt lat="43.38207" lon="2.39559">
        <ele>437.54</ele>
        <time>2017-06-08T14:09:55Z</time>
      </trkpt>
      <trkpt lat="43.38206" lon="2.3955">
        <ele>435.61</ele>
        <time>2017-06-08T14:10:08Z</time>
      </trkpt>
      <trkpt lat="43.38199" lon="2.39532">
        <ele>436.1</ele>
        <time>2017-06-08T14:10:23Z</time>
      </trkpt>
      <trkpt lat="43.38192" lon="2.39518">
        <ele>435.61</ele>
        <time>2017-06-08T14:10:37Z</time>
      </trkpt>
      <trkpt lat="43.38192" lon="2.39519">
        <ele>436.58</ele>
        <time>2017-06-08T14:10:58Z</time>
      </trkpt>
      <trkpt lat="43.38184" lon="2.3951">
        <ele>437.06</ele>
        <time>2017-06-08T14:11:12Z</time>
      </trkpt>
      <trkpt lat="43.3817" lon="2.39501">
        <ele>438.02</ele>
        <time>2017-06-08T14:11:28Z</time>
      </trkpt>
      <trkpt lat="43.38158" lon="2.39492">
        <ele>437.54</ele>
        <time>2017-06-08T14:11:43Z</time>
      </trkpt>
      <trkpt lat="43.38154" lon="2.39487">
        <ele>437.06</ele>
        <time>2017-06-08T14:11:47Z</time>
      </trkpt>
      <trkpt lat="43.38139" lon="2.39466">
        <ele>436.58</ele>
        <time>2017-06-08T14:12:07Z</time>
      </trkpt>
      <trkpt lat="43.38129" lon="2.39445">
        <ele>433.69</ele>
        <time>2017-06-08T14:12:25Z</time>
      </trkpt>
      <trkpt lat="43.38122" lon="2.3943">
        <ele>434.65</ele>
        <time>2017-06-08T14:12:41Z</time>
      </trkpt>
      <trkpt lat="43.38118" lon="2.39424">
        <ele>437.54</ele>
        <time>2017-06-08T14:12:58Z</time>
      </trkpt>
      <trkpt lat="43.3811" lon="2.39414">
        <ele>438.5</ele>
        <time>2017-06-08T14:13:11Z</time>
      </trkpt>
      <trkpt lat="43.38106" lon="2.39415">
        <ele>437.06</ele>
        <time>2017-06-08T14:13:17Z</time>
      </trkpt>
      <trkpt lat="43.38094" lon="2.3942">
        <ele>436.1</ele>
        <time>2017-06-08T14:13:32Z</time>
      </trkpt>
      <trkpt lat="43.38086" lon="2.3942">
        <ele>434.65</ele>
        <time>2017-06-08T14:13:41Z</time>
      </trkpt>
      <trkpt lat="43.38068" lon="2.3942">
        <ele>432.25</ele>
        <time>2017-06-08T14:13:59Z</time>
      </trkpt>
      <trkpt lat="43.3806" lon="2.39422">
        <ele>432.73</ele>
        <time>2017-06-08T14:14:09Z</time>
      </trkpt>
      <trkpt lat="43.38052" lon="2.39416">
        <ele>430.81</ele>
        <time>2017-06-08T14:14:16Z</time>
      </trkpt>
      <trkpt lat="43.38041" lon="2.39392">
        <ele>430.81</ele>
        <time>2017-06-08T14:14:36Z</time>
      </trkpt>
      <trkpt lat="43.38035" lon="2.39372">
        <ele>433.69</ele>
        <time>2017-06-08T14:14:53Z</time>
      </trkpt>
      <trkpt lat="43.38037" lon="2.39368">
        <ele>438.02</ele>
        <time>2017-06-08T14:15:21Z</time>
      </trkpt>
      <trkpt lat="43.38037" lon="2.39368">
        <ele>438.5</ele>
        <time>2017-06-08T14:15:36Z</time>
      </trkpt>
      <trkpt lat="43.38038" lon="2.3937">
        <ele>438.5</ele>
        <time>2017-06-08T14:15:56Z</time>
      </trkpt>
      <trkpt lat="43.38035" lon="2.39362">
        <ele>438.5</ele>
        <time>2017-06-08T14:16:11Z</time>
      </trkpt>
      <trkpt lat="43.38031" lon="2.39355">
        <ele>439.94</ele>
        <time>2017-06-08T14:16:30Z</time>
      </trkpt>
      <trkpt lat="43.38031" lon="2.39352">
        <ele>441.38</ele>
        <time>2017-06-08T14:16:55Z</time>
      </trkpt>
      <trkpt lat="43.38016" lon="2.39336">
        <ele>441.86</ele>
        <time>2017-06-08T14:17:13Z</time>
      </trkpt>
      <trkpt lat="43.38011" lon="2.39334">
        <ele>443.31</ele>
        <time>2017-06-08T14:17:27Z</time>
      </trkpt>
      <trkpt lat="43.38001" lon="2.39321">
        <ele>441.38</ele>
        <time>2017-06-08T14:17:43Z</time>
      </trkpt>
      <trkpt lat="43.3799" lon="2.39302">
        <ele>440.42</ele>
        <time>2017-06-08T14:18:00Z</time>
      </trkpt>
      <trkpt lat="43.3798" lon="2.39286">
        <ele>438.98</ele>
        <time>2017-06-08T14:18:18Z</time>
      </trkpt>
      <trkpt lat="43.37972" lon="2.39266">
        <ele>438.02</ele>
        <time>2017-06-08T14:18:34Z</time>
      </trkpt>
      <trkpt lat="43.37962" lon="2.39247">
        <ele>436.58</ele>
        <time>2017-06-08T14:18:49Z</time>
      </trkpt>
      <trkpt lat="43.37948" lon="2.39224">
        <ele>437.06</ele>
        <time>2017-06-08T14:19:07Z</time>
      </trkpt>
      <trkpt lat="43.37936" lon="2.39213">
        <ele>435.61</ele>
        <time>2017-06-08T14:19:22Z</time>
      </trkpt>
      <trkpt lat="43.37932" lon="2.39211">
        <ele>435.13</ele>
        <time>2017-06-08T14:19:38Z</time>
      </trkpt>
      <trkpt lat="43.37925" lon="2.39207">
        <ele>438.5</ele>
        <time>2017-06-08T14:19:56Z</time>
      </trkpt>
      <trkpt lat="43.37931" lon="2.39208">
        <ele>439.46</ele>
        <time>2017-06-08T14:20:16Z</time>
      </trkpt>
      <trkpt lat="43.37931" lon="2.39193">
        <ele>437.06</ele>
        <time>2017-06-08T14:20:33Z</time>
      </trkpt>
      <trkpt lat="43.37935" lon="2.39175">
        <ele>437.06</ele>
        <time>2017-06-08T14:20:51Z</time>
      </trkpt>
      <trkpt lat="43.3794" lon="2.39163">
        <ele>435.61</ele>
        <time>2017-06-08T14:21:06Z</time>
      </trkpt>
      <trkpt lat="43.3794" lon="2.39161">
        <ele>435.13</ele>
        <time>2017-06-08T14:21:07Z</time>
      </trkpt>
      <trkpt lat="43.37943" lon="2.39141">
        <ele>433.69</ele>
        <time>2017-06-08T14:21:24Z</time>
      </trkpt>
      <trkpt lat="43.37946" lon="2.39128">
        <ele>432.25</ele>
        <time>2017-06-08T14:21:37Z</time>
      </trkpt>
      <trkpt lat="43.37946" lon="2.39119">
        <ele>431.77</ele>
        <time>2017-06-08T14:21:48Z</time>
      </trkpt>
      <trkpt lat="43.37941" lon="2.39096">
        <ele>428.89</ele>
        <time>2017-06-08T14:22:05Z</time>
      </trkpt>
      <trkpt lat="43.37937" lon="2.39077">
        <ele>425.52</ele>
        <time>2017-06-08T14:22:19Z</time>
      </trkpt>
      <trkpt lat="43.37936" lon="2.39072">
        <ele>424.56</ele>
        <time>2017-06-08T14:22:23Z</time>
      </trkpt>
      <trkpt lat="43.37936" lon="2.39051">
        <ele>423.12</ele>
        <time>2017-06-08T14:22:37Z</time>
      </trkpt>
      <trkpt lat="43.37938" lon="2.39026">
        <ele>423.12</ele>
        <time>2017-06-08T14:22:54Z</time>
      </trkpt>
      <trkpt lat="43.37938" lon="2.39008">
        <ele>424.56</ele>
        <time>2017-06-08T14:23:11Z</time>
      </trkpt>
      <trkpt lat="43.37935" lon="2.39007">
        <ele>425.52</ele>
        <time>2017-06-08T14:23:35Z</time>
      </trkpt>
      <trkpt lat="43.37937" lon="2.39">
        <ele>427.92</ele>
        <time>2017-06-08T14:23:54Z</time>
      </trkpt>
      <trkpt lat="43.37942" lon="2.38989">
        <ele>426</ele>
        <time>2017-06-08T14:24:08Z</time>
      </trkpt>
      <trkpt lat="43.37944" lon="2.38978">
        <ele>420.23</ele>
        <time>2017-06-08T14:24:23Z</time>
      </trkpt>
      <trkpt lat="43.37944" lon="2.38967">
        <ele>413.98</ele>
        <time>2017-06-08T14:24:36Z</time>
      </trkpt>
      <trkpt lat="43.37945" lon="2.3895">
        <ele>407.26</ele>
        <time>2017-06-08T14:24:53Z</time>
      </trkpt>
      <trkpt lat="43.37943" lon="2.38936">
        <ele>402.45</ele>
        <time>2017-06-08T14:25:07Z</time>
      </trkpt>
      <trkpt lat="43.37943" lon="2.38912">
        <ele>406.77</ele>
        <time>2017-06-08T14:25:21Z</time>
      </trkpt>
      <trkpt lat="43.37944" lon="2.38893">
        <ele>410.14</ele>
        <time>2017-06-08T14:25:36Z</time>
      </trkpt>
      <trkpt lat="43.37944" lon="2.38877">
        <ele>405.33</ele>
        <time>2017-06-08T14:25:53Z</time>
      </trkpt>
      <trkpt lat="43.37944" lon="2.38857">
        <ele>406.29</ele>
        <time>2017-06-08T14:26:08Z</time>
      </trkpt>
      <trkpt lat="43.3794" lon="2.38839">
        <ele>402.93</ele>
        <time>2017-06-08T14:26:23Z</time>
      </trkpt>
      <trkpt lat="43.37939" lon="2.38831">
        <ele>401.97</ele>
        <time>2017-06-08T14:26:36Z</time>
      </trkpt>
      <trkpt lat="43.37935" lon="2.38816">
        <ele>399.57</ele>
        <time>2017-06-08T14:26:52Z</time>
      </trkpt>
      <trkpt lat="43.37934" lon="2.38806">
        <ele>396.68</ele>
        <time>2017-06-08T14:27:05Z</time>
      </trkpt>
      <trkpt lat="43.37929" lon="2.38791">
        <ele>390.43</ele>
        <time>2017-06-08T14:27:20Z</time>
      </trkpt>
      <trkpt lat="43.37933" lon="2.38787">
        <ele>384.66</ele>
        <time>2017-06-08T14:27:33Z</time>
      </trkpt>
      <trkpt lat="43.37943" lon="2.3878">
        <ele>382.26</ele>
        <time>2017-06-08T14:27:47Z</time>
      </trkpt>
      <trkpt lat="43.37946" lon="2.38772">
        <ele>378.9</ele>
        <time>2017-06-08T14:28:01Z</time>
      </trkpt>
      <trkpt lat="43.37945" lon="2.38769">
        <ele>377.45</ele>
        <time>2017-06-08T14:28:20Z</time>
      </trkpt>
      <trkpt lat="43.37941" lon="2.38769">
        <ele>379.38</ele>
        <time>2017-06-08T14:28:41Z</time>
      </trkpt>
      <trkpt lat="43.37941" lon="2.38767">
        <ele>381.78</ele>
        <time>2017-06-08T14:29:01Z</time>
      </trkpt>
      <trkpt lat="43.3794" lon="2.38765">
        <ele>388.51</ele>
        <time>2017-06-08T14:29:25Z</time>
      </trkpt>
      <trkpt lat="43.37937" lon="2.38759">
        <ele>387.07</ele>
        <time>2017-06-08T14:29:42Z</time>
      </trkpt>
      <trkpt lat="43.37933" lon="2.38749">
        <ele>380.82</ele>
        <time>2017-06-08T14:29:59Z</time>
      </trkpt>
      <trkpt lat="43.37939" lon="2.38747">
        <ele>376.49</ele>
        <time>2017-06-08T14:30:15Z</time>
      </trkpt>
      <trkpt lat="43.37941" lon="2.38745">
        <ele>371.69</ele>
        <time>2017-06-08T14:30:30Z</time>
      </trkpt>
      <trkpt lat="43.37933" lon="2.3874">
        <ele>368.8</ele>
        <time>2017-06-08T14:30:43Z</time>
      </trkpt>
      <trkpt lat="43.37927" lon="2.38733">
        <ele>364.48</ele>
        <time>2017-06-08T14:30:57Z</time>
      </trkpt>
      <trkpt lat="43.37927" lon="2.38735">
        <ele>363.52</ele>
        <time>2017-06-08T14:31:08Z</time>
      </trkpt>
      <trkpt lat="43.37925" lon="2.38735">
        <ele>365.92</ele>
        <time>2017-06-08T14:31:25Z</time>
      </trkpt>
      <trkpt lat="43.37929" lon="2.38733">
        <ele>370.24</ele>
        <time>2017-06-08T14:31:50Z</time>
      </trkpt>
      <trkpt lat="43.3793" lon="2.38729">
        <ele>369.28</ele>
        <time>2017-06-08T14:32:06Z</time>
      </trkpt>
      <trkpt lat="43.37926" lon="2.38725">
        <ele>369.76</ele>
        <time>2017-06-08T14:32:20Z</time>
      </trkpt>
      <trkpt lat="43.3792" lon="2.38726">
        <ele>369.28</ele>
        <time>2017-06-08T14:32:37Z</time>
      </trkpt>
      <trkpt lat="43.37909" lon="2.38735">
        <ele>365.44</ele>
        <time>2017-06-08T14:32:51Z</time>
      </trkpt>
      <trkpt lat="43.37897" lon="2.3874">
        <ele>357.75</ele>
        <time>2017-06-08T14:33:07Z</time>
      </trkpt>
      <trkpt lat="43.37884" lon="2.38744">
        <ele>351.02</ele>
        <time>2017-06-08T14:33:23Z</time>
      </trkpt>
      <trkpt lat="43.37869" lon="2.38737">
        <ele>346.21</ele>
        <time>2017-06-08T14:33:40Z</time>
      </trkpt>
      <trkpt lat="43.37858" lon="2.38734">
        <ele>341.89</ele>
        <time>2017-06-08T14:33:55Z</time>
      </trkpt>
      <trkpt lat="43.37846" lon="2.38732">
        <ele>334.68</ele>
        <time>2017-06-08T14:34:13Z</time>
      </trkpt>
      <trkpt lat="43.3783" lon="2.38727">
        <ele>329.87</ele>
        <time>2017-06-08T14:34:29Z</time>
      </trkpt>
      <trkpt lat="43.37817" lon="2.38724">
        <ele>322.66</ele>
        <time>2017-06-08T14:34:44Z</time>
      </trkpt>
      <trkpt lat="43.37804" lon="2.38719">
        <ele>319.78</ele>
        <time>2017-06-08T14:34:57Z</time>
      </trkpt>
      <trkpt lat="43.37792" lon="2.38711">
        <ele>316.89</ele>
        <time>2017-06-08T14:35:12Z</time>
      </trkpt>
      <trkpt lat="43.37785" lon="2.38701">
        <ele>322.18</ele>
        <time>2017-06-08T14:35:35Z</time>
      </trkpt>
      <trkpt lat="43.37781" lon="2.38699">
        <ele>324.58</ele>
        <time>2017-06-08T14:35:50Z</time>
      </trkpt>
      <trkpt lat="43.37783" lon="2.38693">
        <ele>331.79</ele>
        <time>2017-06-08T14:36:12Z</time>
      </trkpt>
      <trkpt lat="43.37785" lon="2.3868">
        <ele>335.64</ele>
        <time>2017-06-08T14:36:32Z</time>
      </trkpt>
      <trkpt lat="43.37787" lon="2.38679">
        <ele>336.12</ele>
        <time>2017-06-08T14:36:34Z</time>
      </trkpt>
      <trkpt lat="43.37801" lon="2.38673">
        <ele>340.92</ele>
        <time>2017-06-08T14:36:51Z</time>
      </trkpt>
      <trkpt lat="43.37802" lon="2.38668">
        <ele>340.44</ele>
        <time>2017-06-08T14:36:56Z</time>
      </trkpt>
      <trkpt lat="43.37802" lon="2.38649">
        <ele>344.29</ele>
        <time>2017-06-08T14:37:09Z</time>
      </trkpt>
      <trkpt lat="43.37801" lon="2.38642">
        <ele>349.1</ele>
        <time>2017-06-08T14:37:25Z</time>
      </trkpt>
      <trkpt lat="43.37796" lon="2.38642">
        <ele>350.06</ele>
        <time>2017-06-08T14:37:50Z</time>
      </trkpt>
      <trkpt lat="43.37794" lon="2.38646">
        <ele>356.79</ele>
        <time>2017-06-08T14:38:15Z</time>
      </trkpt>
      <trkpt lat="43.37792" lon="2.38637">
        <ele>355.83</ele>
        <time>2017-06-08T14:38:27Z</time>
      </trkpt>
      <trkpt lat="43.37792" lon="2.38614">
        <ele>347.65</ele>
        <time>2017-06-08T14:38:43Z</time>
      </trkpt>
      <trkpt lat="43.3779" lon="2.38608">
        <ele>347.65</ele>
        <time>2017-06-08T14:38:45Z</time>
      </trkpt>
      <trkpt lat="43.37783" lon="2.3859">
        <ele>347.17</ele>
        <time>2017-06-08T14:38:54Z</time>
      </trkpt>
      <trkpt lat="43.37778" lon="2.38576">
        <ele>342.37</ele>
        <time>2017-06-08T14:39:04Z</time>
      </trkpt>
      <trkpt lat="43.37773" lon="2.38551">
        <ele>336.6</ele>
        <time>2017-06-08T14:39:21Z</time>
      </trkpt>
      <trkpt lat="43.37764" lon="2.3853">
        <ele>329.39</ele>
        <time>2017-06-08T14:39:35Z</time>
      </trkpt>
      <trkpt lat="43.37753" lon="2.38522">
        <ele>317.37</ele>
        <time>2017-06-08T14:39:48Z</time>
      </trkpt>
      <trkpt lat="43.37742" lon="2.38519">
        <ele>303.91</ele>
        <time>2017-06-08T14:40:04Z</time>
      </trkpt>
      <trkpt lat="43.37727" lon="2.38519">
        <ele>298.63</ele>
        <time>2017-06-08T14:40:17Z</time>
      </trkpt>
      <trkpt lat="43.37714" lon="2.38518">
        <ele>293.34</ele>
        <time>2017-06-08T14:40:30Z</time>
      </trkpt>
      <trkpt lat="43.37705" lon="2.38516">
        <ele>289.01</ele>
        <time>2017-06-08T14:40:38Z</time>
      </trkpt>
      <trkpt lat="43.37691" lon="2.38518">
        <ele>277.96</ele>
        <time>2017-06-08T14:40:53Z</time>
      </trkpt>
      <trkpt lat="43.3767" lon="2.38508">
        <ele>287.09</ele>
        <time>2017-06-08T14:41:05Z</time>
      </trkpt>
      <trkpt lat="43.37645" lon="2.38501">
        <ele>312.57</ele>
        <time>2017-06-08T14:41:18Z</time>
      </trkpt>
      <trkpt lat="43.37624" lon="2.38517">
        <ele>318.33</ele>
        <time>2017-06-08T14:41:33Z</time>
      </trkpt>
      <trkpt lat="43.37611" lon="2.38521">
        <ele>315.93</ele>
        <time>2017-06-08T14:41:46Z</time>
      </trkpt>
      <trkpt lat="43.37609" lon="2.38503">
        <ele>314.49</ele>
        <time>2017-06-08T14:42:04Z</time>
      </trkpt>
      <trkpt lat="43.37603" lon="2.38485">
        <ele>321.22</ele>
        <time>2017-06-08T14:42:21Z</time>
      </trkpt>
      <trkpt lat="43.37603" lon="2.38472">
        <ele>332.27</ele>
        <time>2017-06-08T14:42:53Z</time>
      </trkpt>
      <trkpt lat="43.37603" lon="2.38471">
        <ele>340.92</ele>
        <time>2017-06-08T14:43:25Z</time>
      </trkpt>
      <trkpt lat="43.376" lon="2.38466">
        <ele>344.77</ele>
        <time>2017-06-08T14:43:41Z</time>
      </trkpt>
      <trkpt lat="43.37599" lon="2.38466">
        <ele>343.81</ele>
        <time>2017-06-08T14:44:03Z</time>
      </trkpt>
      <trkpt lat="43.376" lon="2.38466">
        <ele>342.85</ele>
        <time>2017-06-08T14:44:20Z</time>
      </trkpt>
      <trkpt lat="43.37598" lon="2.38453">
        <ele>341.41</ele>
        <time>2017-06-08T14:44:37Z</time>
      </trkpt>
      <trkpt lat="43.37599" lon="2.38447">
        <ele>341.41</ele>
        <time>2017-06-08T14:44:52Z</time>
      </trkpt>
      <trkpt lat="43.37603" lon="2.38432">
        <ele>339.48</ele>
        <time>2017-06-08T14:45:08Z</time>
      </trkpt>
      <trkpt lat="43.37604" lon="2.3841">
        <ele>337.08</ele>
        <time>2017-06-08T14:45:26Z</time>
      </trkpt>
      <trkpt lat="43.37601" lon="2.38385">
        <ele>338.04</ele>
        <time>2017-06-08T14:45:43Z</time>
      </trkpt>
      <trkpt lat="43.3759" lon="2.38365">
        <ele>337.08</ele>
        <time>2017-06-08T14:46:01Z</time>
      </trkpt>
      <trkpt lat="43.37575" lon="2.38357">
        <ele>331.79</ele>
        <time>2017-06-08T14:46:18Z</time>
      </trkpt>
      <trkpt lat="43.37565" lon="2.38357">
        <ele>326.5</ele>
        <time>2017-06-08T14:46:34Z</time>
      </trkpt>
      <trkpt lat="43.37556" lon="2.38362">
        <ele>322.18</ele>
        <time>2017-06-08T14:46:48Z</time>
      </trkpt>
      <trkpt lat="43.37546" lon="2.38372">
        <ele>314.97</ele>
        <time>2017-06-08T14:47:02Z</time>
      </trkpt>
      <trkpt lat="43.37526" lon="2.38381">
        <ele>312.09</ele>
        <time>2017-06-08T14:47:17Z</time>
      </trkpt>
      <trkpt lat="43.37512" lon="2.38374">
        <ele>314.49</ele>
        <time>2017-06-08T14:47:32Z</time>
      </trkpt>
      <trkpt lat="43.37503" lon="2.38363">
        <ele>307.76</ele>
        <time>2017-06-08T14:47:48Z</time>
      </trkpt>
      <trkpt lat="43.37497" lon="2.38355">
        <ele>302.95</ele>
        <time>2017-06-08T14:48:00Z</time>
      </trkpt>
      <trkpt lat="43.37494" lon="2.38331">
        <ele>305.36</ele>
        <time>2017-06-08T14:48:14Z</time>
      </trkpt>
      <trkpt lat="43.37487" lon="2.38306">
        <ele>308.72</ele>
        <time>2017-06-08T14:48:27Z</time>
      </trkpt>
      <trkpt lat="43.37481" lon="2.38283">
        <ele>315.93</ele>
        <time>2017-06-08T14:48:41Z</time>
      </trkpt>
      <trkpt lat="43.3748" lon="2.38279">
        <ele>316.89</ele>
        <time>2017-06-08T14:48:43Z</time>
      </trkpt>
      <trkpt lat="43.37475" lon="2.38267">
        <ele>322.18</ele>
        <time>2017-06-08T14:48:46Z</time>
      </trkpt>
      <trkpt lat="43.37471" lon="2.38244">
        <ele>336.6</ele>
        <time>2017-06-08T14:48:53Z</time>
      </trkpt>
      <trkpt lat="43.37465" lon="2.38222">
        <ele>337.56</ele>
        <time>2017-06-08T14:49:08Z</time>
      </trkpt>
      <trkpt lat="43.37458" lon="2.38199">
        <ele>338.52</ele>
        <time>2017-06-08T14:49:26Z</time>
      </trkpt>
      <trkpt lat="43.3745" lon="2.38186">
        <ele>338.52</ele>
        <time>2017-06-08T14:49:43Z</time>
      </trkpt>
      <trkpt lat="43.37453" lon="2.38181">
        <ele>338.52</ele>
        <time>2017-06-08T14:49:57Z</time>
      </trkpt>
      <trkpt lat="43.37456" lon="2.38179">
        <ele>340.92</ele>
        <time>2017-06-08T14:50:19Z</time>
      </trkpt>
      <trkpt lat="43.37453" lon="2.38167">
        <ele>340.92</ele>
        <time>2017-06-08T14:50:36Z</time>
      </trkpt>
      <trkpt lat="43.37443" lon="2.38149">
        <ele>337.56</ele>
        <time>2017-06-08T14:50:51Z</time>
      </trkpt>
      <trkpt lat="43.37441" lon="2.38144">
        <ele>336.6</ele>
        <time>2017-06-08T14:50:56Z</time>
      </trkpt>
      <trkpt lat="43.37432" lon="2.38127">
        <ele>336.12</ele>
        <time>2017-06-08T14:51:10Z</time>
      </trkpt>
      <trkpt lat="43.37421" lon="2.3811">
        <ele>332.27</ele>
        <time>2017-06-08T14:51:23Z</time>
      </trkpt>
      <trkpt lat="43.3742" lon="2.381">
        <ele>330.35</ele>
        <time>2017-06-08T14:51:30Z</time>
      </trkpt>
      <trkpt lat="43.37422" lon="2.38097">
        <ele>330.35</ele>
        <time>2017-06-08T14:51:32Z</time>
      </trkpt>
      <trkpt lat="43.37431" lon="2.38075">
        <ele>328.91</ele>
        <time>2017-06-08T14:51:46Z</time>
      </trkpt>
      <trkpt lat="43.37439" lon="2.38057">
        <ele>321.7</ele>
        <time>2017-06-08T14:52:02Z</time>
      </trkpt>
      <trkpt lat="43.37443" lon="2.38041">
        <ele>318.33</ele>
        <time>2017-06-08T14:52:14Z</time>
      </trkpt>
      <trkpt lat="43.3745" lon="2.38018">
        <ele>316.89</ele>
        <time>2017-06-08T14:52:29Z</time>
      </trkpt>
      <trkpt lat="43.37441" lon="2.37986">
        <ele>326.99</ele>
        <time>2017-06-08T14:52:45Z</time>
      </trkpt>
      <trkpt lat="43.37427" lon="2.37977">
        <ele>324.58</ele>
        <time>2017-06-08T14:53:01Z</time>
      </trkpt>
      <trkpt lat="43.37415" lon="2.37967">
        <ele>318.33</ele>
        <time>2017-06-08T14:53:16Z</time>
      </trkpt>
      <trkpt lat="43.37404" lon="2.37951">
        <ele>312.09</ele>
        <time>2017-06-08T14:53:35Z</time>
      </trkpt>
      <trkpt lat="43.374" lon="2.37939">
        <ele>310.64</ele>
        <time>2017-06-08T14:53:45Z</time>
      </trkpt>
      <trkpt lat="43.37386" lon="2.37912">
        <ele>313.05</ele>
        <time>2017-06-08T14:54:02Z</time>
      </trkpt>
      <trkpt lat="43.37382" lon="2.37885">
        <ele>317.85</ele>
        <time>2017-06-08T14:54:18Z</time>
      </trkpt>
      <trkpt lat="43.37377" lon="2.37859">
        <ele>318.81</ele>
        <time>2017-06-08T14:54:37Z</time>
      </trkpt>
      <trkpt lat="43.3737" lon="2.37845">
        <ele>318.33</ele>
        <time>2017-06-08T14:54:54Z</time>
      </trkpt>
      <trkpt lat="43.37369" lon="2.37835">
        <ele>323.62</ele>
        <time>2017-06-08T14:55:07Z</time>
      </trkpt>
      <trkpt lat="43.37363" lon="2.37831">
        <ele>324.1</ele>
        <time>2017-06-08T14:55:23Z</time>
      </trkpt>
      <trkpt lat="43.37363" lon="2.37834">
        <ele>324.1</ele>
        <time>2017-06-08T14:55:37Z</time>
      </trkpt>
      <trkpt lat="43.37357" lon="2.37832">
        <ele>326.02</ele>
        <time>2017-06-08T14:55:52Z</time>
      </trkpt>
      <trkpt lat="43.37356" lon="2.37834">
        <ele>327.95</ele>
        <time>2017-06-08T14:56:07Z</time>
      </trkpt>
      <trkpt lat="43.37355" lon="2.37834">
        <ele>327.95</ele>
        <time>2017-06-08T14:56:29Z</time>
      </trkpt>
      <trkpt lat="43.37356" lon="2.37834">
        <ele>327.95</ele>
        <time>2017-06-08T14:56:50Z</time>
      </trkpt>
      <trkpt lat="43.37352" lon="2.37837">
        <ele>328.43</ele>
        <time>2017-06-08T14:57:12Z</time>
      </trkpt>
      <trkpt lat="43.37354" lon="2.37836">
        <ele>330.83</ele>
        <time>2017-06-08T14:57:40Z</time>
      </trkpt>
      <trkpt lat="43.37355" lon="2.37837">
        <ele>330.83</ele>
        <time>2017-06-08T14:58:08Z</time>
      </trkpt>
      <trkpt lat="43.37356" lon="2.37838">
        <ele>330.83</ele>
        <time>2017-06-08T14:58:35Z</time>
      </trkpt>
      <trkpt lat="43.37355" lon="2.37838">
        <ele>328.91</ele>
        <time>2017-06-08T14:59:07Z</time>
      </trkpt>
      <trkpt lat="43.37354" lon="2.37834">
        <ele>330.83</ele>
        <time>2017-06-08T14:59:34Z</time>
      </trkpt>
      <trkpt lat="43.37356" lon="2.37835">
        <ele>333.71</ele>
        <time>2017-06-08T15:00:01Z</time>
      </trkpt>
      <trkpt lat="43.37359" lon="2.37838">
        <ele>337.08</ele>
        <time>2017-06-08T15:00:28Z</time>
      </trkpt>
      <trkpt lat="43.37365" lon="2.37833">
        <ele>336.6</ele>
        <time>2017-06-08T15:00:42Z</time>
      </trkpt>
      <trkpt lat="43.37368" lon="2.37831">
        <ele>336.12</ele>
        <time>2017-06-08T15:00:54Z</time>
      </trkpt>
      <trkpt lat="43.37367" lon="2.37832">
        <ele>336.12</ele>
        <time>2017-06-08T15:00:56Z</time>
      </trkpt>
      <trkpt lat="43.37356" lon="2.37837">
        <ele>332.27</ele>
        <time>2017-06-08T15:01:13Z</time>
      </trkpt>
      <trkpt lat="43.37353" lon="2.37836">
        <ele>330.83</ele>
        <time>2017-06-08T15:01:27Z</time>
      </trkpt>
      <trkpt lat="43.37345" lon="2.3784">
        <ele>327.95</ele>
        <time>2017-06-08T15:01:47Z</time>
      </trkpt>
      <trkpt lat="43.37349" lon="2.37853">
        <ele>323.62</ele>
        <time>2017-06-08T15:02:03Z</time>
      </trkpt>
      <trkpt lat="43.3735" lon="2.37856">
        <ele>317.85</ele>
        <time>2017-06-08T15:02:22Z</time>
      </trkpt>
      <trkpt lat="43.37346" lon="2.37864">
        <ele>316.41</ele>
        <time>2017-06-08T15:02:38Z</time>
      </trkpt>
      <trkpt lat="43.37334" lon="2.37873">
        <ele>314.49</ele>
        <time>2017-06-08T15:02:53Z</time>
      </trkpt>
      <trkpt lat="43.3732" lon="2.37874">
        <ele>314.49</ele>
        <time>2017-06-08T15:03:07Z</time>
      </trkpt>
      <trkpt lat="43.37311" lon="2.37879">
        <ele>311.12</ele>
        <time>2017-06-08T15:03:21Z</time>
      </trkpt>
      <trkpt lat="43.37309" lon="2.37881">
        <ele>310.64</ele>
        <time>2017-06-08T15:03:35Z</time>
      </trkpt>
      <trkpt lat="43.37305" lon="2.37886">
        <ele>309.2</ele>
        <time>2017-06-08T15:03:47Z</time>
      </trkpt>
      <trkpt lat="43.37303" lon="2.3789">
        <ele>307.28</ele>
        <time>2017-06-08T15:04:02Z</time>
      </trkpt>
      <trkpt lat="43.37301" lon="2.37895">
        <ele>306.32</ele>
        <time>2017-06-08T15:04:13Z</time>
      </trkpt>
      <trkpt lat="43.3729" lon="2.37895">
        <ele>303.43</ele>
        <time>2017-06-08T15:04:27Z</time>
      </trkpt>
      <trkpt lat="43.3728" lon="2.37887">
        <ele>300.07</ele>
        <time>2017-06-08T15:04:42Z</time>
      </trkpt>
      <trkpt lat="43.37265" lon="2.37876">
        <ele>302.47</ele>
        <time>2017-06-08T15:04:58Z</time>
      </trkpt>
      <trkpt lat="43.37256" lon="2.37863">
        <ele>298.15</ele>
        <time>2017-06-08T15:05:15Z</time>
      </trkpt>
      <trkpt lat="43.37249" lon="2.37845">
        <ele>297.18</ele>
        <time>2017-06-08T15:05:31Z</time>
      </trkpt>
      <trkpt lat="43.37246" lon="2.37837">
        <ele>296.22</ele>
        <time>2017-06-08T15:05:47Z</time>
      </trkpt>
      <trkpt lat="43.3724" lon="2.37837">
        <ele>294.78</ele>
        <time>2017-06-08T15:06:05Z</time>
      </trkpt>
      <trkpt lat="43.37235" lon="2.37825">
        <ele>294.3</ele>
        <time>2017-06-08T15:06:19Z</time>
      </trkpt>
      <trkpt lat="43.37231" lon="2.37804">
        <ele>294.3</ele>
        <time>2017-06-08T15:06:32Z</time>
      </trkpt>
      <trkpt lat="43.37218" lon="2.378">
        <ele>297.67</ele>
        <time>2017-06-08T15:06:46Z</time>
      </trkpt>
      <trkpt lat="43.37205" lon="2.37798">
        <ele>294.3</ele>
        <time>2017-06-08T15:07:02Z</time>
      </trkpt>
      <trkpt lat="43.37196" lon="2.37802">
        <ele>289.97</ele>
        <time>2017-06-08T15:07:18Z</time>
      </trkpt>
      <trkpt lat="43.37189" lon="2.37795">
        <ele>286.13</ele>
        <time>2017-06-08T15:07:30Z</time>
      </trkpt>
      <trkpt lat="43.37166" lon="2.37793">
        <ele>284.69</ele>
        <time>2017-06-08T15:07:47Z</time>
      </trkpt>
      <trkpt lat="43.37157" lon="2.3779">
        <ele>289.97</ele>
        <time>2017-06-08T15:07:53Z</time>
      </trkpt>
      <trkpt lat="43.37153" lon="2.37785">
        <ele>290.46</ele>
        <time>2017-06-08T15:07:59Z</time>
      </trkpt>
      <trkpt lat="43.37142" lon="2.37764">
        <ele>293.34</ele>
        <time>2017-06-08T15:08:13Z</time>
      </trkpt>
      <trkpt lat="43.37132" lon="2.3775">
        <ele>297.18</ele>
        <time>2017-06-08T15:08:25Z</time>
      </trkpt>
      <trkpt lat="43.37129" lon="2.37737">
        <ele>290.94</ele>
        <time>2017-06-08T15:08:40Z</time>
      </trkpt>
      <trkpt lat="43.37128" lon="2.37738">
        <ele>288.53</ele>
        <time>2017-06-08T15:08:55Z</time>
      </trkpt>
      <trkpt lat="43.37127" lon="2.37736">
        <ele>292.38</ele>
        <time>2017-06-08T15:09:19Z</time>
      </trkpt>
      <trkpt lat="43.37126" lon="2.37735">
        <ele>297.18</ele>
        <time>2017-06-08T15:09:39Z</time>
      </trkpt>
      <trkpt lat="43.37128" lon="2.37734">
        <ele>299.59</ele>
        <time>2017-06-08T15:10:03Z</time>
      </trkpt>
    </trkseg>
  </trk>
</gpx>